<?xml version="1.0" encoding="UTF-8" standalone="no" ?>
<gpx xmlns="http://www.topografix.com/GPX/1/1" xmlns:xsi="http://www.w3.org/2001/XMLSchema-instance" xsi:schemaLocation="http://www.topografix.com/GPX/1/1 http://www.topografix.com/GPX/1/1/gpx.xsd" version="1.1" creator="VisuGPX - https://www.visugpx.com">
  <metadata>
    <name>VTT La Motte Circuit des fermes</name>
    <desc><![CDATA[De la Motte prendre la route de Melve . En haut de la montée prendre à gauche puis à la Brejonièreprendre à droite sur Megy se raccorder au circuit N° 7 de l\'OIT à Brunet. Avant Sigoyer prendre à droite en direction de Verdillon puis Predanneau . Après les Baudes , à les Plaines , ne pas prendre l\'itineraire indiqué ci dessus qui contourne le lac , mais aller droit sur les Masses où on retrouve l\'itineraire aller ( le sentier marqué sur IGN entre les plaines et brunet est englobé dans un élevage de sangliers avec cloture infranchissable, un mauvais entier double la cloture et atterit chez des privés )
Le déniv  donné  par visu GPX est erronée , compter 750 m
Tout est sur pistes plus ou moins caillouteuses et sentiers avec quelques portions de petites routes  . On aura intérêt à faire le circuit en sens inverse pour avoir des montées plus roulantes]]></desc>
  </metadata>
  <trk>
    <name><![CDATA[N°  la motte circuit des fermes]]></name>
    <trkseg>
      <trkpt lat="44.34534" lon="6.02947">
        <ele>706.7062988</ele>
        <time>2014-08-19T08:23:24Z</time>
      </trkpt>
      <trkpt lat="44.34536" lon="6.02944">
        <ele>709.590332</ele>
        <time>2014-08-19T08:23:28Z</time>
      </trkpt>
      <trkpt lat="44.34517" lon="6.02931">
        <ele>706.7062988</ele>
        <time>2014-08-19T08:23:34Z</time>
      </trkpt>
      <trkpt lat="44.34515" lon="6.02932">
        <ele>706.2255859</ele>
        <time>2014-08-19T08:23:42Z</time>
      </trkpt>
      <trkpt lat="44.34511" lon="6.02934">
        <ele>709.1096191</ele>
        <time>2014-08-19T08:24:29Z</time>
      </trkpt>
      <trkpt lat="44.34511" lon="6.02936">
        <ele>705.7451172</ele>
        <time>2014-08-19T08:24:44Z</time>
      </trkpt>
      <trkpt lat="44.34511" lon="6.02935">
        <ele>705.7451172</ele>
        <time>2014-08-19T08:24:45Z</time>
      </trkpt>
      <trkpt lat="44.34511" lon="6.0293">
        <ele>707.1870117</ele>
        <time>2014-08-19T08:24:59Z</time>
      </trkpt>
      <trkpt lat="44.34498" lon="6.02913">
        <ele>707.1870117</ele>
        <time>2014-08-19T08:25:10Z</time>
      </trkpt>
      <trkpt lat="44.34488" lon="6.02907">
        <ele>707.1870117</ele>
        <time>2014-08-19T08:25:13Z</time>
      </trkpt>
      <trkpt lat="44.34479" lon="6.02903">
        <ele>705.2644043</ele>
        <time>2014-08-19T08:25:16Z</time>
      </trkpt>
      <trkpt lat="44.34447" lon="6.02872">
        <ele>707.1870117</ele>
        <time>2014-08-19T08:25:30Z</time>
      </trkpt>
      <trkpt lat="44.34438" lon="6.02854">
        <ele>708.1484375</ele>
        <time>2014-08-19T08:25:36Z</time>
      </trkpt>
      <trkpt lat="44.34431" lon="6.02832">
        <ele>707.6677246</ele>
        <time>2014-08-19T08:25:41Z</time>
      </trkpt>
      <trkpt lat="44.34419" lon="6.02808">
        <ele>708.6289063</ele>
        <time>2014-08-19T08:25:50Z</time>
      </trkpt>
      <trkpt lat="44.34423" lon="6.02767">
        <ele>707.1870117</ele>
        <time>2014-08-19T08:25:56Z</time>
      </trkpt>
      <trkpt lat="44.3442" lon="6.02749">
        <ele>706.2255859</ele>
        <time>2014-08-19T08:26:00Z</time>
      </trkpt>
      <trkpt lat="44.34414" lon="6.02714">
        <ele>705.2644043</ele>
        <time>2014-08-19T08:26:07Z</time>
      </trkpt>
      <trkpt lat="44.34426" lon="6.02672">
        <ele>706.2255859</ele>
        <time>2014-08-19T08:26:16Z</time>
      </trkpt>
      <trkpt lat="44.34415" lon="6.02666">
        <ele>703.3417969</ele>
        <time>2014-08-19T08:26:23Z</time>
      </trkpt>
      <trkpt lat="44.34404" lon="6.02687">
        <ele>702.861084</ele>
        <time>2014-08-19T08:26:29Z</time>
      </trkpt>
      <trkpt lat="44.34388" lon="6.02695">
        <ele>702.861084</ele>
        <time>2014-08-19T08:26:34Z</time>
      </trkpt>
      <trkpt lat="44.34373" lon="6.02687">
        <ele>702.861084</ele>
        <time>2014-08-19T08:26:37Z</time>
      </trkpt>
      <trkpt lat="44.3435" lon="6.02691">
        <ele>701.8999023</ele>
        <time>2014-08-19T08:26:41Z</time>
      </trkpt>
      <trkpt lat="44.34312" lon="6.02724">
        <ele>701.4191895</ele>
        <time>2014-08-19T08:26:47Z</time>
      </trkpt>
      <trkpt lat="44.34294" lon="6.02743">
        <ele>699.4963379</ele>
        <time>2014-08-19T08:26:51Z</time>
      </trkpt>
      <trkpt lat="44.34288" lon="6.02748">
        <ele>699.015625</ele>
        <time>2014-08-19T08:26:53Z</time>
      </trkpt>
      <trkpt lat="44.34271" lon="6.02745">
        <ele>699.015625</ele>
        <time>2014-08-19T08:26:57Z</time>
      </trkpt>
      <trkpt lat="44.3426" lon="6.0273">
        <ele>699.015625</ele>
        <time>2014-08-19T08:27:01Z</time>
      </trkpt>
      <trkpt lat="44.34243" lon="6.02723">
        <ele>699.015625</ele>
        <time>2014-08-19T08:27:05Z</time>
      </trkpt>
      <trkpt lat="44.34214" lon="6.02729">
        <ele>699.015625</ele>
        <time>2014-08-19T08:27:11Z</time>
      </trkpt>
      <trkpt lat="44.34142" lon="6.02746">
        <ele>697.5737305</ele>
        <time>2014-08-19T08:27:24Z</time>
      </trkpt>
      <trkpt lat="44.34122" lon="6.02743">
        <ele>697.0930176</ele>
        <time>2014-08-19T08:27:27Z</time>
      </trkpt>
      <trkpt lat="44.34106" lon="6.0273">
        <ele>695.651123</ele>
        <time>2014-08-19T08:27:30Z</time>
      </trkpt>
      <trkpt lat="44.34095" lon="6.02723">
        <ele>695.651123</ele>
        <time>2014-08-19T08:27:32Z</time>
      </trkpt>
      <trkpt lat="44.34063" lon="6.02703">
        <ele>696.6125488</ele>
        <time>2014-08-19T08:27:39Z</time>
      </trkpt>
      <trkpt lat="44.34018" lon="6.02672">
        <ele>698.5349121</ele>
        <time>2014-08-19T08:27:53Z</time>
      </trkpt>
      <trkpt lat="44.33969" lon="6.02658">
        <ele>700.9384766</ele>
        <time>2014-08-19T08:28:12Z</time>
      </trkpt>
      <trkpt lat="44.33928" lon="6.02668">
        <ele>701.4191895</ele>
        <time>2014-08-19T08:28:28Z</time>
      </trkpt>
      <trkpt lat="44.33877" lon="6.02665">
        <ele>702.3803711</ele>
        <time>2014-08-19T08:28:46Z</time>
      </trkpt>
      <trkpt lat="44.33868" lon="6.02662">
        <ele>701.4191895</ele>
        <time>2014-08-19T08:28:49Z</time>
      </trkpt>
      <trkpt lat="44.33846" lon="6.02652">
        <ele>700.9384766</ele>
        <time>2014-08-19T08:28:54Z</time>
      </trkpt>
      <trkpt lat="44.33813" lon="6.02643">
        <ele>699.9770508</ele>
        <time>2014-08-19T08:29:00Z</time>
      </trkpt>
      <trkpt lat="44.33791" lon="6.02637">
        <ele>701.4191895</ele>
        <time>2014-08-19T08:29:04Z</time>
      </trkpt>
      <trkpt lat="44.33778" lon="6.02626">
        <ele>699.9770508</ele>
        <time>2014-08-19T08:29:07Z</time>
      </trkpt>
      <trkpt lat="44.33776" lon="6.02622">
        <ele>700.4580078</ele>
        <time>2014-08-19T08:29:08Z</time>
      </trkpt>
      <trkpt lat="44.33756" lon="6.02587">
        <ele>703.3417969</ele>
        <time>2014-08-19T08:29:19Z</time>
      </trkpt>
      <trkpt lat="44.33721" lon="6.02535">
        <ele>701.4191895</ele>
        <time>2014-08-19T08:29:34Z</time>
      </trkpt>
      <trkpt lat="44.33718" lon="6.0252">
        <ele>702.861084</ele>
        <time>2014-08-19T08:29:37Z</time>
      </trkpt>
      <trkpt lat="44.33716" lon="6.02506">
        <ele>701.4191895</ele>
        <time>2014-08-19T08:29:40Z</time>
      </trkpt>
      <trkpt lat="44.33729" lon="6.02443">
        <ele>702.3803711</ele>
        <time>2014-08-19T08:29:56Z</time>
      </trkpt>
      <trkpt lat="44.33733" lon="6.02412">
        <ele>705.7451172</ele>
        <time>2014-08-19T08:30:04Z</time>
      </trkpt>
      <trkpt lat="44.33733" lon="6.02407">
        <ele>705.7451172</ele>
        <time>2014-08-19T08:30:05Z</time>
      </trkpt>
      <trkpt lat="44.3376" lon="6.02383">
        <ele>706.2255859</ele>
        <time>2014-08-19T08:30:19Z</time>
      </trkpt>
      <trkpt lat="44.33777" lon="6.02347">
        <ele>706.7062988</ele>
        <time>2014-08-19T08:30:34Z</time>
      </trkpt>
      <trkpt lat="44.33779" lon="6.02331">
        <ele>707.1870117</ele>
        <time>2014-08-19T08:30:40Z</time>
      </trkpt>
      <trkpt lat="44.33784" lon="6.02323">
        <ele>709.1096191</ele>
        <time>2014-08-19T08:30:44Z</time>
      </trkpt>
      <trkpt lat="44.33792" lon="6.02309">
        <ele>710.0708008</ele>
        <time>2014-08-19T08:30:50Z</time>
      </trkpt>
      <trkpt lat="44.33793" lon="6.02289">
        <ele>710.5515137</ele>
        <time>2014-08-19T08:30:55Z</time>
      </trkpt>
      <trkpt lat="44.33772" lon="6.02245">
        <ele>712.954834</ele>
        <time>2014-08-19T08:31:15Z</time>
      </trkpt>
      <trkpt lat="44.33764" lon="6.02224">
        <ele>714.8774414</ele>
        <time>2014-08-19T08:31:26Z</time>
      </trkpt>
      <trkpt lat="44.33749" lon="6.02201">
        <ele>717.2810059</ele>
        <time>2014-08-19T08:31:42Z</time>
      </trkpt>
      <trkpt lat="44.33731" lon="6.02203">
        <ele>718.7229004</ele>
        <time>2014-08-19T08:31:55Z</time>
      </trkpt>
      <trkpt lat="44.33716" lon="6.02235">
        <ele>720.6455078</ele>
        <time>2014-08-19T08:32:11Z</time>
      </trkpt>
      <trkpt lat="44.33706" lon="6.02215">
        <ele>722.5681152</ele>
        <time>2014-08-19T08:32:24Z</time>
      </trkpt>
      <trkpt lat="44.33709" lon="6.02196">
        <ele>724.0100098</ele>
        <time>2014-08-19T08:32:34Z</time>
      </trkpt>
      <trkpt lat="44.33705" lon="6.02185">
        <ele>724.9714355</ele>
        <time>2014-08-19T08:32:41Z</time>
      </trkpt>
      <trkpt lat="44.33677" lon="6.02172">
        <ele>727.3747559</ele>
        <time>2014-08-19T08:33:00Z</time>
      </trkpt>
      <trkpt lat="44.33671" lon="6.02172">
        <ele>727.3747559</ele>
        <time>2014-08-19T08:33:03Z</time>
      </trkpt>
      <trkpt lat="44.33649" lon="6.02185">
        <ele>730.2585449</ele>
        <time>2014-08-19T08:33:19Z</time>
      </trkpt>
      <trkpt lat="44.33633" lon="6.02192">
        <ele>732.1813965</ele>
        <time>2014-08-19T08:33:31Z</time>
      </trkpt>
      <trkpt lat="44.33612" lon="6.02177">
        <ele>734.1040039</ele>
        <time>2014-08-19T08:33:48Z</time>
      </trkpt>
      <trkpt lat="44.33599" lon="6.0215">
        <ele>736.987793</ele>
        <time>2014-08-19T08:34:06Z</time>
      </trkpt>
      <trkpt lat="44.33598" lon="6.02142">
        <ele>737.9492188</ele>
        <time>2014-08-19T08:34:11Z</time>
      </trkpt>
      <trkpt lat="44.33591" lon="6.0211">
        <ele>740.8330078</ele>
        <time>2014-08-19T08:34:29Z</time>
      </trkpt>
      <trkpt lat="44.33578" lon="6.02078">
        <ele>743.2363281</ele>
        <time>2014-08-19T08:34:46Z</time>
      </trkpt>
      <trkpt lat="44.33562" lon="6.02054">
        <ele>746.1203613</ele>
        <time>2014-08-19T08:35:04Z</time>
      </trkpt>
      <trkpt lat="44.33532" lon="6.02035">
        <ele>748.5236816</ele>
        <time>2014-08-19T08:35:24Z</time>
      </trkpt>
      <trkpt lat="44.33509" lon="6.02015">
        <ele>750.927002</ele>
        <time>2014-08-19T08:35:43Z</time>
      </trkpt>
      <trkpt lat="44.33505" lon="6.01994">
        <ele>752.8496094</ele>
        <time>2014-08-19T08:35:54Z</time>
      </trkpt>
      <trkpt lat="44.33506" lon="6.01983">
        <ele>754.291748</ele>
        <time>2014-08-19T08:36:01Z</time>
      </trkpt>
      <trkpt lat="44.33501" lon="6.01944">
        <ele>757.1755371</ele>
        <time>2014-08-19T08:36:20Z</time>
      </trkpt>
      <trkpt lat="44.3349" lon="6.01906">
        <ele>760.0593262</ele>
        <time>2014-08-19T08:36:39Z</time>
      </trkpt>
      <trkpt lat="44.33491" lon="6.01898">
        <ele>760.0593262</ele>
        <time>2014-08-19T08:36:43Z</time>
      </trkpt>
      <trkpt lat="44.33492" lon="6.01861">
        <ele>762.9433594</ele>
        <time>2014-08-19T08:37:02Z</time>
      </trkpt>
      <trkpt lat="44.33492" lon="6.01835">
        <ele>764.385498</ele>
        <time>2014-08-19T08:37:15Z</time>
      </trkpt>
      <trkpt lat="44.33482" lon="6.01792">
        <ele>767.75</ele>
        <time>2014-08-19T08:37:36Z</time>
      </trkpt>
      <trkpt lat="44.33482" lon="6.0179">
        <ele>767.75</ele>
        <time>2014-08-19T08:37:37Z</time>
      </trkpt>
      <trkpt lat="44.33489" lon="6.0176">
        <ele>770.1533203</ele>
        <time>2014-08-19T08:37:54Z</time>
      </trkpt>
      <trkpt lat="44.33501" lon="6.01744">
        <ele>772.5566406</ele>
        <time>2014-08-19T08:38:06Z</time>
      </trkpt>
      <trkpt lat="44.33505" lon="6.01738">
        <ele>773.0373535</ele>
        <time>2014-08-19T08:38:10Z</time>
      </trkpt>
      <trkpt lat="44.33508" lon="6.01721">
        <ele>773.9985352</ele>
        <time>2014-08-19T08:38:19Z</time>
      </trkpt>
      <trkpt lat="44.33502" lon="6.01713">
        <ele>774.479248</ele>
        <time>2014-08-19T08:38:24Z</time>
      </trkpt>
      <trkpt lat="44.33495" lon="6.01709">
        <ele>775.9211426</ele>
        <time>2014-08-19T08:38:29Z</time>
      </trkpt>
      <trkpt lat="44.33491" lon="6.01708">
        <ele>775.9211426</ele>
        <time>2014-08-19T08:38:31Z</time>
      </trkpt>
      <trkpt lat="44.33471" lon="6.01723">
        <ele>777.3632813</ele>
        <time>2014-08-19T08:38:45Z</time>
      </trkpt>
      <trkpt lat="44.33452" lon="6.01743">
        <ele>779.7663574</ele>
        <time>2014-08-19T08:39:00Z</time>
      </trkpt>
      <trkpt lat="44.33438" lon="6.01778">
        <ele>782.1699219</ele>
        <time>2014-08-19T08:39:18Z</time>
      </trkpt>
      <trkpt lat="44.33429" lon="6.01792">
        <ele>783.6118164</ele>
        <time>2014-08-19T08:39:27Z</time>
      </trkpt>
      <trkpt lat="44.33398" lon="6.01796">
        <ele>786.0151367</ele>
        <time>2014-08-19T08:39:47Z</time>
      </trkpt>
      <trkpt lat="44.33367" lon="6.01787">
        <ele>788.418457</ele>
        <time>2014-08-19T08:40:08Z</time>
      </trkpt>
      <trkpt lat="44.33339" lon="6.01759">
        <ele>791.3022461</ele>
        <time>2014-08-19T08:40:31Z</time>
      </trkpt>
      <trkpt lat="44.33332" lon="6.01726">
        <ele>793.7055664</ele>
        <time>2014-08-19T08:40:47Z</time>
      </trkpt>
      <trkpt lat="44.33333" lon="6.01683">
        <ele>796.5898438</ele>
        <time>2014-08-19T08:41:07Z</time>
      </trkpt>
      <trkpt lat="44.33324" lon="6.0164">
        <ele>798.0317383</ele>
        <time>2014-08-19T08:41:27Z</time>
      </trkpt>
      <trkpt lat="44.33304" lon="6.01609">
        <ele>799.4736328</ele>
        <time>2014-08-19T08:41:44Z</time>
      </trkpt>
      <trkpt lat="44.3328" lon="6.01579">
        <ele>799.4736328</ele>
        <time>2014-08-19T08:42:01Z</time>
      </trkpt>
      <trkpt lat="44.33267" lon="6.01573">
        <ele>800.4350586</ele>
        <time>2014-08-19T08:42:15Z</time>
      </trkpt>
      <trkpt lat="44.33267" lon="6.01574">
        <ele>800.9155273</ele>
        <time>2014-08-19T08:42:22Z</time>
      </trkpt>
      <trkpt lat="44.33267" lon="6.01574">
        <ele>798.9929199</ele>
        <time>2014-08-19T08:42:24Z</time>
      </trkpt>
      <trkpt lat="44.33241" lon="6.01592">
        <ele>800.9155273</ele>
        <time>2014-08-19T08:42:38Z</time>
      </trkpt>
      <trkpt lat="44.33204" lon="6.01621">
        <ele>802.8381348</ele>
        <time>2014-08-19T08:42:58Z</time>
      </trkpt>
      <trkpt lat="44.33163" lon="6.01633">
        <ele>802.8381348</ele>
        <time>2014-08-19T08:43:17Z</time>
      </trkpt>
      <trkpt lat="44.33159" lon="6.01634">
        <ele>804.7607422</ele>
        <time>2014-08-19T08:43:19Z</time>
      </trkpt>
      <trkpt lat="44.33154" lon="6.01635">
        <ele>803.3188477</ele>
        <time>2014-08-19T08:43:21Z</time>
      </trkpt>
      <trkpt lat="44.3314" lon="6.01634">
        <ele>802.8381348</ele>
        <time>2014-08-19T08:43:26Z</time>
      </trkpt>
      <trkpt lat="44.33118" lon="6.0162">
        <ele>802.8381348</ele>
        <time>2014-08-19T08:43:32Z</time>
      </trkpt>
      <trkpt lat="44.33067" lon="6.01556">
        <ele>804.2802734</ele>
        <time>2014-08-19T08:43:51Z</time>
      </trkpt>
      <trkpt lat="44.33009" lon="6.01507">
        <ele>806.2026367</ele>
        <time>2014-08-19T08:44:14Z</time>
      </trkpt>
      <trkpt lat="44.32981" lon="6.01521">
        <ele>807.6447754</ele>
        <time>2014-08-19T08:44:26Z</time>
      </trkpt>
      <trkpt lat="44.3295" lon="6.01555">
        <ele>809.5673828</ele>
        <time>2014-08-19T08:44:41Z</time>
      </trkpt>
      <trkpt lat="44.329" lon="6.01594">
        <ele>809.5673828</ele>
        <time>2014-08-19T08:44:59Z</time>
      </trkpt>
      <trkpt lat="44.32893" lon="6.01606">
        <ele>809.0866699</ele>
        <time>2014-08-19T08:45:02Z</time>
      </trkpt>
      <trkpt lat="44.32884" lon="6.01631">
        <ele>808.1254883</ele>
        <time>2014-08-19T08:45:06Z</time>
      </trkpt>
      <trkpt lat="44.32869" lon="6.01647">
        <ele>808.1254883</ele>
        <time>2014-08-19T08:45:10Z</time>
      </trkpt>
      <trkpt lat="44.32834" lon="6.01681">
        <ele>809.0866699</ele>
        <time>2014-08-19T08:45:24Z</time>
      </trkpt>
      <trkpt lat="44.32833" lon="6.01686">
        <ele>809.0866699</ele>
        <time>2014-08-19T08:45:25Z</time>
      </trkpt>
      <trkpt lat="44.3282" lon="6.01737">
        <ele>808.605957</ele>
        <time>2014-08-19T08:45:35Z</time>
      </trkpt>
      <trkpt lat="44.3281" lon="6.01732">
        <ele>809.0866699</ele>
        <time>2014-08-19T08:45:39Z</time>
      </trkpt>
      <trkpt lat="44.32786" lon="6.01702">
        <ele>811.9707031</ele>
        <time>2014-08-19T08:45:53Z</time>
      </trkpt>
      <trkpt lat="44.32744" lon="6.01696">
        <ele>813.4128418</ele>
        <time>2014-08-19T08:46:08Z</time>
      </trkpt>
      <trkpt lat="44.32694" lon="6.0168">
        <ele>812.451416</ele>
        <time>2014-08-19T08:46:23Z</time>
      </trkpt>
      <trkpt lat="44.32654" lon="6.01669">
        <ele>812.451416</ele>
        <time>2014-08-19T08:46:35Z</time>
      </trkpt>
      <trkpt lat="44.32639" lon="6.01662">
        <ele>812.451416</ele>
        <time>2014-08-19T08:46:46Z</time>
      </trkpt>
      <trkpt lat="44.32618" lon="6.01662">
        <ele>813.8933105</ele>
        <time>2014-08-19T08:47:09Z</time>
      </trkpt>
      <trkpt lat="44.32555" lon="6.01668">
        <ele>816.2966309</ele>
        <time>2014-08-19T08:47:30Z</time>
      </trkpt>
      <trkpt lat="44.32546" lon="6.01677">
        <ele>815.8161621</ele>
        <time>2014-08-19T08:47:34Z</time>
      </trkpt>
      <trkpt lat="44.32541" lon="6.01685">
        <ele>816.2966309</ele>
        <time>2014-08-19T08:47:46Z</time>
      </trkpt>
      <trkpt lat="44.32539" lon="6.01686">
        <ele>816.2966309</ele>
        <time>2014-08-19T08:47:57Z</time>
      </trkpt>
      <trkpt lat="44.32523" lon="6.01679">
        <ele>814.8547363</ele>
        <time>2014-08-19T08:48:05Z</time>
      </trkpt>
      <trkpt lat="44.3252" lon="6.01673">
        <ele>815.3354492</ele>
        <time>2014-08-19T08:50:19Z</time>
      </trkpt>
      <trkpt lat="44.32526" lon="6.01677">
        <ele>815.8161621</ele>
        <time>2014-08-19T08:50:23Z</time>
      </trkpt>
      <trkpt lat="44.32537" lon="6.01681">
        <ele>818.2192383</ele>
        <time>2014-08-19T08:50:36Z</time>
      </trkpt>
      <trkpt lat="44.32542" lon="6.01685">
        <ele>819.1806641</ele>
        <time>2014-08-19T08:50:51Z</time>
      </trkpt>
      <trkpt lat="44.32541" lon="6.0169">
        <ele>818.6999512</ele>
        <time>2014-08-19T08:51:05Z</time>
      </trkpt>
      <trkpt lat="44.32538" lon="6.01694">
        <ele>819.1806641</ele>
        <time>2014-08-19T08:51:16Z</time>
      </trkpt>
      <trkpt lat="44.32527" lon="6.0171">
        <ele>819.661377</ele>
        <time>2014-08-19T08:51:24Z</time>
      </trkpt>
      <trkpt lat="44.32515" lon="6.01723">
        <ele>821.1032715</ele>
        <time>2014-08-19T08:51:31Z</time>
      </trkpt>
      <trkpt lat="44.32484" lon="6.01746">
        <ele>824.4677734</ele>
        <time>2014-08-19T08:51:47Z</time>
      </trkpt>
      <trkpt lat="44.32477" lon="6.01757">
        <ele>825.909668</ele>
        <time>2014-08-19T08:51:53Z</time>
      </trkpt>
      <trkpt lat="44.32474" lon="6.0176">
        <ele>825.909668</ele>
        <time>2014-08-19T08:51:59Z</time>
      </trkpt>
      <trkpt lat="44.32461" lon="6.01769">
        <ele>827.3518066</ele>
        <time>2014-08-19T08:52:13Z</time>
      </trkpt>
      <trkpt lat="44.32457" lon="6.01774">
        <ele>827.8322754</ele>
        <time>2014-08-19T08:52:26Z</time>
      </trkpt>
      <trkpt lat="44.32442" lon="6.01807">
        <ele>829.2744141</ele>
        <time>2014-08-19T08:52:37Z</time>
      </trkpt>
      <trkpt lat="44.32435" lon="6.01838">
        <ele>828.7939453</ele>
        <time>2014-08-19T08:52:45Z</time>
      </trkpt>
      <trkpt lat="44.32416" lon="6.01869">
        <ele>830.2358398</ele>
        <time>2014-08-19T08:52:57Z</time>
      </trkpt>
      <trkpt lat="44.3241" lon="6.01872">
        <ele>830.7165527</ele>
        <time>2014-08-19T08:53:00Z</time>
      </trkpt>
      <trkpt lat="44.32384" lon="6.01877">
        <ele>830.7165527</ele>
        <time>2014-08-19T08:53:13Z</time>
      </trkpt>
      <trkpt lat="44.32351" lon="6.01924">
        <ele>828.3132324</ele>
        <time>2014-08-19T08:53:26Z</time>
      </trkpt>
      <trkpt lat="44.32343" lon="6.01943">
        <ele>826.3903809</ele>
        <time>2014-08-19T08:53:31Z</time>
      </trkpt>
      <trkpt lat="44.32331" lon="6.01994">
        <ele>823.0258789</ele>
        <time>2014-08-19T08:53:43Z</time>
      </trkpt>
      <trkpt lat="44.32329" lon="6.02">
        <ele>823.0258789</ele>
        <time>2014-08-19T08:53:45Z</time>
      </trkpt>
      <trkpt lat="44.32325" lon="6.02007">
        <ele>822.545166</ele>
        <time>2014-08-19T08:53:56Z</time>
      </trkpt>
      <trkpt lat="44.32311" lon="6.02014">
        <ele>823.0258789</ele>
        <time>2014-08-19T08:54:19Z</time>
      </trkpt>
      <trkpt lat="44.32273" lon="6.02028">
        <ele>823.0258789</ele>
        <time>2014-08-19T08:54:33Z</time>
      </trkpt>
      <trkpt lat="44.32235" lon="6.02038">
        <ele>823.0258789</ele>
        <time>2014-08-19T08:54:46Z</time>
      </trkpt>
      <trkpt lat="44.32192" lon="6.02064">
        <ele>822.545166</ele>
        <time>2014-08-19T08:55:02Z</time>
      </trkpt>
      <trkpt lat="44.32158" lon="6.02046">
        <ele>823.0258789</ele>
        <time>2014-08-19T08:55:15Z</time>
      </trkpt>
      <trkpt lat="44.32114" lon="6.02017">
        <ele>822.545166</ele>
        <time>2014-08-19T08:55:28Z</time>
      </trkpt>
      <trkpt lat="44.3208" lon="6.01985">
        <ele>821.1032715</ele>
        <time>2014-08-19T08:55:41Z</time>
      </trkpt>
      <trkpt lat="44.32047" lon="6.0193">
        <ele>822.545166</ele>
        <time>2014-08-19T08:55:59Z</time>
      </trkpt>
      <trkpt lat="44.3201" lon="6.01886">
        <ele>820.6225586</ele>
        <time>2014-08-19T08:56:10Z</time>
      </trkpt>
      <trkpt lat="44.3198" lon="6.01854">
        <ele>822.545166</ele>
        <time>2014-08-19T08:56:23Z</time>
      </trkpt>
      <trkpt lat="44.31971" lon="6.0183">
        <ele>823.0258789</ele>
        <time>2014-08-19T08:56:32Z</time>
      </trkpt>
      <trkpt lat="44.31932" lon="6.0176">
        <ele>821.1032715</ele>
        <time>2014-08-19T08:56:52Z</time>
      </trkpt>
      <trkpt lat="44.31898" lon="6.01681">
        <ele>818.6999512</ele>
        <time>2014-08-19T08:57:11Z</time>
      </trkpt>
      <trkpt lat="44.31886" lon="6.01649">
        <ele>819.1806641</ele>
        <time>2014-08-19T08:57:21Z</time>
      </trkpt>
      <trkpt lat="44.31884" lon="6.01645">
        <ele>818.6999512</ele>
        <time>2014-08-19T08:57:32Z</time>
      </trkpt>
      <trkpt lat="44.31878" lon="6.01625">
        <ele>820.1418457</ele>
        <time>2014-08-19T08:57:47Z</time>
      </trkpt>
      <trkpt lat="44.31876" lon="6.01619">
        <ele>819.661377</ele>
        <time>2014-08-19T08:57:51Z</time>
      </trkpt>
      <trkpt lat="44.31862" lon="6.01605">
        <ele>820.6225586</ele>
        <time>2014-08-19T08:58:07Z</time>
      </trkpt>
      <trkpt lat="44.31851" lon="6.01602">
        <ele>821.1032715</ele>
        <time>2014-08-19T08:58:16Z</time>
      </trkpt>
      <trkpt lat="44.31849" lon="6.01597">
        <ele>821.5837402</ele>
        <time>2014-08-19T08:58:38Z</time>
      </trkpt>
      <trkpt lat="44.3185" lon="6.01596">
        <ele>822.545166</ele>
        <time>2014-08-19T09:07:41Z</time>
      </trkpt>
      <trkpt lat="44.3185" lon="6.01596">
        <ele>823.0258789</ele>
        <time>2014-08-19T09:07:57Z</time>
      </trkpt>
      <trkpt lat="44.31859" lon="6.01585">
        <ele>823.9870605</ele>
        <time>2014-08-19T09:08:13Z</time>
      </trkpt>
      <trkpt lat="44.31862" lon="6.01582">
        <ele>823.9870605</ele>
        <time>2014-08-19T09:08:36Z</time>
      </trkpt>
      <trkpt lat="44.31864" lon="6.01574">
        <ele>823.9870605</ele>
        <time>2014-08-19T09:08:40Z</time>
      </trkpt>
      <trkpt lat="44.31867" lon="6.01563">
        <ele>824.4677734</ele>
        <time>2014-08-19T09:08:43Z</time>
      </trkpt>
      <trkpt lat="44.31899" lon="6.01535">
        <ele>823.0258789</ele>
        <time>2014-08-19T09:08:59Z</time>
      </trkpt>
      <trkpt lat="44.31913" lon="6.01511">
        <ele>821.5837402</ele>
        <time>2014-08-19T09:09:05Z</time>
      </trkpt>
      <trkpt lat="44.3193" lon="6.01493">
        <ele>818.6999512</ele>
        <time>2014-08-19T09:09:13Z</time>
      </trkpt>
      <trkpt lat="44.31938" lon="6.01485">
        <ele>817.7385254</ele>
        <time>2014-08-19T09:09:17Z</time>
      </trkpt>
      <trkpt lat="44.3194" lon="6.0148">
        <ele>817.2580566</ele>
        <time>2014-08-19T09:09:19Z</time>
      </trkpt>
      <trkpt lat="44.31926" lon="6.01455">
        <ele>816.2966309</ele>
        <time>2014-08-19T09:09:30Z</time>
      </trkpt>
      <trkpt lat="44.31932" lon="6.01443">
        <ele>815.8161621</ele>
        <time>2014-08-19T09:09:38Z</time>
      </trkpt>
      <trkpt lat="44.31943" lon="6.01442">
        <ele>816.2966309</ele>
        <time>2014-08-19T09:09:44Z</time>
      </trkpt>
      <trkpt lat="44.31949" lon="6.01437">
        <ele>816.7773438</ele>
        <time>2014-08-19T09:09:48Z</time>
      </trkpt>
      <trkpt lat="44.31954" lon="6.01431">
        <ele>816.7773438</ele>
        <time>2014-08-19T09:09:52Z</time>
      </trkpt>
      <trkpt lat="44.31957" lon="6.01426">
        <ele>816.7773438</ele>
        <time>2014-08-19T09:09:54Z</time>
      </trkpt>
      <trkpt lat="44.31974" lon="6.01397">
        <ele>816.2966309</ele>
        <time>2014-08-19T09:10:05Z</time>
      </trkpt>
      <trkpt lat="44.31975" lon="6.01396">
        <ele>816.2966309</ele>
        <time>2014-08-19T09:10:06Z</time>
      </trkpt>
      <trkpt lat="44.31981" lon="6.01383">
        <ele>815.8161621</ele>
        <time>2014-08-19T09:10:19Z</time>
      </trkpt>
      <trkpt lat="44.31982" lon="6.0138">
        <ele>815.8161621</ele>
        <time>2014-08-19T09:10:21Z</time>
      </trkpt>
      <trkpt lat="44.31999" lon="6.01362">
        <ele>814.8547363</ele>
        <time>2014-08-19T09:10:30Z</time>
      </trkpt>
      <trkpt lat="44.32006" lon="6.01322">
        <ele>815.3354492</ele>
        <time>2014-08-19T09:10:44Z</time>
      </trkpt>
      <trkpt lat="44.32005" lon="6.01308">
        <ele>815.3354492</ele>
        <time>2014-08-19T09:10:49Z</time>
      </trkpt>
      <trkpt lat="44.32022" lon="6.01266">
        <ele>814.8547363</ele>
        <time>2014-08-19T09:11:02Z</time>
      </trkpt>
      <trkpt lat="44.32023" lon="6.0124">
        <ele>813.4128418</ele>
        <time>2014-08-19T09:11:11Z</time>
      </trkpt>
      <trkpt lat="44.32013" lon="6.01215">
        <ele>812.451416</ele>
        <time>2014-08-19T09:11:21Z</time>
      </trkpt>
      <trkpt lat="44.32012" lon="6.0121">
        <ele>813.4128418</ele>
        <time>2014-08-19T09:11:23Z</time>
      </trkpt>
      <trkpt lat="44.32013" lon="6.01203">
        <ele>813.4128418</ele>
        <time>2014-08-19T09:11:26Z</time>
      </trkpt>
      <trkpt lat="44.32024" lon="6.01189">
        <ele>813.4128418</ele>
        <time>2014-08-19T09:11:34Z</time>
      </trkpt>
      <trkpt lat="44.32044" lon="6.01183">
        <ele>811.4899902</ele>
        <time>2014-08-19T09:11:45Z</time>
      </trkpt>
      <trkpt lat="44.32052" lon="6.01171">
        <ele>810.5285645</ele>
        <time>2014-08-19T09:11:54Z</time>
      </trkpt>
      <trkpt lat="44.32052" lon="6.01171">
        <ele>810.5285645</ele>
        <time>2014-08-19T09:12:03Z</time>
      </trkpt>
      <trkpt lat="44.32057" lon="6.01168">
        <ele>809.5673828</ele>
        <time>2014-08-19T09:12:06Z</time>
      </trkpt>
      <trkpt lat="44.32073" lon="6.01148">
        <ele>808.605957</ele>
        <time>2014-08-19T09:12:13Z</time>
      </trkpt>
      <trkpt lat="44.32085" lon="6.01145">
        <ele>808.1254883</ele>
        <time>2014-08-19T09:12:19Z</time>
      </trkpt>
      <trkpt lat="44.32092" lon="6.01141">
        <ele>807.6447754</ele>
        <time>2014-08-19T09:12:23Z</time>
      </trkpt>
      <trkpt lat="44.32127" lon="6.01113">
        <ele>807.1640625</ele>
        <time>2014-08-19T09:12:36Z</time>
      </trkpt>
      <trkpt lat="44.32133" lon="6.01095">
        <ele>806.6833496</ele>
        <time>2014-08-19T09:12:42Z</time>
      </trkpt>
      <trkpt lat="44.32133" lon="6.01087">
        <ele>807.6447754</ele>
        <time>2014-08-19T09:12:45Z</time>
      </trkpt>
      <trkpt lat="44.32133" lon="6.01108">
        <ele>807.1640625</ele>
        <time>2014-08-19T09:19:35Z</time>
      </trkpt>
      <trkpt lat="44.32147" lon="6.01103">
        <ele>806.2026367</ele>
        <time>2014-08-19T09:19:44Z</time>
      </trkpt>
      <trkpt lat="44.32157" lon="6.01096">
        <ele>807.1640625</ele>
        <time>2014-08-19T09:19:55Z</time>
      </trkpt>
      <trkpt lat="44.3216" lon="6.01088">
        <ele>806.2026367</ele>
        <time>2014-08-19T09:20:01Z</time>
      </trkpt>
      <trkpt lat="44.32167" lon="6.01074">
        <ele>806.2026367</ele>
        <time>2014-08-19T09:20:11Z</time>
      </trkpt>
      <trkpt lat="44.32166" lon="6.01069">
        <ele>806.2026367</ele>
        <time>2014-08-19T09:20:14Z</time>
      </trkpt>
      <trkpt lat="44.32165" lon="6.0106">
        <ele>804.7607422</ele>
        <time>2014-08-19T09:20:19Z</time>
      </trkpt>
      <trkpt lat="44.32163" lon="6.01056">
        <ele>803.3188477</ele>
        <time>2014-08-19T09:20:22Z</time>
      </trkpt>
      <trkpt lat="44.32157" lon="6.01044">
        <ele>799.9543457</ele>
        <time>2014-08-19T09:20:29Z</time>
      </trkpt>
      <trkpt lat="44.32157" lon="6.01038">
        <ele>799.9543457</ele>
        <time>2014-08-19T09:20:39Z</time>
      </trkpt>
      <trkpt lat="44.32169" lon="6.01036">
        <ele>800.9155273</ele>
        <time>2014-08-19T09:20:57Z</time>
      </trkpt>
      <trkpt lat="44.32172" lon="6.01031">
        <ele>802.8381348</ele>
        <time>2014-08-19T09:21:24Z</time>
      </trkpt>
      <trkpt lat="44.32186" lon="6.01026">
        <ele>804.7607422</ele>
        <time>2014-08-19T09:22:12Z</time>
      </trkpt>
      <trkpt lat="44.3219" lon="6.01027">
        <ele>805.722168</ele>
        <time>2014-08-19T09:22:19Z</time>
      </trkpt>
      <trkpt lat="44.32201" lon="6.01021">
        <ele>807.1640625</ele>
        <time>2014-08-19T09:22:29Z</time>
      </trkpt>
      <trkpt lat="44.32216" lon="6.01004">
        <ele>807.6447754</ele>
        <time>2014-08-19T09:22:45Z</time>
      </trkpt>
      <trkpt lat="44.32219" lon="6.01002">
        <ele>808.1254883</ele>
        <time>2014-08-19T09:22:52Z</time>
      </trkpt>
      <trkpt lat="44.32235" lon="6.00991">
        <ele>808.605957</ele>
        <time>2014-08-19T09:23:02Z</time>
      </trkpt>
      <trkpt lat="44.3224" lon="6.00987">
        <ele>808.605957</ele>
        <time>2014-08-19T09:23:05Z</time>
      </trkpt>
      <trkpt lat="44.32249" lon="6.0098">
        <ele>809.0866699</ele>
        <time>2014-08-19T09:23:10Z</time>
      </trkpt>
      <trkpt lat="44.32252" lon="6.00978">
        <ele>809.5673828</ele>
        <time>2014-08-19T09:23:15Z</time>
      </trkpt>
      <trkpt lat="44.32261" lon="6.00975">
        <ele>810.0478516</ele>
        <time>2014-08-19T09:23:21Z</time>
      </trkpt>
      <trkpt lat="44.32272" lon="6.00971">
        <ele>810.5285645</ele>
        <time>2014-08-19T09:23:28Z</time>
      </trkpt>
      <trkpt lat="44.32277" lon="6.00971">
        <ele>810.0478516</ele>
        <time>2014-08-19T09:23:40Z</time>
      </trkpt>
      <trkpt lat="44.32278" lon="6.00971">
        <ele>810.0478516</ele>
        <time>2014-08-19T09:23:41Z</time>
      </trkpt>
      <trkpt lat="44.32291" lon="6.00967">
        <ele>809.0866699</ele>
        <time>2014-08-19T09:23:46Z</time>
      </trkpt>
      <trkpt lat="44.32333" lon="6.00948">
        <ele>805.2414551</ele>
        <time>2014-08-19T09:23:53Z</time>
      </trkpt>
      <trkpt lat="44.3236" lon="6.00925">
        <ele>802.8381348</ele>
        <time>2014-08-19T09:23:57Z</time>
      </trkpt>
      <trkpt lat="44.32372" lon="6.00908">
        <ele>801.8769531</ele>
        <time>2014-08-19T09:23:59Z</time>
      </trkpt>
      <trkpt lat="44.3239" lon="6.00887">
        <ele>800.4350586</ele>
        <time>2014-08-19T09:24:02Z</time>
      </trkpt>
      <trkpt lat="44.32402" lon="6.00867">
        <ele>798.512207</ele>
        <time>2014-08-19T09:24:05Z</time>
      </trkpt>
      <trkpt lat="44.32414" lon="6.0085">
        <ele>798.0317383</ele>
        <time>2014-08-19T09:24:08Z</time>
      </trkpt>
      <trkpt lat="44.3243" lon="6.00837">
        <ele>795.6281738</ele>
        <time>2014-08-19T09:24:11Z</time>
      </trkpt>
      <trkpt lat="44.32448" lon="6.00814">
        <ele>793.7055664</ele>
        <time>2014-08-19T09:24:15Z</time>
      </trkpt>
      <trkpt lat="44.32455" lon="6.00801">
        <ele>791.782959</ele>
        <time>2014-08-19T09:24:17Z</time>
      </trkpt>
      <trkpt lat="44.3247" lon="6.00785">
        <ele>788.8991699</ele>
        <time>2014-08-19T09:24:20Z</time>
      </trkpt>
      <trkpt lat="44.32481" lon="6.00777">
        <ele>786.9763184</ele>
        <time>2014-08-19T09:24:22Z</time>
      </trkpt>
      <trkpt lat="44.32486" lon="6.00772">
        <ele>786.0151367</ele>
        <time>2014-08-19T09:24:23Z</time>
      </trkpt>
      <trkpt lat="44.32498" lon="6.00747">
        <ele>785.0539551</ele>
        <time>2014-08-19T09:24:27Z</time>
      </trkpt>
      <trkpt lat="44.32502" lon="6.00721">
        <ele>783.6118164</ele>
        <time>2014-08-19T09:24:30Z</time>
      </trkpt>
      <trkpt lat="44.32498" lon="6.00679">
        <ele>782.1699219</ele>
        <time>2014-08-19T09:24:34Z</time>
      </trkpt>
      <trkpt lat="44.32494" lon="6.00663">
        <ele>780.7280273</ele>
        <time>2014-08-19T09:24:36Z</time>
      </trkpt>
      <trkpt lat="44.32495" lon="6.0065">
        <ele>778.8051758</ele>
        <time>2014-08-19T09:24:38Z</time>
      </trkpt>
      <trkpt lat="44.32507" lon="6.00634">
        <ele>775.4404297</ele>
        <time>2014-08-19T09:24:42Z</time>
      </trkpt>
      <trkpt lat="44.32511" lon="6.00632">
        <ele>775.4404297</ele>
        <time>2014-08-19T09:24:43Z</time>
      </trkpt>
      <trkpt lat="44.32517" lon="6.00622">
        <ele>773.0373535</ele>
        <time>2014-08-19T09:24:45Z</time>
      </trkpt>
      <trkpt lat="44.32536" lon="6.00635">
        <ele>768.7114258</ele>
        <time>2014-08-19T09:24:50Z</time>
      </trkpt>
      <trkpt lat="44.3254" lon="6.00643">
        <ele>767.2695313</ele>
        <time>2014-08-19T09:24:51Z</time>
      </trkpt>
      <trkpt lat="44.32566" lon="6.00676">
        <ele>766.7888184</ele>
        <time>2014-08-19T09:24:59Z</time>
      </trkpt>
      <trkpt lat="44.32591" lon="6.00703">
        <ele>766.3081055</ele>
        <time>2014-08-19T09:25:08Z</time>
      </trkpt>
      <trkpt lat="44.32598" lon="6.00707">
        <ele>766.7888184</ele>
        <time>2014-08-19T09:25:11Z</time>
      </trkpt>
      <trkpt lat="44.32606" lon="6.00713">
        <ele>767.2695313</ele>
        <time>2014-08-19T09:25:24Z</time>
      </trkpt>
      <trkpt lat="44.32606" lon="6.00712">
        <ele>766.3081055</ele>
        <time>2014-08-19T09:25:34Z</time>
      </trkpt>
      <trkpt lat="44.32629" lon="6.00711">
        <ele>767.2695313</ele>
        <time>2014-08-19T09:25:44Z</time>
      </trkpt>
      <trkpt lat="44.32656" lon="6.00671">
        <ele>769.6728516</ele>
        <time>2014-08-19T09:25:58Z</time>
      </trkpt>
      <trkpt lat="44.32657" lon="6.00669">
        <ele>769.6728516</ele>
        <time>2014-08-19T09:25:59Z</time>
      </trkpt>
      <trkpt lat="44.32661" lon="6.0066">
        <ele>770.1533203</ele>
        <time>2014-08-19T09:26:02Z</time>
      </trkpt>
      <trkpt lat="44.32668" lon="6.00636">
        <ele>772.0759277</ele>
        <time>2014-08-19T09:26:11Z</time>
      </trkpt>
      <trkpt lat="44.32668" lon="6.00631">
        <ele>772.5566406</ele>
        <time>2014-08-19T09:26:13Z</time>
      </trkpt>
      <trkpt lat="44.32662" lon="6.00624">
        <ele>773.0373535</ele>
        <time>2014-08-19T09:26:18Z</time>
      </trkpt>
      <trkpt lat="44.32626" lon="6.00606">
        <ele>772.5566406</ele>
        <time>2014-08-19T09:26:30Z</time>
      </trkpt>
      <trkpt lat="44.32623" lon="6.00601">
        <ele>772.5566406</ele>
        <time>2014-08-19T09:26:31Z</time>
      </trkpt>
      <trkpt lat="44.32613" lon="6.00588">
        <ele>771.5952148</ele>
        <time>2014-08-19T09:26:34Z</time>
      </trkpt>
      <trkpt lat="44.32604" lon="6.00571">
        <ele>772.0759277</ele>
        <time>2014-08-19T09:26:37Z</time>
      </trkpt>
      <trkpt lat="44.32595" lon="6.00548">
        <ele>770.1533203</ele>
        <time>2014-08-19T09:26:41Z</time>
      </trkpt>
      <trkpt lat="44.32579" lon="6.00496">
        <ele>768.7114258</ele>
        <time>2014-08-19T09:26:49Z</time>
      </trkpt>
      <trkpt lat="44.32562" lon="6.00479">
        <ele>767.75</ele>
        <time>2014-08-19T09:26:54Z</time>
      </trkpt>
      <trkpt lat="44.32546" lon="6.0047">
        <ele>767.2695313</ele>
        <time>2014-08-19T09:26:58Z</time>
      </trkpt>
      <trkpt lat="44.32502" lon="6.00394">
        <ele>763.904541</ele>
        <time>2014-08-19T09:27:10Z</time>
      </trkpt>
      <trkpt lat="44.32499" lon="6.00387">
        <ele>763.904541</ele>
        <time>2014-08-19T09:27:11Z</time>
      </trkpt>
      <trkpt lat="44.32491" lon="6.0035">
        <ele>761.9821777</ele>
        <time>2014-08-19T09:27:22Z</time>
      </trkpt>
      <trkpt lat="44.32492" lon="6.00346">
        <ele>762.4626465</ele>
        <time>2014-08-19T09:27:39Z</time>
      </trkpt>
      <trkpt lat="44.32491" lon="6.00296">
        <ele>762.9433594</ele>
        <time>2014-08-19T09:27:52Z</time>
      </trkpt>
      <trkpt lat="44.32498" lon="6.00261">
        <ele>761.5014648</ele>
        <time>2014-08-19T09:28:00Z</time>
      </trkpt>
      <trkpt lat="44.32499" lon="6.00233">
        <ele>761.5014648</ele>
        <time>2014-08-19T09:28:05Z</time>
      </trkpt>
      <trkpt lat="44.32503" lon="6.00339">
        <ele>758.6174316</ele>
        <time>2014-08-19T09:34:19Z</time>
      </trkpt>
      <trkpt lat="44.32499" lon="6.00339">
        <ele>758.1369629</ele>
        <time>2014-08-19T09:34:25Z</time>
      </trkpt>
      <trkpt lat="44.3249" lon="6.00309">
        <ele>754.7722168</ele>
        <time>2014-08-19T09:34:32Z</time>
      </trkpt>
      <trkpt lat="44.32471" lon="6.00279">
        <ele>754.7722168</ele>
        <time>2014-08-19T09:34:42Z</time>
      </trkpt>
      <trkpt lat="44.32468" lon="6.00273">
        <ele>754.291748</ele>
        <time>2014-08-19T09:35:01Z</time>
      </trkpt>
      <trkpt lat="44.32463" lon="6.00221">
        <ele>751.8884277</ele>
        <time>2014-08-19T09:35:09Z</time>
      </trkpt>
      <trkpt lat="44.32448" lon="6.00148">
        <ele>753.3303223</ele>
        <time>2014-08-19T09:35:22Z</time>
      </trkpt>
      <trkpt lat="44.32435" lon="6.00088">
        <ele>753.3303223</ele>
        <time>2014-08-19T09:35:35Z</time>
      </trkpt>
      <trkpt lat="44.32431" lon="6.00063">
        <ele>753.3303223</ele>
        <time>2014-08-19T09:35:39Z</time>
      </trkpt>
      <trkpt lat="44.32424" lon="6.0003">
        <ele>753.8110352</ele>
        <time>2014-08-19T09:35:44Z</time>
      </trkpt>
      <trkpt lat="44.32428" lon="5.99987">
        <ele>756.2141113</ele>
        <time>2014-08-19T09:35:55Z</time>
      </trkpt>
      <trkpt lat="44.3243" lon="5.99964">
        <ele>756.2141113</ele>
        <time>2014-08-19T09:36:01Z</time>
      </trkpt>
      <trkpt lat="44.32421" lon="5.99893">
        <ele>756.2141113</ele>
        <time>2014-08-19T09:36:14Z</time>
      </trkpt>
      <trkpt lat="44.32413" lon="5.99856">
        <ele>755.2529297</ele>
        <time>2014-08-19T09:36:20Z</time>
      </trkpt>
      <trkpt lat="44.32407" lon="5.99839">
        <ele>754.291748</ele>
        <time>2014-08-19T09:36:23Z</time>
      </trkpt>
      <trkpt lat="44.32396" lon="5.99813">
        <ele>753.8110352</ele>
        <time>2014-08-19T09:36:28Z</time>
      </trkpt>
      <trkpt lat="44.32375" lon="5.99779">
        <ele>752.8496094</ele>
        <time>2014-08-19T09:36:35Z</time>
      </trkpt>
      <trkpt lat="44.32356" lon="5.99748">
        <ele>749.9658203</ele>
        <time>2014-08-19T09:36:40Z</time>
      </trkpt>
      <trkpt lat="44.32336" lon="5.99711">
        <ele>748.0432129</ele>
        <time>2014-08-19T09:36:45Z</time>
      </trkpt>
      <trkpt lat="44.32315" lon="5.99684">
        <ele>748.0432129</ele>
        <time>2014-08-19T09:36:50Z</time>
      </trkpt>
      <trkpt lat="44.32307" lon="5.9967">
        <ele>749.4851074</ele>
        <time>2014-08-19T09:36:53Z</time>
      </trkpt>
      <trkpt lat="44.32296" lon="5.9965">
        <ele>749.9658203</ele>
        <time>2014-08-19T09:36:59Z</time>
      </trkpt>
      <trkpt lat="44.32292" lon="5.99636">
        <ele>751.8884277</ele>
        <time>2014-08-19T09:37:03Z</time>
      </trkpt>
      <trkpt lat="44.32273" lon="5.996">
        <ele>751.4077148</ele>
        <time>2014-08-19T09:37:14Z</time>
      </trkpt>
      <trkpt lat="44.32258" lon="5.99559">
        <ele>753.3303223</ele>
        <time>2014-08-19T09:37:25Z</time>
      </trkpt>
      <trkpt lat="44.32262" lon="5.99506">
        <ele>752.8496094</ele>
        <time>2014-08-19T09:37:37Z</time>
      </trkpt>
      <trkpt lat="44.32268" lon="5.99443">
        <ele>749.9658203</ele>
        <time>2014-08-19T09:37:44Z</time>
      </trkpt>
      <trkpt lat="44.32271" lon="5.99389">
        <ele>747.081543</ele>
        <time>2014-08-19T09:37:49Z</time>
      </trkpt>
      <trkpt lat="44.32272" lon="5.99345">
        <ele>745.6396484</ele>
        <time>2014-08-19T09:37:54Z</time>
      </trkpt>
      <trkpt lat="44.32271" lon="5.99338">
        <ele>745.6396484</ele>
        <time>2014-08-19T09:37:55Z</time>
      </trkpt>
      <trkpt lat="44.32261" lon="5.99315">
        <ele>745.6396484</ele>
        <time>2014-08-19T09:38:00Z</time>
      </trkpt>
      <trkpt lat="44.32245" lon="5.99303">
        <ele>746.1203613</ele>
        <time>2014-08-19T09:38:05Z</time>
      </trkpt>
      <trkpt lat="44.32234" lon="5.99292">
        <ele>744.1977539</ele>
        <time>2014-08-19T09:38:09Z</time>
      </trkpt>
      <trkpt lat="44.32235" lon="5.99279">
        <ele>745.1589355</ele>
        <time>2014-08-19T09:38:13Z</time>
      </trkpt>
      <trkpt lat="44.32254" lon="5.99247">
        <ele>748.5236816</ele>
        <time>2014-08-19T09:38:28Z</time>
      </trkpt>
      <trkpt lat="44.32261" lon="5.99205">
        <ele>748.0432129</ele>
        <time>2014-08-19T09:38:41Z</time>
      </trkpt>
      <trkpt lat="44.32263" lon="5.9917">
        <ele>747.5622559</ele>
        <time>2014-08-19T09:38:47Z</time>
      </trkpt>
      <trkpt lat="44.3222" lon="5.99119">
        <ele>746.6010742</ele>
        <time>2014-08-19T09:39:01Z</time>
      </trkpt>
      <trkpt lat="44.32198" lon="5.99098">
        <ele>746.1203613</ele>
        <time>2014-08-19T09:39:06Z</time>
      </trkpt>
      <trkpt lat="44.32174" lon="5.99073">
        <ele>744.1977539</ele>
        <time>2014-08-19T09:39:11Z</time>
      </trkpt>
      <trkpt lat="44.32159" lon="5.99065">
        <ele>744.1977539</ele>
        <time>2014-08-19T09:39:14Z</time>
      </trkpt>
      <trkpt lat="44.32133" lon="5.99064">
        <ele>744.6782227</ele>
        <time>2014-08-19T09:39:19Z</time>
      </trkpt>
      <trkpt lat="44.32119" lon="5.99062">
        <ele>744.6782227</ele>
        <time>2014-08-19T09:39:22Z</time>
      </trkpt>
      <trkpt lat="44.32093" lon="5.99061">
        <ele>744.1977539</ele>
        <time>2014-08-19T09:39:28Z</time>
      </trkpt>
      <trkpt lat="44.32089" lon="5.99039">
        <ele>744.6782227</ele>
        <time>2014-08-19T09:39:32Z</time>
      </trkpt>
      <trkpt lat="44.32088" lon="5.98969">
        <ele>747.081543</ele>
        <time>2014-08-19T09:39:45Z</time>
      </trkpt>
      <trkpt lat="44.32072" lon="5.9892">
        <ele>749.4851074</ele>
        <time>2014-08-19T09:40:00Z</time>
      </trkpt>
      <trkpt lat="44.32044" lon="5.98878">
        <ele>752.3688965</ele>
        <time>2014-08-19T09:40:17Z</time>
      </trkpt>
      <trkpt lat="44.32019" lon="5.98835">
        <ele>753.3303223</ele>
        <time>2014-08-19T09:40:32Z</time>
      </trkpt>
      <trkpt lat="44.32017" lon="5.98804">
        <ele>755.7336426</ele>
        <time>2014-08-19T09:40:43Z</time>
      </trkpt>
      <trkpt lat="44.32017" lon="5.98792">
        <ele>757.65625</ele>
        <time>2014-08-19T09:40:56Z</time>
      </trkpt>
      <trkpt lat="44.32018" lon="5.98778">
        <ele>759.5788574</ele>
        <time>2014-08-19T09:41:06Z</time>
      </trkpt>
      <trkpt lat="44.32019" lon="5.98775">
        <ele>759.0981445</ele>
        <time>2014-08-19T09:41:08Z</time>
      </trkpt>
      <trkpt lat="44.32018" lon="5.98763">
        <ele>760.5400391</ele>
        <time>2014-08-19T09:41:20Z</time>
      </trkpt>
      <trkpt lat="44.32017" lon="5.98757">
        <ele>761.9821777</ele>
        <time>2014-08-19T09:41:25Z</time>
      </trkpt>
      <trkpt lat="44.32014" lon="5.98736">
        <ele>763.4240723</ele>
        <time>2014-08-19T09:41:43Z</time>
      </trkpt>
      <trkpt lat="44.3201" lon="5.9872">
        <ele>764.385498</ele>
        <time>2014-08-19T09:41:58Z</time>
      </trkpt>
      <trkpt lat="44.3201" lon="5.98717">
        <ele>764.385498</ele>
        <time>2014-08-19T09:42:00Z</time>
      </trkpt>
      <trkpt lat="44.32009" lon="5.98693">
        <ele>763.4240723</ele>
        <time>2014-08-19T09:42:05Z</time>
      </trkpt>
      <trkpt lat="44.3201" lon="5.98686">
        <ele>761.9821777</ele>
        <time>2014-08-19T09:42:06Z</time>
      </trkpt>
      <trkpt lat="44.32013" lon="5.98597">
        <ele>758.6174316</ele>
        <time>2014-08-19T09:42:18Z</time>
      </trkpt>
      <trkpt lat="44.32012" lon="5.98569">
        <ele>758.6174316</ele>
        <time>2014-08-19T09:42:22Z</time>
      </trkpt>
      <trkpt lat="44.32021" lon="5.98518">
        <ele>756.6948242</ele>
        <time>2014-08-19T09:42:33Z</time>
      </trkpt>
      <trkpt lat="44.32024" lon="5.98498">
        <ele>754.7722168</ele>
        <time>2014-08-19T09:42:39Z</time>
      </trkpt>
      <trkpt lat="44.32019" lon="5.98465">
        <ele>751.8884277</ele>
        <time>2014-08-19T09:42:47Z</time>
      </trkpt>
      <trkpt lat="44.32017" lon="5.98456">
        <ele>750.4465332</ele>
        <time>2014-08-19T09:42:50Z</time>
      </trkpt>
      <trkpt lat="44.3203" lon="5.98389">
        <ele>747.081543</ele>
        <time>2014-08-19T09:43:02Z</time>
      </trkpt>
      <trkpt lat="44.32037" lon="5.98359">
        <ele>745.1589355</ele>
        <time>2014-08-19T09:43:07Z</time>
      </trkpt>
      <trkpt lat="44.32038" lon="5.98347">
        <ele>743.717041</ele>
        <time>2014-08-19T09:43:10Z</time>
      </trkpt>
      <trkpt lat="44.32044" lon="5.98301">
        <ele>739.8718262</ele>
        <time>2014-08-19T09:43:22Z</time>
      </trkpt>
      <trkpt lat="44.32044" lon="5.98283">
        <ele>739.3911133</ele>
        <time>2014-08-19T09:43:26Z</time>
      </trkpt>
      <trkpt lat="44.32039" lon="5.9825">
        <ele>736.0266113</ele>
        <time>2014-08-19T09:43:34Z</time>
      </trkpt>
      <trkpt lat="44.32037" lon="5.9821">
        <ele>732.6621094</ele>
        <time>2014-08-19T09:43:43Z</time>
      </trkpt>
      <trkpt lat="44.32038" lon="5.98192">
        <ele>730.7392578</ele>
        <time>2014-08-19T09:43:48Z</time>
      </trkpt>
      <trkpt lat="44.32055" lon="5.98145">
        <ele>728.3359375</ele>
        <time>2014-08-19T09:44:01Z</time>
      </trkpt>
      <trkpt lat="44.32057" lon="5.98123">
        <ele>725.9326172</ele>
        <time>2014-08-19T09:44:08Z</time>
      </trkpt>
      <trkpt lat="44.32058" lon="5.98098">
        <ele>722.5681152</ele>
        <time>2014-08-19T09:44:15Z</time>
      </trkpt>
      <trkpt lat="44.32059" lon="5.98089">
        <ele>722.0874023</ele>
        <time>2014-08-19T09:44:17Z</time>
      </trkpt>
      <trkpt lat="44.32065" lon="5.98066">
        <ele>720.1647949</ele>
        <time>2014-08-19T09:44:22Z</time>
      </trkpt>
      <trkpt lat="44.32073" lon="5.98027">
        <ele>716.800293</ele>
        <time>2014-08-19T09:44:31Z</time>
      </trkpt>
      <trkpt lat="44.3207" lon="5.98013">
        <ele>715.8388672</ele>
        <time>2014-08-19T09:44:34Z</time>
      </trkpt>
      <trkpt lat="44.32059" lon="5.97981">
        <ele>711.9936523</ele>
        <time>2014-08-19T09:44:43Z</time>
      </trkpt>
      <trkpt lat="44.32058" lon="5.97979">
        <ele>711.9936523</ele>
        <time>2014-08-19T09:44:44Z</time>
      </trkpt>
      <trkpt lat="44.32055" lon="5.97973">
        <ele>711.9936523</ele>
        <time>2014-08-19T09:44:57Z</time>
      </trkpt>
      <trkpt lat="44.32056" lon="5.97971">
        <ele>711.0322266</ele>
        <time>2014-08-19T09:45:15Z</time>
      </trkpt>
      <trkpt lat="44.32059" lon="5.97967">
        <ele>711.5129395</ele>
        <time>2014-08-19T09:45:28Z</time>
      </trkpt>
      <trkpt lat="44.32058" lon="5.97967">
        <ele>710.5515137</ele>
        <time>2014-08-19T09:45:31Z</time>
      </trkpt>
      <trkpt lat="44.32061" lon="5.97968">
        <ele>709.1096191</ele>
        <time>2014-08-19T09:45:38Z</time>
      </trkpt>
      <trkpt lat="44.32069" lon="5.9797">
        <ele>708.6289063</ele>
        <time>2014-08-19T09:45:42Z</time>
      </trkpt>
      <trkpt lat="44.32073" lon="5.97971">
        <ele>707.1870117</ele>
        <time>2014-08-19T09:45:44Z</time>
      </trkpt>
      <trkpt lat="44.3208" lon="5.97966">
        <ele>705.7451172</ele>
        <time>2014-08-19T09:45:48Z</time>
      </trkpt>
      <trkpt lat="44.3209" lon="5.97958">
        <ele>703.8225098</ele>
        <time>2014-08-19T09:45:53Z</time>
      </trkpt>
      <trkpt lat="44.32091" lon="5.97956">
        <ele>702.861084</ele>
        <time>2014-08-19T09:45:54Z</time>
      </trkpt>
      <trkpt lat="44.32098" lon="5.97947">
        <ele>701.8999023</ele>
        <time>2014-08-19T09:45:59Z</time>
      </trkpt>
      <trkpt lat="44.32101" lon="5.97942">
        <ele>699.9770508</ele>
        <time>2014-08-19T09:46:03Z</time>
      </trkpt>
      <trkpt lat="44.32099" lon="5.97938">
        <ele>699.9770508</ele>
        <time>2014-08-19T09:46:05Z</time>
      </trkpt>
      <trkpt lat="44.32097" lon="5.97935">
        <ele>699.4963379</ele>
        <time>2014-08-19T09:46:08Z</time>
      </trkpt>
      <trkpt lat="44.32081" lon="5.9792">
        <ele>697.0930176</ele>
        <time>2014-08-19T09:46:18Z</time>
      </trkpt>
      <trkpt lat="44.32061" lon="5.97906">
        <ele>696.1318359</ele>
        <time>2014-08-19T09:46:28Z</time>
      </trkpt>
      <trkpt lat="44.32053" lon="5.97903">
        <ele>696.6125488</ele>
        <time>2014-08-19T09:46:32Z</time>
      </trkpt>
      <trkpt lat="44.32049" lon="5.979">
        <ele>697.0930176</ele>
        <time>2014-08-19T09:46:35Z</time>
      </trkpt>
      <trkpt lat="44.32035" lon="5.97883">
        <ele>699.4963379</ele>
        <time>2014-08-19T09:46:47Z</time>
      </trkpt>
      <trkpt lat="44.32033" lon="5.97875">
        <ele>700.4580078</ele>
        <time>2014-08-19T09:46:51Z</time>
      </trkpt>
      <trkpt lat="44.32031" lon="5.97873">
        <ele>700.4580078</ele>
        <time>2014-08-19T09:46:53Z</time>
      </trkpt>
      <trkpt lat="44.32023" lon="5.97862">
        <ele>701.8999023</ele>
        <time>2014-08-19T09:47:05Z</time>
      </trkpt>
      <trkpt lat="44.32023" lon="5.97854">
        <ele>702.861084</ele>
        <time>2014-08-19T09:47:16Z</time>
      </trkpt>
      <trkpt lat="44.32023" lon="5.97826">
        <ele>705.7451172</ele>
        <time>2014-08-19T09:47:37Z</time>
      </trkpt>
      <trkpt lat="44.32023" lon="5.97805">
        <ele>708.6289063</ele>
        <time>2014-08-19T09:47:55Z</time>
      </trkpt>
      <trkpt lat="44.32029" lon="5.97803">
        <ele>710.5515137</ele>
        <time>2014-08-19T09:48:06Z</time>
      </trkpt>
      <trkpt lat="44.3204" lon="5.97816">
        <ele>712.4741211</ele>
        <time>2014-08-19T09:48:21Z</time>
      </trkpt>
      <trkpt lat="44.32044" lon="5.97819">
        <ele>712.954834</ele>
        <time>2014-08-19T09:48:25Z</time>
      </trkpt>
      <trkpt lat="44.32046" lon="5.97822">
        <ele>712.954834</ele>
        <time>2014-08-19T09:48:28Z</time>
      </trkpt>
      <trkpt lat="44.32048" lon="5.97825">
        <ele>713.4355469</ele>
        <time>2014-08-19T09:48:31Z</time>
      </trkpt>
      <trkpt lat="44.3205" lon="5.9783">
        <ele>714.3967285</ele>
        <time>2014-08-19T09:48:35Z</time>
      </trkpt>
      <trkpt lat="44.32052" lon="5.97834">
        <ele>714.3967285</ele>
        <time>2014-08-19T09:48:38Z</time>
      </trkpt>
      <trkpt lat="44.32053" lon="5.97824">
        <ele>716.3195801</ele>
        <time>2014-08-19T09:48:52Z</time>
      </trkpt>
      <trkpt lat="44.32053" lon="5.97815">
        <ele>717.7614746</ele>
        <time>2014-08-19T09:49:10Z</time>
      </trkpt>
      <trkpt lat="44.32053" lon="5.97808">
        <ele>718.2421875</ele>
        <time>2014-08-19T09:49:16Z</time>
      </trkpt>
      <trkpt lat="44.32055" lon="5.97795">
        <ele>719.6843262</ele>
        <time>2014-08-19T09:49:27Z</time>
      </trkpt>
      <trkpt lat="44.32058" lon="5.97786">
        <ele>720.1647949</ele>
        <time>2014-08-19T09:49:34Z</time>
      </trkpt>
      <trkpt lat="44.32065" lon="5.97788">
        <ele>723.0488281</ele>
        <time>2014-08-19T09:49:45Z</time>
      </trkpt>
      <trkpt lat="44.32067" lon="5.97794">
        <ele>722.5681152</ele>
        <time>2014-08-19T09:49:49Z</time>
      </trkpt>
      <trkpt lat="44.32071" lon="5.97797">
        <ele>724.0100098</ele>
        <time>2014-08-19T09:49:52Z</time>
      </trkpt>
      <trkpt lat="44.32076" lon="5.97804">
        <ele>724.0100098</ele>
        <time>2014-08-19T09:50:00Z</time>
      </trkpt>
      <trkpt lat="44.32085" lon="5.97807">
        <ele>725.9326172</ele>
        <time>2014-08-19T09:50:11Z</time>
      </trkpt>
      <trkpt lat="44.32094" lon="5.97804">
        <ele>729.2971191</ele>
        <time>2014-08-19T09:50:25Z</time>
      </trkpt>
      <trkpt lat="44.32095" lon="5.97803">
        <ele>729.2971191</ele>
        <time>2014-08-19T09:50:26Z</time>
      </trkpt>
      <trkpt lat="44.32108" lon="5.97782">
        <ele>731.7004395</ele>
        <time>2014-08-19T09:50:52Z</time>
      </trkpt>
      <trkpt lat="44.32123" lon="5.97757">
        <ele>735.0654297</ele>
        <time>2014-08-19T09:51:20Z</time>
      </trkpt>
      <trkpt lat="44.32126" lon="5.97755">
        <ele>735.0654297</ele>
        <time>2014-08-19T09:51:23Z</time>
      </trkpt>
      <trkpt lat="44.3214" lon="5.9775">
        <ele>737.4685059</ele>
        <time>2014-08-19T09:51:38Z</time>
      </trkpt>
      <trkpt lat="44.3214" lon="5.97749">
        <ele>736.987793</ele>
        <time>2014-08-19T09:52:13Z</time>
      </trkpt>
      <trkpt lat="44.3215" lon="5.97743">
        <ele>737.9492188</ele>
        <time>2014-08-19T09:52:43Z</time>
      </trkpt>
      <trkpt lat="44.32163" lon="5.97739">
        <ele>739.8718262</ele>
        <time>2014-08-19T09:53:01Z</time>
      </trkpt>
      <trkpt lat="44.32163" lon="5.97739">
        <ele>739.8718262</ele>
        <time>2014-08-19T09:53:02Z</time>
      </trkpt>
      <trkpt lat="44.32166" lon="5.97738">
        <ele>740.8330078</ele>
        <time>2014-08-19T09:53:08Z</time>
      </trkpt>
      <trkpt lat="44.32169" lon="5.97736">
        <ele>740.8330078</ele>
        <time>2014-08-19T09:53:12Z</time>
      </trkpt>
      <trkpt lat="44.32175" lon="5.97731">
        <ele>741.7944336</ele>
        <time>2014-08-19T09:53:20Z</time>
      </trkpt>
      <trkpt lat="44.3218" lon="5.97724">
        <ele>741.7944336</ele>
        <time>2014-08-19T09:53:38Z</time>
      </trkpt>
      <trkpt lat="44.3219" lon="5.97715">
        <ele>744.1977539</ele>
        <time>2014-08-19T09:53:52Z</time>
      </trkpt>
      <trkpt lat="44.32203" lon="5.97697">
        <ele>744.6782227</ele>
        <time>2014-08-19T09:54:13Z</time>
      </trkpt>
      <trkpt lat="44.32212" lon="5.97691">
        <ele>747.081543</ele>
        <time>2014-08-19T09:54:18Z</time>
      </trkpt>
      <trkpt lat="44.32215" lon="5.97684">
        <ele>748.5236816</ele>
        <time>2014-08-19T09:54:26Z</time>
      </trkpt>
      <trkpt lat="44.3222" lon="5.97677">
        <ele>748.5236816</ele>
        <time>2014-08-19T09:54:39Z</time>
      </trkpt>
      <trkpt lat="44.32227" lon="5.97669">
        <ele>750.4465332</ele>
        <time>2014-08-19T09:54:49Z</time>
      </trkpt>
      <trkpt lat="44.32229" lon="5.97665">
        <ele>751.8884277</ele>
        <time>2014-08-19T09:54:53Z</time>
      </trkpt>
      <trkpt lat="44.32236" lon="5.97653">
        <ele>752.8496094</ele>
        <time>2014-08-19T09:55:14Z</time>
      </trkpt>
      <trkpt lat="44.32241" lon="5.97637">
        <ele>756.2141113</ele>
        <time>2014-08-19T09:55:33Z</time>
      </trkpt>
      <trkpt lat="44.32251" lon="5.97626">
        <ele>757.65625</ele>
        <time>2014-08-19T09:55:48Z</time>
      </trkpt>
      <trkpt lat="44.32258" lon="5.97613">
        <ele>759.0981445</ele>
        <time>2014-08-19T09:56:08Z</time>
      </trkpt>
      <trkpt lat="44.32259" lon="5.97608">
        <ele>759.0981445</ele>
        <time>2014-08-19T09:57:13Z</time>
      </trkpt>
      <trkpt lat="44.32259" lon="5.97608">
        <ele>757.1755371</ele>
        <time>2014-08-19T09:57:30Z</time>
      </trkpt>
      <trkpt lat="44.3226" lon="5.97608">
        <ele>756.2141113</ele>
        <time>2014-08-19T09:58:18Z</time>
      </trkpt>
      <trkpt lat="44.32255" lon="5.97604">
        <ele>756.6948242</ele>
        <time>2014-08-19T09:59:05Z</time>
      </trkpt>
      <trkpt lat="44.32253" lon="5.97601">
        <ele>756.2141113</ele>
        <time>2014-08-19T09:59:20Z</time>
      </trkpt>
      <trkpt lat="44.3227" lon="5.9758">
        <ele>758.1369629</ele>
        <time>2014-08-19T09:59:37Z</time>
      </trkpt>
      <trkpt lat="44.3228" lon="5.97568">
        <ele>759.5788574</ele>
        <time>2014-08-19T09:59:55Z</time>
      </trkpt>
      <trkpt lat="44.32288" lon="5.97541">
        <ele>762.4626465</ele>
        <time>2014-08-19T10:00:20Z</time>
      </trkpt>
      <trkpt lat="44.32301" lon="5.97525">
        <ele>765.8276367</ele>
        <time>2014-08-19T10:00:45Z</time>
      </trkpt>
      <trkpt lat="44.32307" lon="5.97503">
        <ele>767.2695313</ele>
        <time>2014-08-19T10:01:01Z</time>
      </trkpt>
      <trkpt lat="44.32314" lon="5.97481">
        <ele>769.1921387</ele>
        <time>2014-08-19T10:01:20Z</time>
      </trkpt>
      <trkpt lat="44.32313" lon="5.97474">
        <ele>769.1921387</ele>
        <time>2014-08-19T10:01:26Z</time>
      </trkpt>
      <trkpt lat="44.32321" lon="5.97438">
        <ele>771.5952148</ele>
        <time>2014-08-19T10:01:48Z</time>
      </trkpt>
      <trkpt lat="44.32328" lon="5.97412">
        <ele>773.0373535</ele>
        <time>2014-08-19T10:02:09Z</time>
      </trkpt>
      <trkpt lat="44.32333" lon="5.97388">
        <ele>775.4404297</ele>
        <time>2014-08-19T10:02:29Z</time>
      </trkpt>
      <trkpt lat="44.32331" lon="5.97368">
        <ele>776.8825684</ele>
        <time>2014-08-19T10:02:46Z</time>
      </trkpt>
      <trkpt lat="44.32331" lon="5.97341">
        <ele>778.8051758</ele>
        <time>2014-08-19T10:03:05Z</time>
      </trkpt>
      <trkpt lat="44.3233" lon="5.97325">
        <ele>779.7663574</ele>
        <time>2014-08-19T10:03:25Z</time>
      </trkpt>
      <trkpt lat="44.32335" lon="5.97306">
        <ele>780.7280273</ele>
        <time>2014-08-19T10:03:43Z</time>
      </trkpt>
      <trkpt lat="44.32337" lon="5.97263">
        <ele>782.6506348</ele>
        <time>2014-08-19T10:04:12Z</time>
      </trkpt>
      <trkpt lat="44.32341" lon="5.9724">
        <ele>786.0151367</ele>
        <time>2014-08-19T10:04:33Z</time>
      </trkpt>
      <trkpt lat="44.32337" lon="5.97212">
        <ele>788.8991699</ele>
        <time>2014-08-19T10:05:00Z</time>
      </trkpt>
      <trkpt lat="44.32338" lon="5.97211">
        <ele>788.8991699</ele>
        <time>2014-08-19T10:05:10Z</time>
      </trkpt>
      <trkpt lat="44.32338" lon="5.97211">
        <ele>787.4570313</ele>
        <time>2014-08-19T10:05:16Z</time>
      </trkpt>
      <trkpt lat="44.32338" lon="5.9721">
        <ele>788.8991699</ele>
        <time>2014-08-19T10:05:18Z</time>
      </trkpt>
      <trkpt lat="44.32339" lon="5.9721">
        <ele>787.4570313</ele>
        <time>2014-08-19T10:05:47Z</time>
      </trkpt>
      <trkpt lat="44.32339" lon="5.9721">
        <ele>787.9377441</ele>
        <time>2014-08-19T10:06:00Z</time>
      </trkpt>
      <trkpt lat="44.32339" lon="5.97202">
        <ele>788.8991699</ele>
        <time>2014-08-19T10:06:04Z</time>
      </trkpt>
      <trkpt lat="44.3234" lon="5.97193">
        <ele>788.8991699</ele>
        <time>2014-08-19T10:06:09Z</time>
      </trkpt>
      <trkpt lat="44.32342" lon="5.97174">
        <ele>790.3410645</ele>
        <time>2014-08-19T10:06:23Z</time>
      </trkpt>
      <trkpt lat="44.32344" lon="5.97164">
        <ele>790.8215332</ele>
        <time>2014-08-19T10:06:31Z</time>
      </trkpt>
      <trkpt lat="44.32351" lon="5.97146">
        <ele>793.7055664</ele>
        <time>2014-08-19T10:06:47Z</time>
      </trkpt>
      <trkpt lat="44.32358" lon="5.97125">
        <ele>795.1474609</ele>
        <time>2014-08-19T10:07:06Z</time>
      </trkpt>
      <trkpt lat="44.32358" lon="5.97123">
        <ele>796.5898438</ele>
        <time>2014-08-19T10:07:08Z</time>
      </trkpt>
      <trkpt lat="44.32367" lon="5.97109">
        <ele>797.5510254</ele>
        <time>2014-08-19T10:07:20Z</time>
      </trkpt>
      <trkpt lat="44.32394" lon="5.97101">
        <ele>798.512207</ele>
        <time>2014-08-19T10:07:36Z</time>
      </trkpt>
      <trkpt lat="44.32413" lon="5.97104">
        <ele>798.512207</ele>
        <time>2014-08-19T10:07:53Z</time>
      </trkpt>
      <trkpt lat="44.32427" lon="5.97102">
        <ele>798.9929199</ele>
        <time>2014-08-19T10:08:13Z</time>
      </trkpt>
      <trkpt lat="44.32427" lon="5.97102">
        <ele>798.0317383</ele>
        <time>2014-08-19T10:08:36Z</time>
      </trkpt>
      <trkpt lat="44.32437" lon="5.97109">
        <ele>797.5510254</ele>
        <time>2014-08-19T10:09:09Z</time>
      </trkpt>
      <trkpt lat="44.32438" lon="5.9711">
        <ele>796.5898438</ele>
        <time>2014-08-19T10:10:01Z</time>
      </trkpt>
      <trkpt lat="44.32438" lon="5.9711">
        <ele>795.1474609</ele>
        <time>2014-08-19T10:10:03Z</time>
      </trkpt>
      <trkpt lat="44.32438" lon="5.9711">
        <ele>796.5898438</ele>
        <time>2014-08-19T10:10:30Z</time>
      </trkpt>
      <trkpt lat="44.32446" lon="5.97111">
        <ele>795.1474609</ele>
        <time>2014-08-19T10:11:01Z</time>
      </trkpt>
      <trkpt lat="44.32449" lon="5.97105">
        <ele>794.666748</ele>
        <time>2014-08-19T10:11:09Z</time>
      </trkpt>
      <trkpt lat="44.32457" lon="5.9709">
        <ele>793.2248535</ele>
        <time>2014-08-19T10:11:15Z</time>
      </trkpt>
      <trkpt lat="44.3246" lon="5.97087">
        <ele>791.782959</ele>
        <time>2014-08-19T10:11:25Z</time>
      </trkpt>
      <trkpt lat="44.32475" lon="5.97055">
        <ele>789.8603516</ele>
        <time>2014-08-19T10:11:36Z</time>
      </trkpt>
      <trkpt lat="44.32488" lon="5.97024">
        <ele>788.8991699</ele>
        <time>2014-08-19T10:11:48Z</time>
      </trkpt>
      <trkpt lat="44.32488" lon="5.97023">
        <ele>788.8991699</ele>
        <time>2014-08-19T10:11:49Z</time>
      </trkpt>
      <trkpt lat="44.32488" lon="5.96982">
        <ele>785.5344238</ele>
        <time>2014-08-19T10:12:01Z</time>
      </trkpt>
      <trkpt lat="44.32489" lon="5.96978">
        <ele>785.0539551</ele>
        <time>2014-08-19T10:12:03Z</time>
      </trkpt>
      <trkpt lat="44.32493" lon="5.9697">
        <ele>784.0925293</ele>
        <time>2014-08-19T10:12:16Z</time>
      </trkpt>
      <trkpt lat="44.32497" lon="5.96967">
        <ele>783.1311035</ele>
        <time>2014-08-19T10:12:22Z</time>
      </trkpt>
      <trkpt lat="44.32505" lon="5.96943">
        <ele>781.2087402</ele>
        <time>2014-08-19T10:12:35Z</time>
      </trkpt>
      <trkpt lat="44.3251" lon="5.9692">
        <ele>780.7280273</ele>
        <time>2014-08-19T10:12:42Z</time>
      </trkpt>
      <trkpt lat="44.32506" lon="5.96909">
        <ele>780.2473145</ele>
        <time>2014-08-19T10:12:46Z</time>
      </trkpt>
      <trkpt lat="44.32503" lon="5.96902">
        <ele>779.2856445</ele>
        <time>2014-08-19T10:12:48Z</time>
      </trkpt>
      <trkpt lat="44.32503" lon="5.96894">
        <ele>778.3244629</ele>
        <time>2014-08-19T10:12:50Z</time>
      </trkpt>
      <trkpt lat="44.32491" lon="5.96858">
        <ele>776.8825684</ele>
        <time>2014-08-19T10:13:00Z</time>
      </trkpt>
      <trkpt lat="44.32492" lon="5.96841">
        <ele>774.479248</ele>
        <time>2014-08-19T10:13:08Z</time>
      </trkpt>
      <trkpt lat="44.32492" lon="5.96833">
        <ele>773.5180664</ele>
        <time>2014-08-19T10:13:28Z</time>
      </trkpt>
      <trkpt lat="44.32488" lon="5.96811">
        <ele>772.0759277</ele>
        <time>2014-08-19T10:13:36Z</time>
      </trkpt>
      <trkpt lat="44.32478" lon="5.96797">
        <ele>773.0373535</ele>
        <time>2014-08-19T10:13:47Z</time>
      </trkpt>
      <trkpt lat="44.32476" lon="5.96796">
        <ele>773.0373535</ele>
        <time>2014-08-19T10:13:48Z</time>
      </trkpt>
      <trkpt lat="44.32468" lon="5.96783">
        <ele>774.9599609</ele>
        <time>2014-08-19T10:14:03Z</time>
      </trkpt>
      <trkpt lat="44.32461" lon="5.96765">
        <ele>777.84375</ele>
        <time>2014-08-19T10:14:18Z</time>
      </trkpt>
      <trkpt lat="44.32452" lon="5.96756">
        <ele>778.8051758</ele>
        <time>2014-08-19T10:14:34Z</time>
      </trkpt>
      <trkpt lat="44.32454" lon="5.96715">
        <ele>775.9211426</ele>
        <time>2014-08-19T10:14:45Z</time>
      </trkpt>
      <trkpt lat="44.32454" lon="5.96708">
        <ele>775.9211426</ele>
        <time>2014-08-19T10:14:46Z</time>
      </trkpt>
      <trkpt lat="44.32457" lon="5.96681">
        <ele>774.479248</ele>
        <time>2014-08-19T10:14:52Z</time>
      </trkpt>
      <trkpt lat="44.32463" lon="5.96649">
        <ele>773.9985352</ele>
        <time>2014-08-19T10:15:02Z</time>
      </trkpt>
      <trkpt lat="44.3248" lon="5.96589">
        <ele>772.5566406</ele>
        <time>2014-08-19T10:15:14Z</time>
      </trkpt>
      <trkpt lat="44.32481" lon="5.96585">
        <ele>772.0759277</ele>
        <time>2014-08-19T10:15:15Z</time>
      </trkpt>
      <trkpt lat="44.32481" lon="5.96575">
        <ele>772.0759277</ele>
        <time>2014-08-19T10:15:18Z</time>
      </trkpt>
      <trkpt lat="44.32477" lon="5.96567">
        <ele>771.5952148</ele>
        <time>2014-08-19T10:15:24Z</time>
      </trkpt>
      <trkpt lat="44.32468" lon="5.96551">
        <ele>772.0759277</ele>
        <time>2014-08-19T10:15:32Z</time>
      </trkpt>
      <trkpt lat="44.32468" lon="5.96546">
        <ele>773.0373535</ele>
        <time>2014-08-19T10:15:39Z</time>
      </trkpt>
      <trkpt lat="44.32465" lon="5.96528">
        <ele>773.9985352</ele>
        <time>2014-08-19T10:15:51Z</time>
      </trkpt>
      <trkpt lat="44.32462" lon="5.96515">
        <ele>775.4404297</ele>
        <time>2014-08-19T10:16:05Z</time>
      </trkpt>
      <trkpt lat="44.32461" lon="5.96492">
        <ele>777.84375</ele>
        <time>2014-08-19T10:16:20Z</time>
      </trkpt>
      <trkpt lat="44.32461" lon="5.96491">
        <ele>777.84375</ele>
        <time>2014-08-19T10:16:21Z</time>
      </trkpt>
      <trkpt lat="44.32462" lon="5.96481">
        <ele>778.3244629</ele>
        <time>2014-08-19T10:16:28Z</time>
      </trkpt>
      <trkpt lat="44.32463" lon="5.96474">
        <ele>778.3244629</ele>
        <time>2014-08-19T10:16:31Z</time>
      </trkpt>
      <trkpt lat="44.3246" lon="5.96442">
        <ele>779.7663574</ele>
        <time>2014-08-19T10:16:49Z</time>
      </trkpt>
      <trkpt lat="44.3246" lon="5.96418">
        <ele>778.8051758</ele>
        <time>2014-08-19T10:17:16Z</time>
      </trkpt>
      <trkpt lat="44.32451" lon="5.96376">
        <ele>780.2473145</ele>
        <time>2014-08-19T10:17:27Z</time>
      </trkpt>
      <trkpt lat="44.32449" lon="5.96335">
        <ele>781.2087402</ele>
        <time>2014-08-19T10:17:39Z</time>
      </trkpt>
      <trkpt lat="44.32435" lon="5.96297">
        <ele>781.689209</ele>
        <time>2014-08-19T10:17:52Z</time>
      </trkpt>
      <trkpt lat="44.32429" lon="5.96289">
        <ele>783.1311035</ele>
        <time>2014-08-19T10:17:55Z</time>
      </trkpt>
      <trkpt lat="44.32426" lon="5.96285">
        <ele>784.0925293</ele>
        <time>2014-08-19T10:17:58Z</time>
      </trkpt>
      <trkpt lat="44.32424" lon="5.9627">
        <ele>786.0151367</ele>
        <time>2014-08-19T10:18:08Z</time>
      </trkpt>
      <trkpt lat="44.32424" lon="5.96271">
        <ele>787.4570313</ele>
        <time>2014-08-19T10:18:21Z</time>
      </trkpt>
      <trkpt lat="44.32424" lon="5.96271">
        <ele>785.5344238</ele>
        <time>2014-08-19T10:18:23Z</time>
      </trkpt>
      <trkpt lat="44.32422" lon="5.96265">
        <ele>786.0151367</ele>
        <time>2014-08-19T10:18:31Z</time>
      </trkpt>
      <trkpt lat="44.32408" lon="5.96245">
        <ele>787.4570313</ele>
        <time>2014-08-19T10:18:40Z</time>
      </trkpt>
      <trkpt lat="44.32378" lon="5.96209">
        <ele>787.4570313</ele>
        <time>2014-08-19T10:18:57Z</time>
      </trkpt>
      <trkpt lat="44.32362" lon="5.96191">
        <ele>787.4570313</ele>
        <time>2014-08-19T10:19:06Z</time>
      </trkpt>
      <trkpt lat="44.32361" lon="5.96184">
        <ele>787.4570313</ele>
        <time>2014-08-19T10:19:08Z</time>
      </trkpt>
      <trkpt lat="44.32353" lon="5.9617">
        <ele>788.418457</ele>
        <time>2014-08-19T10:19:21Z</time>
      </trkpt>
      <trkpt lat="44.32353" lon="5.9617">
        <ele>789.3796387</ele>
        <time>2014-08-19T10:19:40Z</time>
      </trkpt>
      <trkpt lat="44.3235" lon="5.96169">
        <ele>789.8603516</ele>
        <time>2014-08-19T10:19:50Z</time>
      </trkpt>
      <trkpt lat="44.32348" lon="5.96167">
        <ele>788.418457</ele>
        <time>2014-08-19T10:19:52Z</time>
      </trkpt>
      <trkpt lat="44.32334" lon="5.96137">
        <ele>788.8991699</ele>
        <time>2014-08-19T10:20:02Z</time>
      </trkpt>
      <trkpt lat="44.32333" lon="5.96099">
        <ele>788.8991699</ele>
        <time>2014-08-19T10:20:11Z</time>
      </trkpt>
      <trkpt lat="44.32331" lon="5.96093">
        <ele>790.3410645</ele>
        <time>2014-08-19T10:20:13Z</time>
      </trkpt>
      <trkpt lat="44.32321" lon="5.96076">
        <ele>790.8215332</ele>
        <time>2014-08-19T10:20:18Z</time>
      </trkpt>
      <trkpt lat="44.32283" lon="5.96067">
        <ele>791.782959</ele>
        <time>2014-08-19T10:20:29Z</time>
      </trkpt>
      <trkpt lat="44.32241" lon="5.96045">
        <ele>792.2636719</ele>
        <time>2014-08-19T10:20:43Z</time>
      </trkpt>
      <trkpt lat="44.32196" lon="5.95976">
        <ele>790.3410645</ele>
        <time>2014-08-19T10:21:02Z</time>
      </trkpt>
      <trkpt lat="44.32192" lon="5.95969">
        <ele>792.2636719</ele>
        <time>2014-08-19T10:21:04Z</time>
      </trkpt>
      <trkpt lat="44.32156" lon="5.95959">
        <ele>791.782959</ele>
        <time>2014-08-19T10:21:16Z</time>
      </trkpt>
      <trkpt lat="44.3211" lon="5.9598">
        <ele>791.3022461</ele>
        <time>2014-08-19T10:21:30Z</time>
      </trkpt>
      <trkpt lat="44.32103" lon="5.95979">
        <ele>791.3022461</ele>
        <time>2014-08-19T10:21:33Z</time>
      </trkpt>
      <trkpt lat="44.32099" lon="5.95973">
        <ele>790.8215332</ele>
        <time>2014-08-19T10:21:45Z</time>
      </trkpt>
      <trkpt lat="44.32101" lon="5.95974">
        <ele>790.8215332</ele>
        <time>2014-08-19T10:22:17Z</time>
      </trkpt>
      <trkpt lat="44.32133" lon="5.95967">
        <ele>790.3410645</ele>
        <time>2014-08-19T10:22:26Z</time>
      </trkpt>
      <trkpt lat="44.32157" lon="5.95945">
        <ele>789.3796387</ele>
        <time>2014-08-19T10:22:31Z</time>
      </trkpt>
      <trkpt lat="44.32168" lon="5.95933">
        <ele>787.4570313</ele>
        <time>2014-08-19T10:22:34Z</time>
      </trkpt>
      <trkpt lat="44.32176" lon="5.95928">
        <ele>785.0539551</ele>
        <time>2014-08-19T10:22:36Z</time>
      </trkpt>
      <trkpt lat="44.32198" lon="5.95939">
        <ele>784.0925293</ele>
        <time>2014-08-19T10:22:42Z</time>
      </trkpt>
      <trkpt lat="44.32218" lon="5.95967">
        <ele>781.689209</ele>
        <time>2014-08-19T10:22:46Z</time>
      </trkpt>
      <trkpt lat="44.32228" lon="5.95979">
        <ele>779.7663574</ele>
        <time>2014-08-19T10:22:48Z</time>
      </trkpt>
      <trkpt lat="44.32244" lon="5.95986">
        <ele>778.8051758</ele>
        <time>2014-08-19T10:22:51Z</time>
      </trkpt>
      <trkpt lat="44.32254" lon="5.95994">
        <ele>776.4018555</ele>
        <time>2014-08-19T10:22:55Z</time>
      </trkpt>
      <trkpt lat="44.32261" lon="5.95998">
        <ele>776.8825684</ele>
        <time>2014-08-19T10:22:57Z</time>
      </trkpt>
      <trkpt lat="44.32276" lon="5.96006">
        <ele>776.4018555</ele>
        <time>2014-08-19T10:23:00Z</time>
      </trkpt>
      <trkpt lat="44.32288" lon="5.96008">
        <ele>775.4404297</ele>
        <time>2014-08-19T10:23:02Z</time>
      </trkpt>
      <trkpt lat="44.32312" lon="5.9601">
        <ele>774.479248</ele>
        <time>2014-08-19T10:23:06Z</time>
      </trkpt>
      <trkpt lat="44.32347" lon="5.96013">
        <ele>774.9599609</ele>
        <time>2014-08-19T10:23:13Z</time>
      </trkpt>
      <trkpt lat="44.32371" lon="5.9602">
        <ele>772.0759277</ele>
        <time>2014-08-19T10:23:18Z</time>
      </trkpt>
      <trkpt lat="44.32386" lon="5.96013">
        <ele>771.1147461</ele>
        <time>2014-08-19T10:23:21Z</time>
      </trkpt>
      <trkpt lat="44.324" lon="5.95995">
        <ele>768.2307129</ele>
        <time>2014-08-19T10:23:24Z</time>
      </trkpt>
      <trkpt lat="44.32402" lon="5.9599">
        <ele>768.2307129</ele>
        <time>2014-08-19T10:23:25Z</time>
      </trkpt>
      <trkpt lat="44.32408" lon="5.9593">
        <ele>765.3469238</ele>
        <time>2014-08-19T10:23:32Z</time>
      </trkpt>
      <trkpt lat="44.32407" lon="5.95913">
        <ele>763.904541</ele>
        <time>2014-08-19T10:23:35Z</time>
      </trkpt>
      <trkpt lat="44.3242" lon="5.95898">
        <ele>762.9433594</ele>
        <time>2014-08-19T10:23:39Z</time>
      </trkpt>
      <trkpt lat="44.32447" lon="5.95854">
        <ele>763.4240723</ele>
        <time>2014-08-19T10:23:51Z</time>
      </trkpt>
      <trkpt lat="44.3245" lon="5.95838">
        <ele>761.9821777</ele>
        <time>2014-08-19T10:24:01Z</time>
      </trkpt>
      <trkpt lat="44.3245" lon="5.95838">
        <ele>764.385498</ele>
        <time>2014-08-19T10:24:04Z</time>
      </trkpt>
      <trkpt lat="44.3245" lon="5.95838">
        <ele>762.4626465</ele>
        <time>2014-08-19T10:24:06Z</time>
      </trkpt>
      <trkpt lat="44.3245" lon="5.95838">
        <ele>761.5014648</ele>
        <time>2014-08-19T10:24:13Z</time>
      </trkpt>
      <trkpt lat="44.32439" lon="5.95799">
        <ele>759.5788574</ele>
        <time>2014-08-19T10:24:22Z</time>
      </trkpt>
      <trkpt lat="44.32436" lon="5.95794">
        <ele>759.5788574</ele>
        <time>2014-08-19T10:24:23Z</time>
      </trkpt>
      <trkpt lat="44.32429" lon="5.95786">
        <ele>758.1369629</ele>
        <time>2014-08-19T10:24:25Z</time>
      </trkpt>
      <trkpt lat="44.32422" lon="5.95774">
        <ele>757.65625</ele>
        <time>2014-08-19T10:24:27Z</time>
      </trkpt>
      <trkpt lat="44.3241" lon="5.95765">
        <ele>755.7336426</ele>
        <time>2014-08-19T10:24:30Z</time>
      </trkpt>
      <trkpt lat="44.32403" lon="5.9576">
        <ele>754.7722168</ele>
        <time>2014-08-19T10:24:32Z</time>
      </trkpt>
      <trkpt lat="44.32405" lon="5.95738">
        <ele>752.8496094</ele>
        <time>2014-08-19T10:24:38Z</time>
      </trkpt>
      <trkpt lat="44.3247" lon="5.95721">
        <ele>749.9658203</ele>
        <time>2014-08-19T10:24:49Z</time>
      </trkpt>
      <trkpt lat="44.32498" lon="5.95715">
        <ele>748.5236816</ele>
        <time>2014-08-19T10:24:53Z</time>
      </trkpt>
      <trkpt lat="44.32525" lon="5.957">
        <ele>747.081543</ele>
        <time>2014-08-19T10:24:57Z</time>
      </trkpt>
      <trkpt lat="44.32614" lon="5.95622">
        <ele>745.6396484</ele>
        <time>2014-08-19T10:25:13Z</time>
      </trkpt>
      <trkpt lat="44.32631" lon="5.9561">
        <ele>744.6782227</ele>
        <time>2014-08-19T10:25:18Z</time>
      </trkpt>
      <trkpt lat="44.32652" lon="5.95589">
        <ele>740.8330078</ele>
        <time>2014-08-19T10:25:29Z</time>
      </trkpt>
      <trkpt lat="44.32655" lon="5.95586">
        <ele>740.8330078</ele>
        <time>2014-08-19T10:25:30Z</time>
      </trkpt>
      <trkpt lat="44.32675" lon="5.95577">
        <ele>739.8718262</ele>
        <time>2014-08-19T10:25:35Z</time>
      </trkpt>
      <trkpt lat="44.32713" lon="5.9558">
        <ele>737.9492188</ele>
        <time>2014-08-19T10:25:42Z</time>
      </trkpt>
      <trkpt lat="44.32721" lon="5.9558">
        <ele>736.0266113</ele>
        <time>2014-08-19T10:25:44Z</time>
      </trkpt>
      <trkpt lat="44.3273" lon="5.95577">
        <ele>734.5847168</ele>
        <time>2014-08-19T10:25:53Z</time>
      </trkpt>
      <trkpt lat="44.32732" lon="5.95579">
        <ele>736.0266113</ele>
        <time>2014-08-19T10:26:14Z</time>
      </trkpt>
      <trkpt lat="44.32732" lon="5.95579">
        <ele>736.0266113</ele>
        <time>2014-08-19T10:26:16Z</time>
      </trkpt>
      <trkpt lat="44.32741" lon="5.95589">
        <ele>736.0266113</ele>
        <time>2014-08-19T10:26:22Z</time>
      </trkpt>
      <trkpt lat="44.32768" lon="5.95637">
        <ele>733.1425781</ele>
        <time>2014-08-19T10:26:35Z</time>
      </trkpt>
      <trkpt lat="44.32795" lon="5.95688">
        <ele>729.777832</ele>
        <time>2014-08-19T10:26:47Z</time>
      </trkpt>
      <trkpt lat="44.3281" lon="5.95723">
        <ele>727.3747559</ele>
        <time>2014-08-19T10:26:58Z</time>
      </trkpt>
      <trkpt lat="44.32814" lon="5.95735">
        <ele>725.9326172</ele>
        <time>2014-08-19T10:27:01Z</time>
      </trkpt>
      <trkpt lat="44.32828" lon="5.95744">
        <ele>725.4519043</ele>
        <time>2014-08-19T10:27:05Z</time>
      </trkpt>
      <trkpt lat="44.3284" lon="5.95747">
        <ele>724.0100098</ele>
        <time>2014-08-19T10:27:10Z</time>
      </trkpt>
      <trkpt lat="44.32851" lon="5.95755">
        <ele>723.0488281</ele>
        <time>2014-08-19T10:27:15Z</time>
      </trkpt>
      <trkpt lat="44.32858" lon="5.95757">
        <ele>722.5681152</ele>
        <time>2014-08-19T10:27:24Z</time>
      </trkpt>
      <trkpt lat="44.3286" lon="5.95754">
        <ele>723.529541</ele>
        <time>2014-08-19T10:27:26Z</time>
      </trkpt>
      <trkpt lat="44.32865" lon="5.95734">
        <ele>724.0100098</ele>
        <time>2014-08-19T10:27:38Z</time>
      </trkpt>
      <trkpt lat="44.32873" lon="5.95713">
        <ele>726.4133301</ele>
        <time>2014-08-19T10:27:53Z</time>
      </trkpt>
      <trkpt lat="44.32881" lon="5.9571">
        <ele>727.3747559</ele>
        <time>2014-08-19T10:28:03Z</time>
      </trkpt>
      <trkpt lat="44.32888" lon="5.95718">
        <ele>729.2971191</ele>
        <time>2014-08-19T10:28:13Z</time>
      </trkpt>
      <trkpt lat="44.32898" lon="5.9573">
        <ele>731.2199707</ele>
        <time>2014-08-19T10:28:28Z</time>
      </trkpt>
      <trkpt lat="44.32902" lon="5.95733">
        <ele>732.1813965</ele>
        <time>2014-08-19T10:28:46Z</time>
      </trkpt>
      <trkpt lat="44.32904" lon="5.95733">
        <ele>731.2199707</ele>
        <time>2014-08-19T10:28:53Z</time>
      </trkpt>
      <trkpt lat="44.32915" lon="5.95737">
        <ele>731.2199707</ele>
        <time>2014-08-19T10:29:11Z</time>
      </trkpt>
      <trkpt lat="44.32939" lon="5.95741">
        <ele>732.6621094</ele>
        <time>2014-08-19T10:29:20Z</time>
      </trkpt>
      <trkpt lat="44.32967" lon="5.95744">
        <ele>732.6621094</ele>
        <time>2014-08-19T10:29:32Z</time>
      </trkpt>
      <trkpt lat="44.32969" lon="5.95743">
        <ele>733.623291</ele>
        <time>2014-08-19T10:29:44Z</time>
      </trkpt>
      <trkpt lat="44.33003" lon="5.95744">
        <ele>734.5847168</ele>
        <time>2014-08-19T10:29:58Z</time>
      </trkpt>
      <trkpt lat="44.33049" lon="5.95739">
        <ele>736.0266113</ele>
        <time>2014-08-19T10:30:14Z</time>
      </trkpt>
      <trkpt lat="44.33087" lon="5.95739">
        <ele>736.0266113</ele>
        <time>2014-08-19T10:30:27Z</time>
      </trkpt>
      <trkpt lat="44.33122" lon="5.95738">
        <ele>735.5458984</ele>
        <time>2014-08-19T10:30:37Z</time>
      </trkpt>
      <trkpt lat="44.33181" lon="5.95741">
        <ele>733.1425781</ele>
        <time>2014-08-19T10:30:50Z</time>
      </trkpt>
      <trkpt lat="44.33214" lon="5.95758">
        <ele>730.7392578</ele>
        <time>2014-08-19T10:31:01Z</time>
      </trkpt>
      <trkpt lat="44.33251" lon="5.95775">
        <ele>730.7392578</ele>
        <time>2014-08-19T10:31:10Z</time>
      </trkpt>
      <trkpt lat="44.33291" lon="5.95812">
        <ele>730.7392578</ele>
        <time>2014-08-19T10:31:23Z</time>
      </trkpt>
      <trkpt lat="44.33298" lon="5.95828">
        <ele>731.2199707</ele>
        <time>2014-08-19T10:31:27Z</time>
      </trkpt>
      <trkpt lat="44.33315" lon="5.95831">
        <ele>730.7392578</ele>
        <time>2014-08-19T10:31:32Z</time>
      </trkpt>
      <trkpt lat="44.33342" lon="5.95817">
        <ele>728.8166504</ele>
        <time>2014-08-19T10:31:39Z</time>
      </trkpt>
      <trkpt lat="44.33352" lon="5.95808">
        <ele>727.3747559</ele>
        <time>2014-08-19T10:31:41Z</time>
      </trkpt>
      <trkpt lat="44.33396" lon="5.95773">
        <ele>724.0100098</ele>
        <time>2014-08-19T10:31:49Z</time>
      </trkpt>
      <trkpt lat="44.33476" lon="5.95722">
        <ele>721.1262207</ele>
        <time>2014-08-19T10:32:06Z</time>
      </trkpt>
      <trkpt lat="44.33511" lon="5.95713">
        <ele>722.0874023</ele>
        <time>2014-08-19T10:32:20Z</time>
      </trkpt>
      <trkpt lat="44.33524" lon="5.95709">
        <ele>723.0488281</ele>
        <time>2014-08-19T10:32:32Z</time>
      </trkpt>
      <trkpt lat="44.33524" lon="5.95709">
        <ele>722.5681152</ele>
        <time>2014-08-19T10:32:37Z</time>
      </trkpt>
      <trkpt lat="44.33537" lon="5.95705">
        <ele>724.9714355</ele>
        <time>2014-08-19T10:32:53Z</time>
      </trkpt>
      <trkpt lat="44.3355" lon="5.95698">
        <ele>725.9326172</ele>
        <time>2014-08-19T10:33:06Z</time>
      </trkpt>
      <trkpt lat="44.33555" lon="5.95698">
        <ele>726.4133301</ele>
        <time>2014-08-19T10:33:12Z</time>
      </trkpt>
      <trkpt lat="44.33578" lon="5.95707">
        <ele>726.4133301</ele>
        <time>2014-08-19T10:33:33Z</time>
      </trkpt>
      <trkpt lat="44.33588" lon="5.95714">
        <ele>726.4133301</ele>
        <time>2014-08-19T10:33:42Z</time>
      </trkpt>
      <trkpt lat="44.33605" lon="5.95727">
        <ele>726.4133301</ele>
        <time>2014-08-19T10:33:57Z</time>
      </trkpt>
      <trkpt lat="44.33616" lon="5.95737">
        <ele>726.4133301</ele>
        <time>2014-08-19T10:34:09Z</time>
      </trkpt>
      <trkpt lat="44.33624" lon="5.95736">
        <ele>727.3747559</ele>
        <time>2014-08-19T10:34:16Z</time>
      </trkpt>
      <trkpt lat="44.33646" lon="5.95749">
        <ele>728.3359375</ele>
        <time>2014-08-19T10:34:34Z</time>
      </trkpt>
      <trkpt lat="44.33652" lon="5.95751">
        <ele>728.8166504</ele>
        <time>2014-08-19T10:34:40Z</time>
      </trkpt>
      <trkpt lat="44.33657" lon="5.95756">
        <ele>729.777832</ele>
        <time>2014-08-19T10:34:46Z</time>
      </trkpt>
      <trkpt lat="44.33664" lon="5.9576">
        <ele>730.2585449</ele>
        <time>2014-08-19T10:35:03Z</time>
      </trkpt>
      <trkpt lat="44.33663" lon="5.95762">
        <ele>730.2585449</ele>
        <time>2014-08-19T10:35:11Z</time>
      </trkpt>
      <trkpt lat="44.33669" lon="5.95785">
        <ele>731.2199707</ele>
        <time>2014-08-19T10:35:22Z</time>
      </trkpt>
      <trkpt lat="44.33669" lon="5.9582">
        <ele>732.6621094</ele>
        <time>2014-08-19T10:35:35Z</time>
      </trkpt>
      <trkpt lat="44.33666" lon="5.95852">
        <ele>734.5847168</ele>
        <time>2014-08-19T10:35:49Z</time>
      </trkpt>
      <trkpt lat="44.33672" lon="5.95897">
        <ele>734.5847168</ele>
        <time>2014-08-19T10:36:04Z</time>
      </trkpt>
      <trkpt lat="44.33669" lon="5.95962">
        <ele>734.1040039</ele>
        <time>2014-08-19T10:36:19Z</time>
      </trkpt>
      <trkpt lat="44.33647" lon="5.96017">
        <ele>733.1425781</ele>
        <time>2014-08-19T10:36:32Z</time>
      </trkpt>
      <trkpt lat="44.33624" lon="5.96056">
        <ele>733.1425781</ele>
        <time>2014-08-19T10:36:44Z</time>
      </trkpt>
      <trkpt lat="44.3363" lon="5.961">
        <ele>732.1813965</ele>
        <time>2014-08-19T10:36:55Z</time>
      </trkpt>
      <trkpt lat="44.33639" lon="5.96132">
        <ele>731.7004395</ele>
        <time>2014-08-19T10:37:03Z</time>
      </trkpt>
      <trkpt lat="44.3366" lon="5.96185">
        <ele>731.2199707</ele>
        <time>2014-08-19T10:37:16Z</time>
      </trkpt>
      <trkpt lat="44.33678" lon="5.96218">
        <ele>732.1813965</ele>
        <time>2014-08-19T10:37:28Z</time>
      </trkpt>
      <trkpt lat="44.33705" lon="5.96246">
        <ele>733.1425781</ele>
        <time>2014-08-19T10:37:41Z</time>
      </trkpt>
      <trkpt lat="44.33714" lon="5.96267">
        <ele>735.0654297</ele>
        <time>2014-08-19T10:37:48Z</time>
      </trkpt>
      <trkpt lat="44.3372" lon="5.96288">
        <ele>736.0266113</ele>
        <time>2014-08-19T10:37:58Z</time>
      </trkpt>
      <trkpt lat="44.33727" lon="5.963">
        <ele>737.4685059</ele>
        <time>2014-08-19T10:38:07Z</time>
      </trkpt>
      <trkpt lat="44.33732" lon="5.9632">
        <ele>738.9106445</ele>
        <time>2014-08-19T10:38:17Z</time>
      </trkpt>
      <trkpt lat="44.33735" lon="5.96325">
        <ele>739.8718262</ele>
        <time>2014-08-19T10:38:21Z</time>
      </trkpt>
      <trkpt lat="44.33736" lon="5.96334">
        <ele>740.3525391</ele>
        <time>2014-08-19T10:38:26Z</time>
      </trkpt>
      <trkpt lat="44.33733" lon="5.96373">
        <ele>743.2363281</ele>
        <time>2014-08-19T10:38:47Z</time>
      </trkpt>
      <trkpt lat="44.33732" lon="5.96377">
        <ele>743.717041</ele>
        <time>2014-08-19T10:38:49Z</time>
      </trkpt>
      <trkpt lat="44.33731" lon="5.96383">
        <ele>743.717041</ele>
        <time>2014-08-19T10:38:52Z</time>
      </trkpt>
      <trkpt lat="44.33731" lon="5.96392">
        <ele>744.1977539</ele>
        <time>2014-08-19T10:38:58Z</time>
      </trkpt>
      <trkpt lat="44.33728" lon="5.96401">
        <ele>745.1589355</ele>
        <time>2014-08-19T10:39:05Z</time>
      </trkpt>
      <trkpt lat="44.33729" lon="5.96403">
        <ele>745.1589355</ele>
        <time>2014-08-19T10:39:07Z</time>
      </trkpt>
      <trkpt lat="44.33743" lon="5.96434">
        <ele>746.6010742</ele>
        <time>2014-08-19T10:39:23Z</time>
      </trkpt>
      <trkpt lat="44.33748" lon="5.96467">
        <ele>747.5622559</ele>
        <time>2014-08-19T10:39:38Z</time>
      </trkpt>
      <trkpt lat="44.3375" lon="5.96482">
        <ele>748.0432129</ele>
        <time>2014-08-19T10:39:46Z</time>
      </trkpt>
      <trkpt lat="44.33753" lon="5.96517">
        <ele>749.9658203</ele>
        <time>2014-08-19T10:40:00Z</time>
      </trkpt>
      <trkpt lat="44.33753" lon="5.96519">
        <ele>749.9658203</ele>
        <time>2014-08-19T10:40:01Z</time>
      </trkpt>
      <trkpt lat="44.33755" lon="5.96541">
        <ele>751.8884277</ele>
        <time>2014-08-19T10:40:12Z</time>
      </trkpt>
      <trkpt lat="44.33756" lon="5.96545">
        <ele>751.8884277</ele>
        <time>2014-08-19T10:40:14Z</time>
      </trkpt>
      <trkpt lat="44.33754" lon="5.96559">
        <ele>753.3303223</ele>
        <time>2014-08-19T10:40:23Z</time>
      </trkpt>
      <trkpt lat="44.33755" lon="5.96599">
        <ele>755.7336426</ele>
        <time>2014-08-19T10:40:44Z</time>
      </trkpt>
      <trkpt lat="44.33747" lon="5.96624">
        <ele>757.65625</ele>
        <time>2014-08-19T10:40:59Z</time>
      </trkpt>
      <trkpt lat="44.33738" lon="5.96636">
        <ele>759.0981445</ele>
        <time>2014-08-19T10:41:11Z</time>
      </trkpt>
      <trkpt lat="44.33723" lon="5.96656">
        <ele>761.9821777</ele>
        <time>2014-08-19T10:41:27Z</time>
      </trkpt>
      <trkpt lat="44.33712" lon="5.96695">
        <ele>763.904541</ele>
        <time>2014-08-19T10:41:40Z</time>
      </trkpt>
      <trkpt lat="44.33702" lon="5.96713">
        <ele>764.8662109</ele>
        <time>2014-08-19T10:41:52Z</time>
      </trkpt>
      <trkpt lat="44.33684" lon="5.96734">
        <ele>765.8276367</ele>
        <time>2014-08-19T10:42:07Z</time>
      </trkpt>
      <trkpt lat="44.33679" lon="5.96738">
        <ele>765.8276367</ele>
        <time>2014-08-19T10:42:22Z</time>
      </trkpt>
      <trkpt lat="44.33677" lon="5.96742">
        <ele>765.3469238</ele>
        <time>2014-08-19T10:42:24Z</time>
      </trkpt>
      <trkpt lat="44.33669" lon="5.96755">
        <ele>765.8276367</ele>
        <time>2014-08-19T10:42:29Z</time>
      </trkpt>
      <trkpt lat="44.3367" lon="5.96768">
        <ele>765.3469238</ele>
        <time>2014-08-19T10:42:33Z</time>
      </trkpt>
      <trkpt lat="44.33676" lon="5.96794">
        <ele>766.7888184</ele>
        <time>2014-08-19T10:42:46Z</time>
      </trkpt>
      <trkpt lat="44.33673" lon="5.96836">
        <ele>766.7888184</ele>
        <time>2014-08-19T10:42:59Z</time>
      </trkpt>
      <trkpt lat="44.3367" lon="5.96872">
        <ele>766.3081055</ele>
        <time>2014-08-19T10:43:10Z</time>
      </trkpt>
      <trkpt lat="44.33692" lon="5.96902">
        <ele>768.2307129</ele>
        <time>2014-08-19T10:43:25Z</time>
      </trkpt>
      <trkpt lat="44.33695" lon="5.96909">
        <ele>768.7114258</ele>
        <time>2014-08-19T10:43:29Z</time>
      </trkpt>
      <trkpt lat="44.33705" lon="5.9692">
        <ele>769.6728516</ele>
        <time>2014-08-19T10:43:36Z</time>
      </trkpt>
      <trkpt lat="44.33731" lon="5.96961">
        <ele>771.1147461</ele>
        <time>2014-08-19T10:43:56Z</time>
      </trkpt>
      <trkpt lat="44.3374" lon="5.9698">
        <ele>771.1147461</ele>
        <time>2014-08-19T10:44:04Z</time>
      </trkpt>
      <trkpt lat="44.33774" lon="5.96977">
        <ele>769.1921387</ele>
        <time>2014-08-19T10:44:17Z</time>
      </trkpt>
      <trkpt lat="44.33826" lon="5.96949">
        <ele>765.3469238</ele>
        <time>2014-08-19T10:44:28Z</time>
      </trkpt>
      <trkpt lat="44.3388" lon="5.96913">
        <ele>765.3469238</ele>
        <time>2014-08-19T10:44:42Z</time>
      </trkpt>
      <trkpt lat="44.33908" lon="5.96875">
        <ele>764.8662109</ele>
        <time>2014-08-19T10:44:52Z</time>
      </trkpt>
      <trkpt lat="44.33935" lon="5.96828">
        <ele>763.904541</ele>
        <time>2014-08-19T10:45:03Z</time>
      </trkpt>
      <trkpt lat="44.33954" lon="5.96792">
        <ele>764.385498</ele>
        <time>2014-08-19T10:45:12Z</time>
      </trkpt>
      <trkpt lat="44.33968" lon="5.96745">
        <ele>764.8662109</ele>
        <time>2014-08-19T10:45:25Z</time>
      </trkpt>
      <trkpt lat="44.33985" lon="5.9671">
        <ele>765.8276367</ele>
        <time>2014-08-19T10:45:35Z</time>
      </trkpt>
      <trkpt lat="44.34003" lon="5.96668">
        <ele>767.2695313</ele>
        <time>2014-08-19T10:45:50Z</time>
      </trkpt>
      <trkpt lat="44.3402" lon="5.96638">
        <ele>769.1921387</ele>
        <time>2014-08-19T10:46:06Z</time>
      </trkpt>
      <trkpt lat="44.34025" lon="5.96636">
        <ele>769.6728516</ele>
        <time>2014-08-19T10:46:18Z</time>
      </trkpt>
      <trkpt lat="44.34025" lon="5.96636">
        <ele>769.1921387</ele>
        <time>2014-08-19T10:46:37Z</time>
      </trkpt>
      <trkpt lat="44.34024" lon="5.96641">
        <ele>771.1147461</ele>
        <time>2014-08-19T10:46:44Z</time>
      </trkpt>
      <trkpt lat="44.34023" lon="5.96674">
        <ele>770.6340332</ele>
        <time>2014-08-19T10:46:56Z</time>
      </trkpt>
      <trkpt lat="44.34023" lon="5.96681">
        <ele>772.5566406</ele>
        <time>2014-08-19T10:46:58Z</time>
      </trkpt>
      <trkpt lat="44.34022" lon="5.96691">
        <ele>771.1147461</ele>
        <time>2014-08-19T10:47:01Z</time>
      </trkpt>
      <trkpt lat="44.34025" lon="5.96657">
        <ele>772.5566406</ele>
        <time>2014-08-19T10:47:46Z</time>
      </trkpt>
      <trkpt lat="44.34027" lon="5.96645">
        <ele>772.0759277</ele>
        <time>2014-08-19T10:47:49Z</time>
      </trkpt>
      <trkpt lat="44.34029" lon="5.96636">
        <ele>771.5952148</ele>
        <time>2014-08-19T10:47:51Z</time>
      </trkpt>
      <trkpt lat="44.3404" lon="5.96599">
        <ele>769.6728516</ele>
        <time>2014-08-19T10:47:57Z</time>
      </trkpt>
      <trkpt lat="44.34047" lon="5.96578">
        <ele>770.6340332</ele>
        <time>2014-08-19T10:48:01Z</time>
      </trkpt>
      <trkpt lat="44.34063" lon="5.9657">
        <ele>770.6340332</ele>
        <time>2014-08-19T10:48:06Z</time>
      </trkpt>
      <trkpt lat="44.34069" lon="5.96571">
        <ele>768.2307129</ele>
        <time>2014-08-19T10:48:19Z</time>
      </trkpt>
      <trkpt lat="44.34069" lon="5.96571">
        <ele>767.75</ele>
        <time>2014-08-19T10:48:25Z</time>
      </trkpt>
      <trkpt lat="44.34069" lon="5.96571">
        <ele>770.6340332</ele>
        <time>2014-08-19T10:48:28Z</time>
      </trkpt>
      <trkpt lat="44.34084" lon="5.96578">
        <ele>769.1921387</ele>
        <time>2014-08-19T10:48:39Z</time>
      </trkpt>
      <trkpt lat="44.3411" lon="5.96593">
        <ele>765.8276367</ele>
        <time>2014-08-19T10:48:47Z</time>
      </trkpt>
      <trkpt lat="44.34146" lon="5.96609">
        <ele>762.9433594</ele>
        <time>2014-08-19T10:48:59Z</time>
      </trkpt>
      <trkpt lat="44.34148" lon="5.9661">
        <ele>762.9433594</ele>
        <time>2014-08-19T10:49:00Z</time>
      </trkpt>
      <trkpt lat="44.34151" lon="5.96612">
        <ele>761.5014648</ele>
        <time>2014-08-19T10:49:02Z</time>
      </trkpt>
      <trkpt lat="44.34156" lon="5.96615">
        <ele>761.020752</ele>
        <time>2014-08-19T10:49:04Z</time>
      </trkpt>
      <trkpt lat="44.3419" lon="5.96615">
        <ele>758.6174316</ele>
        <time>2014-08-19T10:49:16Z</time>
      </trkpt>
      <trkpt lat="44.342" lon="5.96613">
        <ele>757.65625</ele>
        <time>2014-08-19T10:49:19Z</time>
      </trkpt>
      <trkpt lat="44.34237" lon="5.96613">
        <ele>755.7336426</ele>
        <time>2014-08-19T10:49:29Z</time>
      </trkpt>
      <trkpt lat="44.3427" lon="5.96626">
        <ele>753.8110352</ele>
        <time>2014-08-19T10:49:40Z</time>
      </trkpt>
      <trkpt lat="44.34286" lon="5.96638">
        <ele>753.3303223</ele>
        <time>2014-08-19T10:49:43Z</time>
      </trkpt>
      <trkpt lat="44.34323" lon="5.96617">
        <ele>754.291748</ele>
        <time>2014-08-19T10:49:54Z</time>
      </trkpt>
      <trkpt lat="44.34354" lon="5.96598">
        <ele>756.6948242</ele>
        <time>2014-08-19T10:50:07Z</time>
      </trkpt>
      <trkpt lat="44.3437" lon="5.96598">
        <ele>754.291748</ele>
        <time>2014-08-19T10:50:14Z</time>
      </trkpt>
      <trkpt lat="44.34377" lon="5.96601">
        <ele>754.7722168</ele>
        <time>2014-08-19T10:50:17Z</time>
      </trkpt>
      <trkpt lat="44.34406" lon="5.96593">
        <ele>753.8110352</ele>
        <time>2014-08-19T10:50:27Z</time>
      </trkpt>
      <trkpt lat="44.34424" lon="5.96587">
        <ele>753.3303223</ele>
        <time>2014-08-19T10:50:33Z</time>
      </trkpt>
      <trkpt lat="44.3444" lon="5.96591">
        <ele>755.2529297</ele>
        <time>2014-08-19T10:50:40Z</time>
      </trkpt>
      <trkpt lat="44.34452" lon="5.96603">
        <ele>756.6948242</ele>
        <time>2014-08-19T10:50:47Z</time>
      </trkpt>
      <trkpt lat="44.34457" lon="5.96604">
        <ele>756.6948242</ele>
        <time>2014-08-19T10:50:49Z</time>
      </trkpt>
      <trkpt lat="44.34459" lon="5.96607">
        <ele>758.1369629</ele>
        <time>2014-08-19T10:50:52Z</time>
      </trkpt>
      <trkpt lat="44.34466" lon="5.96614">
        <ele>758.6174316</ele>
        <time>2014-08-19T10:50:57Z</time>
      </trkpt>
      <trkpt lat="44.34491" lon="5.96624">
        <ele>759.5788574</ele>
        <time>2014-08-19T10:51:08Z</time>
      </trkpt>
      <trkpt lat="44.34501" lon="5.96629">
        <ele>760.5400391</ele>
        <time>2014-08-19T10:51:14Z</time>
      </trkpt>
      <trkpt lat="44.3452" lon="5.96649">
        <ele>761.5014648</ele>
        <time>2014-08-19T10:51:26Z</time>
      </trkpt>
      <trkpt lat="44.34542" lon="5.96669">
        <ele>762.9433594</ele>
        <time>2014-08-19T10:51:39Z</time>
      </trkpt>
      <trkpt lat="44.34547" lon="5.96671">
        <ele>762.9433594</ele>
        <time>2014-08-19T10:51:41Z</time>
      </trkpt>
      <trkpt lat="44.34559" lon="5.96681">
        <ele>763.904541</ele>
        <time>2014-08-19T10:51:48Z</time>
      </trkpt>
      <trkpt lat="44.34571" lon="5.9669">
        <ele>764.385498</ele>
        <time>2014-08-19T10:51:55Z</time>
      </trkpt>
      <trkpt lat="44.34578" lon="5.96692">
        <ele>765.3469238</ele>
        <time>2014-08-19T10:51:59Z</time>
      </trkpt>
      <trkpt lat="44.34584" lon="5.96699">
        <ele>765.3469238</ele>
        <time>2014-08-19T10:52:03Z</time>
      </trkpt>
      <trkpt lat="44.34578" lon="5.96749">
        <ele>763.904541</ele>
        <time>2014-08-19T10:52:16Z</time>
      </trkpt>
      <trkpt lat="44.34579" lon="5.96752">
        <ele>763.904541</ele>
        <time>2014-08-19T10:52:17Z</time>
      </trkpt>
      <trkpt lat="44.34599" lon="5.96784">
        <ele>761.020752</ele>
        <time>2014-08-19T10:52:25Z</time>
      </trkpt>
      <trkpt lat="44.34603" lon="5.9679">
        <ele>761.020752</ele>
        <time>2014-08-19T10:52:26Z</time>
      </trkpt>
      <trkpt lat="44.34634" lon="5.96843">
        <ele>760.0593262</ele>
        <time>2014-08-19T10:52:39Z</time>
      </trkpt>
      <trkpt lat="44.34646" lon="5.96858">
        <ele>760.0593262</ele>
        <time>2014-08-19T10:52:47Z</time>
      </trkpt>
      <trkpt lat="44.3467" lon="5.96902">
        <ele>760.5400391</ele>
        <time>2014-08-19T10:53:04Z</time>
      </trkpt>
      <trkpt lat="44.3469" lon="5.96949">
        <ele>760.5400391</ele>
        <time>2014-08-19T10:53:22Z</time>
      </trkpt>
      <trkpt lat="44.34695" lon="5.97008">
        <ele>760.0593262</ele>
        <time>2014-08-19T10:53:40Z</time>
      </trkpt>
      <trkpt lat="44.347" lon="5.97021">
        <ele>759.5788574</ele>
        <time>2014-08-19T10:54:20Z</time>
      </trkpt>
      <trkpt lat="44.34692" lon="5.97002">
        <ele>759.5788574</ele>
        <time>2014-08-19T10:54:32Z</time>
      </trkpt>
      <trkpt lat="44.3469" lon="5.97">
        <ele>760.5400391</ele>
        <time>2014-08-19T10:54:34Z</time>
      </trkpt>
      <trkpt lat="44.34688" lon="5.97">
        <ele>761.020752</ele>
        <time>2014-08-19T10:54:36Z</time>
      </trkpt>
      <trkpt lat="44.34683" lon="5.97">
        <ele>761.020752</ele>
        <time>2014-08-19T10:54:39Z</time>
      </trkpt>
      <trkpt lat="44.34685" lon="5.97001">
        <ele>761.5014648</ele>
        <time>2014-08-19T10:54:53Z</time>
      </trkpt>
      <trkpt lat="44.34685" lon="5.97001">
        <ele>761.5014648</ele>
        <time>2014-08-19T10:55:04Z</time>
      </trkpt>
      <trkpt lat="44.34684" lon="5.97001">
        <ele>761.9821777</ele>
        <time>2014-08-19T10:55:10Z</time>
      </trkpt>
      <trkpt lat="44.34684" lon="5.97001">
        <ele>761.020752</ele>
        <time>2014-08-19T10:55:12Z</time>
      </trkpt>
      <trkpt lat="44.34684" lon="5.97001">
        <ele>761.020752</ele>
        <time>2014-08-19T10:55:23Z</time>
      </trkpt>
      <trkpt lat="44.34684" lon="5.97001">
        <ele>762.4626465</ele>
        <time>2014-08-19T10:55:25Z</time>
      </trkpt>
      <trkpt lat="44.34684" lon="5.97001">
        <ele>761.020752</ele>
        <time>2014-08-19T10:55:29Z</time>
      </trkpt>
      <trkpt lat="44.34689" lon="5.96998">
        <ele>760.5400391</ele>
        <time>2014-08-19T10:55:54Z</time>
      </trkpt>
      <trkpt lat="44.34691" lon="5.96998">
        <ele>759.5788574</ele>
        <time>2014-08-19T10:56:10Z</time>
      </trkpt>
      <trkpt lat="44.3469" lon="5.96998">
        <ele>759.0981445</ele>
        <time>2014-08-19T10:56:59Z</time>
      </trkpt>
      <trkpt lat="44.3469" lon="5.96998">
        <ele>760.5400391</ele>
        <time>2014-08-19T10:57:25Z</time>
      </trkpt>
      <trkpt lat="44.3469" lon="5.96999">
        <ele>761.020752</ele>
        <time>2014-08-19T10:57:50Z</time>
      </trkpt>
      <trkpt lat="44.34689" lon="5.97001">
        <ele>760.5400391</ele>
        <time>2014-08-19T10:58:11Z</time>
      </trkpt>
      <trkpt lat="44.34686" lon="5.97002">
        <ele>761.020752</ele>
        <time>2014-08-19T10:58:15Z</time>
      </trkpt>
      <trkpt lat="44.34667" lon="5.9701">
        <ele>763.904541</ele>
        <time>2014-08-19T10:58:38Z</time>
      </trkpt>
      <trkpt lat="44.34656" lon="5.97033">
        <ele>765.3469238</ele>
        <time>2014-08-19T10:58:52Z</time>
      </trkpt>
      <trkpt lat="44.34646" lon="5.9705">
        <ele>768.2307129</ele>
        <time>2014-08-19T10:59:11Z</time>
      </trkpt>
      <trkpt lat="44.34633" lon="5.97062">
        <ele>771.1147461</ele>
        <time>2014-08-19T10:59:33Z</time>
      </trkpt>
      <trkpt lat="44.34629" lon="5.97063">
        <ele>772.5566406</ele>
        <time>2014-08-19T10:59:54Z</time>
      </trkpt>
      <trkpt lat="44.34627" lon="5.97062">
        <ele>771.5952148</ele>
        <time>2014-08-19T10:59:59Z</time>
      </trkpt>
      <trkpt lat="44.34624" lon="5.97062">
        <ele>774.479248</ele>
        <time>2014-08-19T11:00:03Z</time>
      </trkpt>
      <trkpt lat="44.34617" lon="5.97069">
        <ele>776.8825684</ele>
        <time>2014-08-19T11:00:21Z</time>
      </trkpt>
      <trkpt lat="44.34609" lon="5.97074">
        <ele>779.7663574</ele>
        <time>2014-08-19T11:00:36Z</time>
      </trkpt>
      <trkpt lat="44.34594" lon="5.97085">
        <ele>782.6506348</ele>
        <time>2014-08-19T11:00:57Z</time>
      </trkpt>
      <trkpt lat="44.34593" lon="5.97085">
        <ele>782.6506348</ele>
        <time>2014-08-19T11:00:58Z</time>
      </trkpt>
      <trkpt lat="44.34587" lon="5.97089">
        <ele>781.689209</ele>
        <time>2014-08-19T11:01:06Z</time>
      </trkpt>
      <trkpt lat="44.34574" lon="5.97099">
        <ele>784.0925293</ele>
        <time>2014-08-19T11:01:19Z</time>
      </trkpt>
      <trkpt lat="44.34569" lon="5.97098">
        <ele>784.5732422</ele>
        <time>2014-08-19T11:01:24Z</time>
      </trkpt>
      <trkpt lat="44.3456" lon="5.97096">
        <ele>786.4958496</ele>
        <time>2014-08-19T11:01:34Z</time>
      </trkpt>
      <trkpt lat="44.3455" lon="5.97095">
        <ele>786.9763184</ele>
        <time>2014-08-19T11:01:47Z</time>
      </trkpt>
      <trkpt lat="44.34544" lon="5.97094">
        <ele>788.8991699</ele>
        <time>2014-08-19T11:01:59Z</time>
      </trkpt>
      <trkpt lat="44.34544" lon="5.97093">
        <ele>787.4570313</ele>
        <time>2014-08-19T11:02:01Z</time>
      </trkpt>
      <trkpt lat="44.34546" lon="5.97096">
        <ele>786.9763184</ele>
        <time>2014-08-19T11:02:12Z</time>
      </trkpt>
      <trkpt lat="44.34545" lon="5.97097">
        <ele>788.418457</ele>
        <time>2014-08-19T11:02:14Z</time>
      </trkpt>
      <trkpt lat="44.34536" lon="5.97104">
        <ele>789.3796387</ele>
        <time>2014-08-19T11:02:22Z</time>
      </trkpt>
      <trkpt lat="44.34535" lon="5.97111">
        <ele>790.8215332</ele>
        <time>2014-08-19T11:02:29Z</time>
      </trkpt>
      <trkpt lat="44.34525" lon="5.97121">
        <ele>792.2636719</ele>
        <time>2014-08-19T11:02:53Z</time>
      </trkpt>
      <trkpt lat="44.34524" lon="5.97121">
        <ele>792.7443848</ele>
        <time>2014-08-19T11:03:06Z</time>
      </trkpt>
      <trkpt lat="44.34507" lon="5.97126">
        <ele>796.1091309</ele>
        <time>2014-08-19T11:03:24Z</time>
      </trkpt>
      <trkpt lat="44.34504" lon="5.97125">
        <ele>798.0317383</ele>
        <time>2014-08-19T11:03:30Z</time>
      </trkpt>
      <trkpt lat="44.34492" lon="5.97133">
        <ele>798.9929199</ele>
        <time>2014-08-19T11:03:45Z</time>
      </trkpt>
      <trkpt lat="44.34487" lon="5.97136">
        <ele>801.3962402</ele>
        <time>2014-08-19T11:03:59Z</time>
      </trkpt>
      <trkpt lat="44.34473" lon="5.97136">
        <ele>803.3188477</ele>
        <time>2014-08-19T11:04:18Z</time>
      </trkpt>
      <trkpt lat="44.34463" lon="5.9714">
        <ele>805.2414551</ele>
        <time>2014-08-19T11:04:35Z</time>
      </trkpt>
      <trkpt lat="44.34461" lon="5.9714">
        <ele>806.2026367</ele>
        <time>2014-08-19T11:04:38Z</time>
      </trkpt>
      <trkpt lat="44.34452" lon="5.97139">
        <ele>808.1254883</ele>
        <time>2014-08-19T11:04:51Z</time>
      </trkpt>
      <trkpt lat="44.34443" lon="5.97143">
        <ele>810.0478516</ele>
        <time>2014-08-19T11:05:06Z</time>
      </trkpt>
      <trkpt lat="44.34436" lon="5.97147">
        <ele>810.5285645</ele>
        <time>2014-08-19T11:05:13Z</time>
      </trkpt>
      <trkpt lat="44.34422" lon="5.97155">
        <ele>811.4899902</ele>
        <time>2014-08-19T11:05:29Z</time>
      </trkpt>
      <trkpt lat="44.3442" lon="5.97156">
        <ele>811.4899902</ele>
        <time>2014-08-19T11:05:30Z</time>
      </trkpt>
      <trkpt lat="44.34407" lon="5.97164">
        <ele>813.4128418</ele>
        <time>2014-08-19T11:05:46Z</time>
      </trkpt>
      <trkpt lat="44.34396" lon="5.97175">
        <ele>815.3354492</ele>
        <time>2014-08-19T11:06:11Z</time>
      </trkpt>
      <trkpt lat="44.34394" lon="5.97177">
        <ele>816.2966309</ele>
        <time>2014-08-19T11:06:23Z</time>
      </trkpt>
      <trkpt lat="44.34384" lon="5.97189">
        <ele>819.661377</ele>
        <time>2014-08-19T11:06:45Z</time>
      </trkpt>
      <trkpt lat="44.34375" lon="5.97202">
        <ele>820.6225586</ele>
        <time>2014-08-19T11:06:57Z</time>
      </trkpt>
      <trkpt lat="44.34365" lon="5.9721">
        <ele>823.0258789</ele>
        <time>2014-08-19T11:07:12Z</time>
      </trkpt>
      <trkpt lat="44.34362" lon="5.97224">
        <ele>824.4677734</ele>
        <time>2014-08-19T11:07:29Z</time>
      </trkpt>
      <trkpt lat="44.34352" lon="5.9725">
        <ele>826.8710938</ele>
        <time>2014-08-19T11:07:44Z</time>
      </trkpt>
      <trkpt lat="44.34342" lon="5.97258">
        <ele>829.2744141</ele>
        <time>2014-08-19T11:08:04Z</time>
      </trkpt>
      <trkpt lat="44.34339" lon="5.97258">
        <ele>830.7165527</ele>
        <time>2014-08-19T11:08:06Z</time>
      </trkpt>
      <trkpt lat="44.34329" lon="5.97265">
        <ele>830.7165527</ele>
        <time>2014-08-19T11:08:25Z</time>
      </trkpt>
      <trkpt lat="44.3432" lon="5.97281">
        <ele>833.6003418</ele>
        <time>2014-08-19T11:08:43Z</time>
      </trkpt>
      <trkpt lat="44.34312" lon="5.97277">
        <ele>836.484375</ele>
        <time>2014-08-19T11:09:02Z</time>
      </trkpt>
      <trkpt lat="44.34301" lon="5.97269">
        <ele>838.8876953</ele>
        <time>2014-08-19T11:09:19Z</time>
      </trkpt>
      <trkpt lat="44.34298" lon="5.97274">
        <ele>839.848877</ele>
        <time>2014-08-19T11:09:40Z</time>
      </trkpt>
      <trkpt lat="44.34298" lon="5.97273">
        <ele>839.3681641</ele>
        <time>2014-08-19T11:10:25Z</time>
      </trkpt>
      <trkpt lat="44.34298" lon="5.97273">
        <ele>841.2907715</ele>
        <time>2014-08-19T11:10:33Z</time>
      </trkpt>
      <trkpt lat="44.34297" lon="5.97275">
        <ele>840.8100586</ele>
        <time>2014-08-19T11:10:38Z</time>
      </trkpt>
      <trkpt lat="44.34299" lon="5.97303">
        <ele>842.2521973</ele>
        <time>2014-08-19T11:11:04Z</time>
      </trkpt>
      <trkpt lat="44.34299" lon="5.9731">
        <ele>840.8100586</ele>
        <time>2014-08-19T11:11:07Z</time>
      </trkpt>
      <trkpt lat="44.343" lon="5.97315">
        <ele>842.2521973</ele>
        <time>2014-08-19T11:11:09Z</time>
      </trkpt>
      <trkpt lat="44.343" lon="5.97319">
        <ele>843.2133789</ele>
        <time>2014-08-19T11:11:10Z</time>
      </trkpt>
      <trkpt lat="44.34292" lon="5.97352">
        <ele>843.2133789</ele>
        <time>2014-08-19T11:11:20Z</time>
      </trkpt>
      <trkpt lat="44.34289" lon="5.97382">
        <ele>839.3681641</ele>
        <time>2014-08-19T11:11:30Z</time>
      </trkpt>
      <trkpt lat="44.34288" lon="5.97386">
        <ele>838.4069824</ele>
        <time>2014-08-19T11:11:32Z</time>
      </trkpt>
      <trkpt lat="44.3428" lon="5.97393">
        <ele>836.9648438</ele>
        <time>2014-08-19T11:11:37Z</time>
      </trkpt>
      <trkpt lat="44.34272" lon="5.97416">
        <ele>836.484375</ele>
        <time>2014-08-19T11:11:44Z</time>
      </trkpt>
      <trkpt lat="44.34262" lon="5.97433">
        <ele>835.0424805</ele>
        <time>2014-08-19T11:11:53Z</time>
      </trkpt>
      <trkpt lat="44.34259" lon="5.97435">
        <ele>835.0424805</ele>
        <time>2014-08-19T11:11:55Z</time>
      </trkpt>
      <trkpt lat="44.34247" lon="5.97461">
        <ele>835.0424805</ele>
        <time>2014-08-19T11:12:09Z</time>
      </trkpt>
      <trkpt lat="44.34241" lon="5.97463">
        <ele>836.0036621</ele>
        <time>2014-08-19T11:12:28Z</time>
      </trkpt>
      <trkpt lat="44.34242" lon="5.97475">
        <ele>835.0424805</ele>
        <time>2014-08-19T11:12:42Z</time>
      </trkpt>
      <trkpt lat="44.34231" lon="5.97495">
        <ele>837.9262695</ele>
        <time>2014-08-19T11:13:05Z</time>
      </trkpt>
      <trkpt lat="44.34224" lon="5.97518">
        <ele>840.8100586</ele>
        <time>2014-08-19T11:13:26Z</time>
      </trkpt>
      <trkpt lat="44.34222" lon="5.97537">
        <ele>843.2133789</ele>
        <time>2014-08-19T11:13:42Z</time>
      </trkpt>
      <trkpt lat="44.34213" lon="5.97566">
        <ele>846.5783691</ele>
        <time>2014-08-19T11:14:04Z</time>
      </trkpt>
      <trkpt lat="44.3421" lon="5.9758">
        <ele>848.5007324</ele>
        <time>2014-08-19T11:14:19Z</time>
      </trkpt>
      <trkpt lat="44.34203" lon="5.97604">
        <ele>849.4621582</ele>
        <time>2014-08-19T11:14:44Z</time>
      </trkpt>
      <trkpt lat="44.34207" lon="5.97617">
        <ele>849.9428711</ele>
        <time>2014-08-19T11:15:00Z</time>
      </trkpt>
      <trkpt lat="44.34206" lon="5.97622">
        <ele>850.423584</ele>
        <time>2014-08-19T11:15:05Z</time>
      </trkpt>
      <trkpt lat="44.34195" lon="5.97662">
        <ele>849.9428711</ele>
        <time>2014-08-19T11:15:22Z</time>
      </trkpt>
      <trkpt lat="44.34197" lon="5.97682">
        <ele>851.8654785</ele>
        <time>2014-08-19T11:15:31Z</time>
      </trkpt>
      <trkpt lat="44.34202" lon="5.9769">
        <ele>851.8654785</ele>
        <time>2014-08-19T11:15:36Z</time>
      </trkpt>
      <trkpt lat="44.34215" lon="5.97707">
        <ele>854.2687988</ele>
        <time>2014-08-19T11:15:47Z</time>
      </trkpt>
      <trkpt lat="44.34222" lon="5.97711">
        <ele>855.2299805</ele>
        <time>2014-08-19T11:15:50Z</time>
      </trkpt>
      <trkpt lat="44.34226" lon="5.97728">
        <ele>855.7106934</ele>
        <time>2014-08-19T11:16:00Z</time>
      </trkpt>
      <trkpt lat="44.34227" lon="5.9774">
        <ele>856.1911621</ele>
        <time>2014-08-19T11:16:05Z</time>
      </trkpt>
      <trkpt lat="44.34226" lon="5.97754">
        <ele>855.2299805</ele>
        <time>2014-08-19T11:16:10Z</time>
      </trkpt>
      <trkpt lat="44.34229" lon="5.97778">
        <ele>855.7106934</ele>
        <time>2014-08-19T11:16:18Z</time>
      </trkpt>
      <trkpt lat="44.34232" lon="5.97789">
        <ele>855.7106934</ele>
        <time>2014-08-19T11:16:23Z</time>
      </trkpt>
      <trkpt lat="44.34237" lon="5.97827">
        <ele>858.1140137</ele>
        <time>2014-08-19T11:16:37Z</time>
      </trkpt>
      <trkpt lat="44.34235" lon="5.97839">
        <ele>859.5559082</ele>
        <time>2014-08-19T11:16:44Z</time>
      </trkpt>
      <trkpt lat="44.34244" lon="5.97868">
        <ele>861.9594727</ele>
        <time>2014-08-19T11:16:55Z</time>
      </trkpt>
      <trkpt lat="44.34244" lon="5.97875">
        <ele>862.4399414</ele>
        <time>2014-08-19T11:16:59Z</time>
      </trkpt>
      <trkpt lat="44.34251" lon="5.97908">
        <ele>862.4399414</ele>
        <time>2014-08-19T11:17:11Z</time>
      </trkpt>
      <trkpt lat="44.34251" lon="5.97918">
        <ele>862.4399414</ele>
        <time>2014-08-19T11:17:15Z</time>
      </trkpt>
      <trkpt lat="44.34249" lon="5.97933">
        <ele>861.9594727</ele>
        <time>2014-08-19T11:17:20Z</time>
      </trkpt>
      <trkpt lat="44.34251" lon="5.97954">
        <ele>862.4399414</ele>
        <time>2014-08-19T11:17:27Z</time>
      </trkpt>
      <trkpt lat="44.3425" lon="5.97961">
        <ele>862.4399414</ele>
        <time>2014-08-19T11:17:30Z</time>
      </trkpt>
      <trkpt lat="44.3425" lon="5.97976">
        <ele>862.4399414</ele>
        <time>2014-08-19T11:17:44Z</time>
      </trkpt>
      <trkpt lat="44.34251" lon="5.97979">
        <ele>862.4399414</ele>
        <time>2014-08-19T11:17:46Z</time>
      </trkpt>
      <trkpt lat="44.34261" lon="5.98028">
        <ele>860.517334</ele>
        <time>2014-08-19T11:17:59Z</time>
      </trkpt>
      <trkpt lat="44.34267" lon="5.98042">
        <ele>859.0751953</ele>
        <time>2014-08-19T11:18:02Z</time>
      </trkpt>
      <trkpt lat="44.34276" lon="5.98061">
        <ele>857.6333008</ele>
        <time>2014-08-19T11:18:06Z</time>
      </trkpt>
      <trkpt lat="44.34296" lon="5.98106">
        <ele>854.7492676</ele>
        <time>2014-08-19T11:18:16Z</time>
      </trkpt>
      <trkpt lat="44.34299" lon="5.98135">
        <ele>854.2687988</ele>
        <time>2014-08-19T11:18:24Z</time>
      </trkpt>
      <trkpt lat="44.34329" lon="5.9816">
        <ele>850.9040527</ele>
        <time>2014-08-19T11:18:35Z</time>
      </trkpt>
      <trkpt lat="44.34351" lon="5.98175">
        <ele>850.423584</ele>
        <time>2014-08-19T11:18:45Z</time>
      </trkpt>
      <trkpt lat="44.34353" lon="5.98175">
        <ele>850.423584</ele>
        <time>2014-08-19T11:18:59Z</time>
      </trkpt>
      <trkpt lat="44.34379" lon="5.98174">
        <ele>848.0202637</ele>
        <time>2014-08-19T11:19:14Z</time>
      </trkpt>
      <trkpt lat="44.34385" lon="5.98173">
        <ele>847.0588379</ele>
        <time>2014-08-19T11:19:23Z</time>
      </trkpt>
      <trkpt lat="44.34413" lon="5.98191">
        <ele>845.1362305</ele>
        <time>2014-08-19T11:19:43Z</time>
      </trkpt>
      <trkpt lat="44.34466" lon="5.98199">
        <ele>843.2133789</ele>
        <time>2014-08-19T11:19:55Z</time>
      </trkpt>
      <trkpt lat="44.34493" lon="5.98198">
        <ele>842.7329102</ele>
        <time>2014-08-19T11:20:03Z</time>
      </trkpt>
      <trkpt lat="44.34501" lon="5.9821">
        <ele>841.2907715</ele>
        <time>2014-08-19T11:20:09Z</time>
      </trkpt>
      <trkpt lat="44.34501" lon="5.98221">
        <ele>839.848877</ele>
        <time>2014-08-19T11:20:12Z</time>
      </trkpt>
      <trkpt lat="44.34482" lon="5.98272">
        <ele>836.0036621</ele>
        <time>2014-08-19T11:20:24Z</time>
      </trkpt>
      <trkpt lat="44.34482" lon="5.98286">
        <ele>835.5229492</ele>
        <time>2014-08-19T11:20:28Z</time>
      </trkpt>
      <trkpt lat="44.34465" lon="5.98333">
        <ele>833.6003418</ele>
        <time>2014-08-19T11:20:38Z</time>
      </trkpt>
      <trkpt lat="44.34443" lon="5.98376">
        <ele>832.1584473</ele>
        <time>2014-08-19T11:20:51Z</time>
      </trkpt>
      <trkpt lat="44.34443" lon="5.98393">
        <ele>830.2358398</ele>
        <time>2014-08-19T11:20:56Z</time>
      </trkpt>
      <trkpt lat="44.34444" lon="5.98396">
        <ele>829.755127</ele>
        <time>2014-08-19T11:21:07Z</time>
      </trkpt>
      <trkpt lat="44.34444" lon="5.98397">
        <ele>829.2744141</ele>
        <time>2014-08-19T11:21:18Z</time>
      </trkpt>
      <trkpt lat="44.34453" lon="5.98418">
        <ele>828.3132324</ele>
        <time>2014-08-19T11:21:24Z</time>
      </trkpt>
      <trkpt lat="44.34475" lon="5.98468">
        <ele>827.3518066</ele>
        <time>2014-08-19T11:21:32Z</time>
      </trkpt>
      <trkpt lat="44.3452" lon="5.98566">
        <ele>823.9870605</ele>
        <time>2014-08-19T11:21:45Z</time>
      </trkpt>
      <trkpt lat="44.34527" lon="5.98581">
        <ele>823.5065918</ele>
        <time>2014-08-19T11:21:55Z</time>
      </trkpt>
      <trkpt lat="44.34526" lon="5.98579">
        <ele>823.9870605</ele>
        <time>2014-08-19T11:22:15Z</time>
      </trkpt>
      <trkpt lat="44.34501" lon="5.98555">
        <ele>824.4677734</ele>
        <time>2014-08-19T11:22:26Z</time>
      </trkpt>
      <trkpt lat="44.34465" lon="5.98492">
        <ele>824.9484863</ele>
        <time>2014-08-19T11:22:42Z</time>
      </trkpt>
      <trkpt lat="44.34446" lon="5.98459">
        <ele>826.3903809</ele>
        <time>2014-08-19T11:22:54Z</time>
      </trkpt>
      <trkpt lat="44.3444" lon="5.98459">
        <ele>827.3518066</ele>
        <time>2014-08-19T11:22:58Z</time>
      </trkpt>
      <trkpt lat="44.34426" lon="5.98466">
        <ele>829.755127</ele>
        <time>2014-08-19T11:23:07Z</time>
      </trkpt>
      <trkpt lat="44.34424" lon="5.9847">
        <ele>827.8322754</ele>
        <time>2014-08-19T11:23:24Z</time>
      </trkpt>
      <trkpt lat="44.34423" lon="5.98467">
        <ele>828.7939453</ele>
        <time>2014-08-19T11:23:52Z</time>
      </trkpt>
      <trkpt lat="44.34423" lon="5.98467">
        <ele>828.3132324</ele>
        <time>2014-08-19T11:24:06Z</time>
      </trkpt>
      <trkpt lat="44.34422" lon="5.98469">
        <ele>828.3132324</ele>
        <time>2014-08-19T11:25:13Z</time>
      </trkpt>
      <trkpt lat="44.34413" lon="5.9851">
        <ele>828.7939453</ele>
        <time>2014-08-19T11:25:26Z</time>
      </trkpt>
      <trkpt lat="44.34418" lon="5.98547">
        <ele>829.755127</ele>
        <time>2014-08-19T11:25:39Z</time>
      </trkpt>
      <trkpt lat="44.34424" lon="5.98553">
        <ele>830.7165527</ele>
        <time>2014-08-19T11:25:42Z</time>
      </trkpt>
      <trkpt lat="44.3441" lon="5.98542">
        <ele>829.755127</ele>
        <time>2014-08-19T11:26:41Z</time>
      </trkpt>
      <trkpt lat="44.34416" lon="5.98545">
        <ele>830.2358398</ele>
        <time>2014-08-19T11:26:53Z</time>
      </trkpt>
      <trkpt lat="44.34437" lon="5.98543">
        <ele>831.6777344</ele>
        <time>2014-08-19T11:27:02Z</time>
      </trkpt>
      <trkpt lat="44.34447" lon="5.98554">
        <ele>833.1196289</ele>
        <time>2014-08-19T11:27:07Z</time>
      </trkpt>
      <trkpt lat="44.34446" lon="5.98596">
        <ele>833.1196289</ele>
        <time>2014-08-19T11:27:20Z</time>
      </trkpt>
      <trkpt lat="44.34434" lon="5.98617">
        <ele>836.0036621</ele>
        <time>2014-08-19T11:27:31Z</time>
      </trkpt>
      <trkpt lat="44.34433" lon="5.98618">
        <ele>836.0036621</ele>
        <time>2014-08-19T11:27:32Z</time>
      </trkpt>
      <trkpt lat="44.3443" lon="5.98618">
        <ele>836.0036621</ele>
        <time>2014-08-19T11:27:34Z</time>
      </trkpt>
      <trkpt lat="44.34407" lon="5.9863">
        <ele>837.9262695</ele>
        <time>2014-08-19T11:27:48Z</time>
      </trkpt>
      <trkpt lat="44.34376" lon="5.98646">
        <ele>835.5229492</ele>
        <time>2014-08-19T11:27:57Z</time>
      </trkpt>
      <trkpt lat="44.34355" lon="5.98655">
        <ele>835.5229492</ele>
        <time>2014-08-19T11:28:01Z</time>
      </trkpt>
      <trkpt lat="44.34328" lon="5.98661">
        <ele>834.5617676</ele>
        <time>2014-08-19T11:28:05Z</time>
      </trkpt>
      <trkpt lat="44.34307" lon="5.98659">
        <ele>833.1196289</ele>
        <time>2014-08-19T11:28:08Z</time>
      </trkpt>
      <trkpt lat="44.34293" lon="5.98656">
        <ele>833.6003418</ele>
        <time>2014-08-19T11:28:10Z</time>
      </trkpt>
      <trkpt lat="44.34276" lon="5.98644">
        <ele>832.6391602</ele>
        <time>2014-08-19T11:28:14Z</time>
      </trkpt>
      <trkpt lat="44.3427" lon="5.98636">
        <ele>833.1196289</ele>
        <time>2014-08-19T11:28:23Z</time>
      </trkpt>
      <trkpt lat="44.3426" lon="5.98626">
        <ele>835.0424805</ele>
        <time>2014-08-19T11:28:36Z</time>
      </trkpt>
      <trkpt lat="44.34258" lon="5.98623">
        <ele>835.0424805</ele>
        <time>2014-08-19T11:28:38Z</time>
      </trkpt>
      <trkpt lat="44.34247" lon="5.98612">
        <ele>836.484375</ele>
        <time>2014-08-19T11:28:55Z</time>
      </trkpt>
      <trkpt lat="44.34245" lon="5.9861">
        <ele>836.0036621</ele>
        <time>2014-08-19T11:29:25Z</time>
      </trkpt>
      <trkpt lat="44.34236" lon="5.98605">
        <ele>837.9262695</ele>
        <time>2014-08-19T11:29:31Z</time>
      </trkpt>
      <trkpt lat="44.34206" lon="5.98604">
        <ele>836.9648438</ele>
        <time>2014-08-19T11:29:44Z</time>
      </trkpt>
      <trkpt lat="44.34198" lon="5.98602">
        <ele>836.9648438</ele>
        <time>2014-08-19T11:29:47Z</time>
      </trkpt>
      <trkpt lat="44.34191" lon="5.98595">
        <ele>838.4069824</ele>
        <time>2014-08-19T11:29:51Z</time>
      </trkpt>
      <trkpt lat="44.34181" lon="5.98588">
        <ele>837.9262695</ele>
        <time>2014-08-19T11:29:55Z</time>
      </trkpt>
      <trkpt lat="44.3416" lon="5.98588">
        <ele>840.8100586</ele>
        <time>2014-08-19T11:30:06Z</time>
      </trkpt>
      <trkpt lat="44.34139" lon="5.98587">
        <ele>840.8100586</ele>
        <time>2014-08-19T11:30:15Z</time>
      </trkpt>
      <trkpt lat="44.34133" lon="5.98591">
        <ele>842.2521973</ele>
        <time>2014-08-19T11:30:22Z</time>
      </trkpt>
      <trkpt lat="44.34124" lon="5.98601">
        <ele>841.2907715</ele>
        <time>2014-08-19T11:30:28Z</time>
      </trkpt>
      <trkpt lat="44.34116" lon="5.98606">
        <ele>841.7714844</ele>
        <time>2014-08-19T11:30:32Z</time>
      </trkpt>
      <trkpt lat="44.34109" lon="5.98605">
        <ele>842.7329102</ele>
        <time>2014-08-19T11:30:35Z</time>
      </trkpt>
      <trkpt lat="44.34097" lon="5.98599">
        <ele>843.2133789</ele>
        <time>2014-08-19T11:30:40Z</time>
      </trkpt>
      <trkpt lat="44.34095" lon="5.98593">
        <ele>841.7714844</ele>
        <time>2014-08-19T11:30:42Z</time>
      </trkpt>
      <trkpt lat="44.34095" lon="5.9856">
        <ele>843.6940918</ele>
        <time>2014-08-19T11:30:54Z</time>
      </trkpt>
      <trkpt lat="44.34081" lon="5.98546">
        <ele>845.1362305</ele>
        <time>2014-08-19T11:31:05Z</time>
      </trkpt>
      <trkpt lat="44.34079" lon="5.98542">
        <ele>845.1362305</ele>
        <time>2014-08-19T11:31:07Z</time>
      </trkpt>
      <trkpt lat="44.34077" lon="5.98533">
        <ele>846.5783691</ele>
        <time>2014-08-19T11:31:11Z</time>
      </trkpt>
      <trkpt lat="44.34074" lon="5.98502">
        <ele>848.5007324</ele>
        <time>2014-08-19T11:31:24Z</time>
      </trkpt>
      <trkpt lat="44.34063" lon="5.98464">
        <ele>849.4621582</ele>
        <time>2014-08-19T11:31:40Z</time>
      </trkpt>
      <trkpt lat="44.34059" lon="5.98451">
        <ele>850.423584</ele>
        <time>2014-08-19T11:31:46Z</time>
      </trkpt>
      <trkpt lat="44.34052" lon="5.9844">
        <ele>850.9040527</ele>
        <time>2014-08-19T11:31:51Z</time>
      </trkpt>
      <trkpt lat="44.34039" lon="5.98424">
        <ele>852.8266602</ele>
        <time>2014-08-19T11:32:04Z</time>
      </trkpt>
      <trkpt lat="44.34038" lon="5.98424">
        <ele>852.8266602</ele>
        <time>2014-08-19T11:32:05Z</time>
      </trkpt>
      <trkpt lat="44.34021" lon="5.98429">
        <ele>853.7880859</ele>
        <time>2014-08-19T11:32:18Z</time>
      </trkpt>
      <trkpt lat="44.34012" lon="5.98425">
        <ele>854.2687988</ele>
        <time>2014-08-19T11:32:23Z</time>
      </trkpt>
      <trkpt lat="44.34009" lon="5.98424">
        <ele>854.7492676</ele>
        <time>2014-08-19T11:32:25Z</time>
      </trkpt>
      <trkpt lat="44.33988" lon="5.98414">
        <ele>855.2299805</ele>
        <time>2014-08-19T11:32:37Z</time>
      </trkpt>
      <trkpt lat="44.33965" lon="5.98404">
        <ele>857.1525879</ele>
        <time>2014-08-19T11:32:50Z</time>
      </trkpt>
      <trkpt lat="44.33958" lon="5.98424">
        <ele>857.6333008</ele>
        <time>2014-08-19T11:33:02Z</time>
      </trkpt>
      <trkpt lat="44.33969" lon="5.98458">
        <ele>859.0751953</ele>
        <time>2014-08-19T11:33:16Z</time>
      </trkpt>
      <trkpt lat="44.33971" lon="5.98465">
        <ele>859.5559082</ele>
        <time>2014-08-19T11:33:20Z</time>
      </trkpt>
      <trkpt lat="44.33979" lon="5.98494">
        <ele>861.9594727</ele>
        <time>2014-08-19T11:33:34Z</time>
      </trkpt>
      <trkpt lat="44.33986" lon="5.98524">
        <ele>863.8818359</ele>
        <time>2014-08-19T11:33:47Z</time>
      </trkpt>
      <trkpt lat="44.33984" lon="5.9853">
        <ele>863.8818359</ele>
        <time>2014-08-19T11:33:50Z</time>
      </trkpt>
      <trkpt lat="44.33983" lon="5.98532">
        <ele>863.8818359</ele>
        <time>2014-08-19T11:33:52Z</time>
      </trkpt>
      <trkpt lat="44.33983" lon="5.98566">
        <ele>865.8046875</ele>
        <time>2014-08-19T11:34:04Z</time>
      </trkpt>
      <trkpt lat="44.33982" lon="5.98572">
        <ele>865.8046875</ele>
        <time>2014-08-19T11:34:07Z</time>
      </trkpt>
      <trkpt lat="44.33988" lon="5.98585">
        <ele>867.246582</ele>
        <time>2014-08-19T11:34:16Z</time>
      </trkpt>
      <trkpt lat="44.33994" lon="5.98587">
        <ele>868.2077637</ele>
        <time>2014-08-19T11:34:20Z</time>
      </trkpt>
      <trkpt lat="44.34003" lon="5.98607">
        <ele>870.1303711</ele>
        <time>2014-08-19T11:34:34Z</time>
      </trkpt>
      <trkpt lat="44.34011" lon="5.98628">
        <ele>871.5722656</ele>
        <time>2014-08-19T11:34:45Z</time>
      </trkpt>
      <trkpt lat="44.34014" lon="5.98653">
        <ele>873.4951172</ele>
        <time>2014-08-19T11:34:59Z</time>
      </trkpt>
      <trkpt lat="44.34026" lon="5.98681">
        <ele>875.8981934</ele>
        <time>2014-08-19T11:35:17Z</time>
      </trkpt>
      <trkpt lat="44.3403" lon="5.98706">
        <ele>877.8210449</ele>
        <time>2014-08-19T11:35:27Z</time>
      </trkpt>
      <trkpt lat="44.34028" lon="5.98712">
        <ele>878.3017578</ele>
        <time>2014-08-19T11:35:30Z</time>
      </trkpt>
      <trkpt lat="44.34028" lon="5.98717">
        <ele>878.7824707</ele>
        <time>2014-08-19T11:35:39Z</time>
      </trkpt>
      <trkpt lat="44.34023" lon="5.98721">
        <ele>878.7824707</ele>
        <time>2014-08-19T11:36:12Z</time>
      </trkpt>
      <trkpt lat="44.34022" lon="5.98723">
        <ele>879.2629395</ele>
        <time>2014-08-19T11:36:17Z</time>
      </trkpt>
      <trkpt lat="44.34004" lon="5.98737">
        <ele>881.185791</ele>
        <time>2014-08-19T11:36:30Z</time>
      </trkpt>
      <trkpt lat="44.3399" lon="5.98743">
        <ele>881.185791</ele>
        <time>2014-08-19T11:36:39Z</time>
      </trkpt>
      <trkpt lat="44.33961" lon="5.98781">
        <ele>877.8210449</ele>
        <time>2014-08-19T11:36:52Z</time>
      </trkpt>
      <trkpt lat="44.33958" lon="5.98784">
        <ele>877.8210449</ele>
        <time>2014-08-19T11:36:53Z</time>
      </trkpt>
      <trkpt lat="44.33929" lon="5.98802">
        <ele>876.8598633</ele>
        <time>2014-08-19T11:37:04Z</time>
      </trkpt>
      <trkpt lat="44.33882" lon="5.98806">
        <ele>877.3405762</ele>
        <time>2014-08-19T11:37:18Z</time>
      </trkpt>
      <trkpt lat="44.33856" lon="5.98816">
        <ele>876.3791504</ele>
        <time>2014-08-19T11:37:28Z</time>
      </trkpt>
      <trkpt lat="44.33839" lon="5.98822">
        <ele>875.4174805</ele>
        <time>2014-08-19T11:37:39Z</time>
      </trkpt>
      <trkpt lat="44.33818" lon="5.98831">
        <ele>872.5336914</ele>
        <time>2014-08-19T11:37:50Z</time>
      </trkpt>
      <trkpt lat="44.33802" lon="5.98836">
        <ele>870.611084</ele>
        <time>2014-08-19T11:38:05Z</time>
      </trkpt>
      <trkpt lat="44.33792" lon="5.98837">
        <ele>869.6499023</ele>
        <time>2014-08-19T11:38:08Z</time>
      </trkpt>
      <trkpt lat="44.33781" lon="5.98839">
        <ele>867.7270508</ele>
        <time>2014-08-19T11:38:11Z</time>
      </trkpt>
      <trkpt lat="44.33755" lon="5.98848">
        <ele>865.8046875</ele>
        <time>2014-08-19T11:38:20Z</time>
      </trkpt>
      <trkpt lat="44.33716" lon="5.98863">
        <ele>864.3625488</ele>
        <time>2014-08-19T11:38:32Z</time>
      </trkpt>
      <trkpt lat="44.33682" lon="5.98869">
        <ele>860.9980469</ele>
        <time>2014-08-19T11:38:42Z</time>
      </trkpt>
      <trkpt lat="44.33671" lon="5.98882">
        <ele>859.5559082</ele>
        <time>2014-08-19T11:38:48Z</time>
      </trkpt>
      <trkpt lat="44.33666" lon="5.98892">
        <ele>857.6333008</ele>
        <time>2014-08-19T11:38:52Z</time>
      </trkpt>
      <trkpt lat="44.33664" lon="5.98901">
        <ele>856.1911621</ele>
        <time>2014-08-19T11:38:55Z</time>
      </trkpt>
      <trkpt lat="44.33667" lon="5.98907">
        <ele>857.1525879</ele>
        <time>2014-08-19T11:39:06Z</time>
      </trkpt>
      <trkpt lat="44.33668" lon="5.98914">
        <ele>856.671875</ele>
        <time>2014-08-19T11:39:36Z</time>
      </trkpt>
      <trkpt lat="44.33669" lon="5.98923">
        <ele>858.1140137</ele>
        <time>2014-08-19T11:39:40Z</time>
      </trkpt>
      <trkpt lat="44.3366" lon="5.98968">
        <ele>853.7880859</ele>
        <time>2014-08-19T11:39:54Z</time>
      </trkpt>
      <trkpt lat="44.3366" lon="5.98981">
        <ele>853.307373</ele>
        <time>2014-08-19T11:40:06Z</time>
      </trkpt>
      <trkpt lat="44.3366" lon="5.98982">
        <ele>852.3459473</ele>
        <time>2014-08-19T11:40:12Z</time>
      </trkpt>
      <trkpt lat="44.3365" lon="5.99005">
        <ele>851.3847656</ele>
        <time>2014-08-19T11:40:19Z</time>
      </trkpt>
      <trkpt lat="44.33643" lon="5.99022">
        <ele>848.9814453</ele>
        <time>2014-08-19T11:40:22Z</time>
      </trkpt>
      <trkpt lat="44.33633" lon="5.99051">
        <ele>845.1362305</ele>
        <time>2014-08-19T11:40:28Z</time>
      </trkpt>
      <trkpt lat="44.33631" lon="5.99054">
        <ele>845.1362305</ele>
        <time>2014-08-19T11:40:29Z</time>
      </trkpt>
      <trkpt lat="44.33625" lon="5.99068">
        <ele>842.7329102</ele>
        <time>2014-08-19T11:40:34Z</time>
      </trkpt>
      <trkpt lat="44.33616" lon="5.99094">
        <ele>842.7329102</ele>
        <time>2014-08-19T11:40:40Z</time>
      </trkpt>
      <trkpt lat="44.33614" lon="5.99106">
        <ele>841.7714844</ele>
        <time>2014-08-19T11:40:42Z</time>
      </trkpt>
      <trkpt lat="44.33613" lon="5.99117">
        <ele>840.3295898</ele>
        <time>2014-08-19T11:40:44Z</time>
      </trkpt>
      <trkpt lat="44.33601" lon="5.99143">
        <ele>837.4455566</ele>
        <time>2014-08-19T11:40:53Z</time>
      </trkpt>
      <trkpt lat="44.33595" lon="5.99159">
        <ele>835.5229492</ele>
        <time>2014-08-19T11:40:58Z</time>
      </trkpt>
      <trkpt lat="44.33584" lon="5.99177">
        <ele>832.6391602</ele>
        <time>2014-08-19T11:41:05Z</time>
      </trkpt>
      <trkpt lat="44.33577" lon="5.99184">
        <ele>830.7165527</ele>
        <time>2014-08-19T11:41:08Z</time>
      </trkpt>
      <trkpt lat="44.33555" lon="5.99213">
        <ele>826.3903809</ele>
        <time>2014-08-19T11:41:16Z</time>
      </trkpt>
      <trkpt lat="44.33552" lon="5.99218">
        <ele>826.3903809</ele>
        <time>2014-08-19T11:41:17Z</time>
      </trkpt>
      <trkpt lat="44.33541" lon="5.9924">
        <ele>824.4677734</ele>
        <time>2014-08-19T11:41:24Z</time>
      </trkpt>
      <trkpt lat="44.33541" lon="5.9924">
        <ele>825.4289551</ele>
        <time>2014-08-19T11:42:18Z</time>
      </trkpt>
      <trkpt lat="44.33541" lon="5.9924">
        <ele>826.3903809</ele>
        <time>2014-08-19T11:43:07Z</time>
      </trkpt>
      <trkpt lat="44.33535" lon="5.99259">
        <ele>824.9484863</ele>
        <time>2014-08-19T11:43:49Z</time>
      </trkpt>
      <trkpt lat="44.33543" lon="5.99318">
        <ele>825.4289551</ele>
        <time>2014-08-19T11:44:03Z</time>
      </trkpt>
      <trkpt lat="44.33571" lon="5.99331">
        <ele>826.8710938</ele>
        <time>2014-08-19T11:44:15Z</time>
      </trkpt>
      <trkpt lat="44.33578" lon="5.99332">
        <ele>825.909668</ele>
        <time>2014-08-19T11:44:20Z</time>
      </trkpt>
      <trkpt lat="44.33587" lon="5.9933">
        <ele>826.8710938</ele>
        <time>2014-08-19T11:44:26Z</time>
      </trkpt>
      <trkpt lat="44.33609" lon="5.9932">
        <ele>830.2358398</ele>
        <time>2014-08-19T11:44:41Z</time>
      </trkpt>
      <trkpt lat="44.33623" lon="5.99314">
        <ele>831.6777344</ele>
        <time>2014-08-19T11:44:52Z</time>
      </trkpt>
      <trkpt lat="44.33629" lon="5.99308">
        <ele>832.6391602</ele>
        <time>2014-08-19T11:44:57Z</time>
      </trkpt>
      <trkpt lat="44.33636" lon="5.99303">
        <ele>833.6003418</ele>
        <time>2014-08-19T11:45:02Z</time>
      </trkpt>
      <trkpt lat="44.33637" lon="5.99301">
        <ele>834.0810547</ele>
        <time>2014-08-19T11:45:18Z</time>
      </trkpt>
      <trkpt lat="44.33637" lon="5.99306">
        <ele>834.5617676</ele>
        <time>2014-08-19T11:45:24Z</time>
      </trkpt>
      <trkpt lat="44.3363" lon="5.99323">
        <ele>836.9648438</ele>
        <time>2014-08-19T11:45:37Z</time>
      </trkpt>
      <trkpt lat="44.33627" lon="5.99333">
        <ele>838.4069824</ele>
        <time>2014-08-19T11:45:43Z</time>
      </trkpt>
      <trkpt lat="44.33625" lon="5.99359">
        <ele>840.3295898</ele>
        <time>2014-08-19T11:45:58Z</time>
      </trkpt>
      <trkpt lat="44.33622" lon="5.9937">
        <ele>841.2907715</ele>
        <time>2014-08-19T11:46:05Z</time>
      </trkpt>
      <trkpt lat="44.33624" lon="5.99391">
        <ele>842.7329102</ele>
        <time>2014-08-19T11:46:19Z</time>
      </trkpt>
      <trkpt lat="44.33632" lon="5.99398">
        <ele>843.2133789</ele>
        <time>2014-08-19T11:46:25Z</time>
      </trkpt>
      <trkpt lat="44.33635" lon="5.99398">
        <ele>843.6940918</ele>
        <time>2014-08-19T11:46:27Z</time>
      </trkpt>
      <trkpt lat="44.33639" lon="5.99399">
        <ele>845.6169434</ele>
        <time>2014-08-19T11:46:42Z</time>
      </trkpt>
      <trkpt lat="44.33651" lon="5.99402">
        <ele>848.9814453</ele>
        <time>2014-08-19T11:46:56Z</time>
      </trkpt>
      <trkpt lat="44.33654" lon="5.99402">
        <ele>848.9814453</ele>
        <time>2014-08-19T11:46:57Z</time>
      </trkpt>
      <trkpt lat="44.33664" lon="5.9941">
        <ele>850.9040527</ele>
        <time>2014-08-19T11:47:11Z</time>
      </trkpt>
      <trkpt lat="44.33675" lon="5.99415">
        <ele>853.307373</ele>
        <time>2014-08-19T11:47:26Z</time>
      </trkpt>
      <trkpt lat="44.3368" lon="5.99414">
        <ele>854.2687988</ele>
        <time>2014-08-19T11:47:31Z</time>
      </trkpt>
      <trkpt lat="44.33687" lon="5.9942">
        <ele>854.7492676</ele>
        <time>2014-08-19T11:47:44Z</time>
      </trkpt>
      <trkpt lat="44.33688" lon="5.99421">
        <ele>854.7492676</ele>
        <time>2014-08-19T11:47:46Z</time>
      </trkpt>
      <trkpt lat="44.33694" lon="5.99424">
        <ele>855.2299805</ele>
        <time>2014-08-19T11:47:51Z</time>
      </trkpt>
      <trkpt lat="44.33696" lon="5.99425">
        <ele>854.2687988</ele>
        <time>2014-08-19T11:47:53Z</time>
      </trkpt>
      <trkpt lat="44.33706" lon="5.99427">
        <ele>855.2299805</ele>
        <time>2014-08-19T11:48:03Z</time>
      </trkpt>
      <trkpt lat="44.33708" lon="5.99425">
        <ele>856.671875</ele>
        <time>2014-08-19T11:48:05Z</time>
      </trkpt>
      <trkpt lat="44.33718" lon="5.99426">
        <ele>858.1140137</ele>
        <time>2014-08-19T11:48:20Z</time>
      </trkpt>
      <trkpt lat="44.3372" lon="5.99426">
        <ele>859.0751953</ele>
        <time>2014-08-19T11:48:22Z</time>
      </trkpt>
      <trkpt lat="44.33735" lon="5.99426">
        <ele>860.517334</ele>
        <time>2014-08-19T11:48:39Z</time>
      </trkpt>
      <trkpt lat="44.33743" lon="5.99428">
        <ele>861.4787598</ele>
        <time>2014-08-19T11:48:45Z</time>
      </trkpt>
      <trkpt lat="44.33748" lon="5.99431">
        <ele>861.9594727</ele>
        <time>2014-08-19T11:48:51Z</time>
      </trkpt>
      <trkpt lat="44.33763" lon="5.99443">
        <ele>863.8818359</ele>
        <time>2014-08-19T11:49:13Z</time>
      </trkpt>
      <trkpt lat="44.33765" lon="5.99449">
        <ele>863.8818359</ele>
        <time>2014-08-19T11:49:21Z</time>
      </trkpt>
      <trkpt lat="44.33768" lon="5.99462">
        <ele>863.8818359</ele>
        <time>2014-08-19T11:49:27Z</time>
      </trkpt>
      <trkpt lat="44.33778" lon="5.99494">
        <ele>863.8818359</ele>
        <time>2014-08-19T11:49:37Z</time>
      </trkpt>
      <trkpt lat="44.3378" lon="5.99503">
        <ele>863.8818359</ele>
        <time>2014-08-19T11:49:40Z</time>
      </trkpt>
      <trkpt lat="44.3378" lon="5.99537">
        <ele>864.3625488</ele>
        <time>2014-08-19T11:49:51Z</time>
      </trkpt>
      <trkpt lat="44.33774" lon="5.99575">
        <ele>863.4013672</ele>
        <time>2014-08-19T11:50:00Z</time>
      </trkpt>
      <trkpt lat="44.33759" lon="5.99615">
        <ele>863.4013672</ele>
        <time>2014-08-19T11:50:12Z</time>
      </trkpt>
      <trkpt lat="44.33752" lon="5.99687">
        <ele>861.4787598</ele>
        <time>2014-08-19T11:50:24Z</time>
      </trkpt>
      <trkpt lat="44.33737" lon="5.99737">
        <ele>860.0366211</ele>
        <time>2014-08-19T11:50:35Z</time>
      </trkpt>
      <trkpt lat="44.337" lon="5.99751">
        <ele>857.1525879</ele>
        <time>2014-08-19T11:50:48Z</time>
      </trkpt>
      <trkpt lat="44.33674" lon="5.99758">
        <ele>855.7106934</ele>
        <time>2014-08-19T11:50:57Z</time>
      </trkpt>
      <trkpt lat="44.33658" lon="5.99763">
        <ele>854.7492676</ele>
        <time>2014-08-19T11:51:01Z</time>
      </trkpt>
      <trkpt lat="44.33648" lon="5.99771">
        <ele>853.307373</ele>
        <time>2014-08-19T11:51:05Z</time>
      </trkpt>
      <trkpt lat="44.33618" lon="5.998">
        <ele>850.9040527</ele>
        <time>2014-08-19T11:51:16Z</time>
      </trkpt>
      <trkpt lat="44.33603" lon="5.99805">
        <ele>850.423584</ele>
        <time>2014-08-19T11:51:20Z</time>
      </trkpt>
      <trkpt lat="44.3358" lon="5.99805">
        <ele>854.2687988</ele>
        <time>2014-08-19T11:51:32Z</time>
      </trkpt>
      <trkpt lat="44.33564" lon="5.99823">
        <ele>854.7492676</ele>
        <time>2014-08-19T11:51:41Z</time>
      </trkpt>
      <trkpt lat="44.3355" lon="5.99842">
        <ele>855.7106934</ele>
        <time>2014-08-19T11:51:50Z</time>
      </trkpt>
      <trkpt lat="44.3353" lon="5.99871">
        <ele>856.671875</ele>
        <time>2014-08-19T11:52:05Z</time>
      </trkpt>
      <trkpt lat="44.33517" lon="5.99881">
        <ele>856.671875</ele>
        <time>2014-08-19T11:52:12Z</time>
      </trkpt>
      <trkpt lat="44.33509" lon="5.99874">
        <ele>857.1525879</ele>
        <time>2014-08-19T11:52:17Z</time>
      </trkpt>
      <trkpt lat="44.33501" lon="5.99877">
        <ele>858.5944824</ele>
        <time>2014-08-19T11:52:23Z</time>
      </trkpt>
      <trkpt lat="44.33499" lon="5.9988">
        <ele>859.5559082</ele>
        <time>2014-08-19T11:52:25Z</time>
      </trkpt>
      <trkpt lat="44.33484" lon="5.9989">
        <ele>860.9980469</ele>
        <time>2014-08-19T11:52:36Z</time>
      </trkpt>
      <trkpt lat="44.33472" lon="5.99895">
        <ele>861.9594727</ele>
        <time>2014-08-19T11:52:49Z</time>
      </trkpt>
      <trkpt lat="44.33471" lon="5.99896">
        <ele>862.4399414</ele>
        <time>2014-08-19T11:52:53Z</time>
      </trkpt>
      <trkpt lat="44.33468" lon="5.99899">
        <ele>865.3239746</ele>
        <time>2014-08-19T11:53:04Z</time>
      </trkpt>
      <trkpt lat="44.33467" lon="5.99899">
        <ele>864.8432617</ele>
        <time>2014-08-19T11:53:06Z</time>
      </trkpt>
      <trkpt lat="44.33461" lon="5.99906">
        <ele>864.8432617</ele>
        <time>2014-08-19T11:53:14Z</time>
      </trkpt>
      <trkpt lat="44.33451" lon="5.99913">
        <ele>865.8046875</ele>
        <time>2014-08-19T11:53:23Z</time>
      </trkpt>
      <trkpt lat="44.33446" lon="5.99923">
        <ele>866.7658691</ele>
        <time>2014-08-19T11:53:32Z</time>
      </trkpt>
      <trkpt lat="44.33446" lon="5.99924">
        <ele>866.7658691</ele>
        <time>2014-08-19T11:53:33Z</time>
      </trkpt>
      <trkpt lat="44.33436" lon="5.9994">
        <ele>866.7658691</ele>
        <time>2014-08-19T11:53:48Z</time>
      </trkpt>
      <trkpt lat="44.33428" lon="5.99949">
        <ele>866.2851563</ele>
        <time>2014-08-19T11:53:58Z</time>
      </trkpt>
      <trkpt lat="44.33414" lon="5.9997">
        <ele>867.246582</ele>
        <time>2014-08-19T11:54:09Z</time>
      </trkpt>
      <trkpt lat="44.33405" lon="5.99974">
        <ele>865.8046875</ele>
        <time>2014-08-19T11:54:13Z</time>
      </trkpt>
      <trkpt lat="44.33376" lon="5.99982">
        <ele>866.7658691</ele>
        <time>2014-08-19T11:54:26Z</time>
      </trkpt>
      <trkpt lat="44.33368" lon="5.99982">
        <ele>867.246582</ele>
        <time>2014-08-19T11:54:30Z</time>
      </trkpt>
      <trkpt lat="44.33352" lon="5.99983">
        <ele>868.2077637</ele>
        <time>2014-08-19T11:54:38Z</time>
      </trkpt>
      <trkpt lat="44.33337" lon="5.99994">
        <ele>865.3239746</ele>
        <time>2014-08-19T11:54:48Z</time>
      </trkpt>
      <trkpt lat="44.33336" lon="5.99997">
        <ele>865.3239746</ele>
        <time>2014-08-19T11:54:49Z</time>
      </trkpt>
      <trkpt lat="44.33316" lon="6.00028">
        <ele>863.8818359</ele>
        <time>2014-08-19T11:55:00Z</time>
      </trkpt>
      <trkpt lat="44.33313" lon="6.00035">
        <ele>862.9206543</ele>
        <time>2014-08-19T11:55:03Z</time>
      </trkpt>
      <trkpt lat="44.33305" lon="6.00051">
        <ele>860.9980469</ele>
        <time>2014-08-19T11:55:10Z</time>
      </trkpt>
      <trkpt lat="44.33298" lon="6.00057">
        <ele>860.0366211</ele>
        <time>2014-08-19T11:55:14Z</time>
      </trkpt>
      <trkpt lat="44.33294" lon="6.00059">
        <ele>859.0751953</ele>
        <time>2014-08-19T11:55:16Z</time>
      </trkpt>
      <trkpt lat="44.33288" lon="6.00063">
        <ele>858.1140137</ele>
        <time>2014-08-19T11:55:20Z</time>
      </trkpt>
      <trkpt lat="44.33278" lon="6.00072">
        <ele>857.1525879</ele>
        <time>2014-08-19T11:55:24Z</time>
      </trkpt>
      <trkpt lat="44.3326" lon="6.0012">
        <ele>854.7492676</ele>
        <time>2014-08-19T11:55:36Z</time>
      </trkpt>
      <trkpt lat="44.33232" lon="6.00162">
        <ele>854.7492676</ele>
        <time>2014-08-19T11:55:48Z</time>
      </trkpt>
      <trkpt lat="44.33211" lon="6.00178">
        <ele>855.7106934</ele>
        <time>2014-08-19T11:56:00Z</time>
      </trkpt>
      <trkpt lat="44.33202" lon="6.00196">
        <ele>855.2299805</ele>
        <time>2014-08-19T11:56:06Z</time>
      </trkpt>
      <trkpt lat="44.33192" lon="6.00219">
        <ele>856.1911621</ele>
        <time>2014-08-19T11:56:14Z</time>
      </trkpt>
      <trkpt lat="44.33187" lon="6.0022">
        <ele>856.671875</ele>
        <time>2014-08-19T11:56:24Z</time>
      </trkpt>
      <trkpt lat="44.33186" lon="6.00221">
        <ele>856.671875</ele>
        <time>2014-08-19T11:56:31Z</time>
      </trkpt>
      <trkpt lat="44.33178" lon="6.00234">
        <ele>857.1525879</ele>
        <time>2014-08-19T11:56:45Z</time>
      </trkpt>
      <trkpt lat="44.33178" lon="6.00236">
        <ele>857.1525879</ele>
        <time>2014-08-19T11:56:46Z</time>
      </trkpt>
      <trkpt lat="44.33174" lon="6.00243">
        <ele>858.1140137</ele>
        <time>2014-08-19T11:56:54Z</time>
      </trkpt>
      <trkpt lat="44.33161" lon="6.00261">
        <ele>859.0751953</ele>
        <time>2014-08-19T11:57:10Z</time>
      </trkpt>
      <trkpt lat="44.3315" lon="6.0028">
        <ele>860.0366211</ele>
        <time>2014-08-19T11:57:26Z</time>
      </trkpt>
      <trkpt lat="44.33141" lon="6.00294">
        <ele>860.517334</ele>
        <time>2014-08-19T11:57:36Z</time>
      </trkpt>
      <trkpt lat="44.33131" lon="6.00304">
        <ele>860.9980469</ele>
        <time>2014-08-19T11:57:47Z</time>
      </trkpt>
      <trkpt lat="44.33117" lon="6.00316">
        <ele>860.9980469</ele>
        <time>2014-08-19T11:58:06Z</time>
      </trkpt>
      <trkpt lat="44.33114" lon="6.00316">
        <ele>860.517334</ele>
        <time>2014-08-19T11:58:08Z</time>
      </trkpt>
      <trkpt lat="44.33111" lon="6.00318">
        <ele>860.9980469</ele>
        <time>2014-08-19T11:58:10Z</time>
      </trkpt>
      <trkpt lat="44.331" lon="6.00321">
        <ele>860.9980469</ele>
        <time>2014-08-19T11:58:20Z</time>
      </trkpt>
      <trkpt lat="44.33072" lon="6.00325">
        <ele>860.9980469</ele>
        <time>2014-08-19T11:58:31Z</time>
      </trkpt>
      <trkpt lat="44.33058" lon="6.00329">
        <ele>859.5559082</ele>
        <time>2014-08-19T11:58:43Z</time>
      </trkpt>
      <trkpt lat="44.33056" lon="6.00331">
        <ele>860.0366211</ele>
        <time>2014-08-19T11:59:07Z</time>
      </trkpt>
      <trkpt lat="44.33054" lon="6.00328">
        <ele>857.6333008</ele>
        <time>2014-08-19T11:59:40Z</time>
      </trkpt>
      <trkpt lat="44.33051" lon="6.00326">
        <ele>859.0751953</ele>
        <time>2014-08-19T11:59:52Z</time>
      </trkpt>
      <trkpt lat="44.33044" lon="6.0032">
        <ele>856.671875</ele>
        <time>2014-08-19T11:59:57Z</time>
      </trkpt>
      <trkpt lat="44.33041" lon="6.00317">
        <ele>855.7106934</ele>
        <time>2014-08-19T11:59:59Z</time>
      </trkpt>
      <trkpt lat="44.33038" lon="6.00316">
        <ele>855.7106934</ele>
        <time>2014-08-19T12:00:02Z</time>
      </trkpt>
      <trkpt lat="44.3303" lon="6.00309">
        <ele>854.2687988</ele>
        <time>2014-08-19T12:00:07Z</time>
      </trkpt>
      <trkpt lat="44.33026" lon="6.00303">
        <ele>852.8266602</ele>
        <time>2014-08-19T12:00:10Z</time>
      </trkpt>
      <trkpt lat="44.33017" lon="6.00294">
        <ele>850.423584</ele>
        <time>2014-08-19T12:00:15Z</time>
      </trkpt>
      <trkpt lat="44.33014" lon="6.00289">
        <ele>849.9428711</ele>
        <time>2014-08-19T12:00:19Z</time>
      </trkpt>
      <trkpt lat="44.33012" lon="6.00286">
        <ele>847.5395508</ele>
        <time>2014-08-19T12:00:21Z</time>
      </trkpt>
      <trkpt lat="44.32995" lon="6.00273">
        <ele>843.6940918</ele>
        <time>2014-08-19T12:00:28Z</time>
      </trkpt>
      <trkpt lat="44.32989" lon="6.0027">
        <ele>843.6940918</ele>
        <time>2014-08-19T12:00:30Z</time>
      </trkpt>
      <trkpt lat="44.32977" lon="6.00265">
        <ele>841.7714844</ele>
        <time>2014-08-19T12:00:34Z</time>
      </trkpt>
      <trkpt lat="44.32968" lon="6.00262">
        <ele>839.848877</ele>
        <time>2014-08-19T12:00:37Z</time>
      </trkpt>
      <trkpt lat="44.32953" lon="6.00257">
        <ele>837.9262695</ele>
        <time>2014-08-19T12:00:43Z</time>
      </trkpt>
      <trkpt lat="44.32925" lon="6.00241">
        <ele>834.5617676</ele>
        <time>2014-08-19T12:00:53Z</time>
      </trkpt>
      <trkpt lat="44.32923" lon="6.0024">
        <ele>834.5617676</ele>
        <time>2014-08-19T12:00:54Z</time>
      </trkpt>
      <trkpt lat="44.32915" lon="6.0024">
        <ele>832.6391602</ele>
        <time>2014-08-19T12:00:58Z</time>
      </trkpt>
      <trkpt lat="44.32894" lon="6.00247">
        <ele>829.755127</ele>
        <time>2014-08-19T12:01:07Z</time>
      </trkpt>
      <trkpt lat="44.32878" lon="6.00252">
        <ele>827.8322754</ele>
        <time>2014-08-19T12:01:13Z</time>
      </trkpt>
      <trkpt lat="44.32852" lon="6.00252">
        <ele>825.909668</ele>
        <time>2014-08-19T12:01:25Z</time>
      </trkpt>
      <trkpt lat="44.32846" lon="6.00254">
        <ele>824.9484863</ele>
        <time>2014-08-19T12:01:28Z</time>
      </trkpt>
      <trkpt lat="44.32817" lon="6.00279">
        <ele>822.545166</ele>
        <time>2014-08-19T12:01:41Z</time>
      </trkpt>
      <trkpt lat="44.32807" lon="6.00286">
        <ele>821.5837402</ele>
        <time>2014-08-19T12:01:53Z</time>
      </trkpt>
      <trkpt lat="44.32806" lon="6.00287">
        <ele>821.1032715</ele>
        <time>2014-08-19T12:02:04Z</time>
      </trkpt>
      <trkpt lat="44.328" lon="6.00296">
        <ele>820.1418457</ele>
        <time>2014-08-19T12:02:16Z</time>
      </trkpt>
      <trkpt lat="44.32797" lon="6.00304">
        <ele>817.7385254</ele>
        <time>2014-08-19T12:02:28Z</time>
      </trkpt>
      <trkpt lat="44.32792" lon="6.00328">
        <ele>814.3740234</ele>
        <time>2014-08-19T12:02:49Z</time>
      </trkpt>
      <trkpt lat="44.3279" lon="6.00343">
        <ele>811.4899902</ele>
        <time>2014-08-19T12:03:06Z</time>
      </trkpt>
      <trkpt lat="44.32786" lon="6.00366">
        <ele>808.605957</ele>
        <time>2014-08-19T12:03:23Z</time>
      </trkpt>
      <trkpt lat="44.32783" lon="6.00378">
        <ele>806.6833496</ele>
        <time>2014-08-19T12:03:37Z</time>
      </trkpt>
      <trkpt lat="44.32784" lon="6.00382">
        <ele>805.722168</ele>
        <time>2014-08-19T12:03:40Z</time>
      </trkpt>
      <trkpt lat="44.32785" lon="6.00387">
        <ele>804.7607422</ele>
        <time>2014-08-19T12:03:44Z</time>
      </trkpt>
      <trkpt lat="44.32779" lon="6.00408">
        <ele>802.3574219</ele>
        <time>2014-08-19T12:04:01Z</time>
      </trkpt>
      <trkpt lat="44.32772" lon="6.0042">
        <ele>800.4350586</ele>
        <time>2014-08-19T12:04:16Z</time>
      </trkpt>
      <trkpt lat="44.32768" lon="6.00435">
        <ele>798.0317383</ele>
        <time>2014-08-19T12:04:31Z</time>
      </trkpt>
      <trkpt lat="44.32767" lon="6.00451">
        <ele>794.666748</ele>
        <time>2014-08-19T12:04:47Z</time>
      </trkpt>
      <trkpt lat="44.32764" lon="6.00465">
        <ele>793.2248535</ele>
        <time>2014-08-19T12:05:06Z</time>
      </trkpt>
      <trkpt lat="44.32763" lon="6.00469">
        <ele>792.2636719</ele>
        <time>2014-08-19T12:05:10Z</time>
      </trkpt>
      <trkpt lat="44.32761" lon="6.0048">
        <ele>791.3022461</ele>
        <time>2014-08-19T12:05:17Z</time>
      </trkpt>
      <trkpt lat="44.32754" lon="6.005">
        <ele>787.9377441</ele>
        <time>2014-08-19T12:05:33Z</time>
      </trkpt>
      <trkpt lat="44.32744" lon="6.00515">
        <ele>785.0539551</ele>
        <time>2014-08-19T12:05:47Z</time>
      </trkpt>
      <trkpt lat="44.32732" lon="6.00525">
        <ele>782.6506348</ele>
        <time>2014-08-19T12:06:00Z</time>
      </trkpt>
      <trkpt lat="44.32716" lon="6.00538">
        <ele>780.2473145</ele>
        <time>2014-08-19T12:06:16Z</time>
      </trkpt>
      <trkpt lat="44.32715" lon="6.00544">
        <ele>779.7663574</ele>
        <time>2014-08-19T12:06:20Z</time>
      </trkpt>
      <trkpt lat="44.32707" lon="6.00549">
        <ele>778.8051758</ele>
        <time>2014-08-19T12:06:36Z</time>
      </trkpt>
      <trkpt lat="44.32708" lon="6.00549">
        <ele>778.8051758</ele>
        <time>2014-08-19T12:06:51Z</time>
      </trkpt>
      <trkpt lat="44.32708" lon="6.00551">
        <ele>778.8051758</ele>
        <time>2014-08-19T12:07:04Z</time>
      </trkpt>
      <trkpt lat="44.32696" lon="6.00549">
        <ele>778.3244629</ele>
        <time>2014-08-19T12:07:19Z</time>
      </trkpt>
      <trkpt lat="44.32692" lon="6.0055">
        <ele>778.3244629</ele>
        <time>2014-08-19T12:07:42Z</time>
      </trkpt>
      <trkpt lat="44.32692" lon="6.0055">
        <ele>777.84375</ele>
        <time>2014-08-19T12:08:51Z</time>
      </trkpt>
      <trkpt lat="44.32686" lon="6.00562">
        <ele>776.8825684</ele>
        <time>2014-08-19T12:08:55Z</time>
      </trkpt>
      <trkpt lat="44.32691" lon="6.00586">
        <ele>774.479248</ele>
        <time>2014-08-19T12:08:59Z</time>
      </trkpt>
      <trkpt lat="44.32686" lon="6.00613">
        <ele>772.5566406</ele>
        <time>2014-08-19T12:09:03Z</time>
      </trkpt>
      <trkpt lat="44.32684" lon="6.00622">
        <ele>770.1533203</ele>
        <time>2014-08-19T12:09:05Z</time>
      </trkpt>
      <trkpt lat="44.32686" lon="6.0063">
        <ele>769.6728516</ele>
        <time>2014-08-19T12:09:17Z</time>
      </trkpt>
      <trkpt lat="44.32691" lon="6.00637">
        <ele>769.6728516</ele>
        <time>2014-08-19T12:09:21Z</time>
      </trkpt>
      <trkpt lat="44.32694" lon="6.00641">
        <ele>769.6728516</ele>
        <time>2014-08-19T12:09:23Z</time>
      </trkpt>
      <trkpt lat="44.32704" lon="6.00649">
        <ele>770.1533203</ele>
        <time>2014-08-19T12:09:28Z</time>
      </trkpt>
      <trkpt lat="44.32734" lon="6.00679">
        <ele>770.1533203</ele>
        <time>2014-08-19T12:09:41Z</time>
      </trkpt>
      <trkpt lat="44.32757" lon="6.00709">
        <ele>771.1147461</ele>
        <time>2014-08-19T12:09:53Z</time>
      </trkpt>
      <trkpt lat="44.32785" lon="6.00756">
        <ele>771.5952148</ele>
        <time>2014-08-19T12:10:07Z</time>
      </trkpt>
      <trkpt lat="44.32814" lon="6.00793">
        <ele>772.5566406</ele>
        <time>2014-08-19T12:10:21Z</time>
      </trkpt>
      <trkpt lat="44.32854" lon="6.00843">
        <ele>773.5180664</ele>
        <time>2014-08-19T12:10:39Z</time>
      </trkpt>
      <trkpt lat="44.32897" lon="6.00871">
        <ele>773.0373535</ele>
        <time>2014-08-19T12:10:53Z</time>
      </trkpt>
      <trkpt lat="44.329" lon="6.00874">
        <ele>773.0373535</ele>
        <time>2014-08-19T12:10:54Z</time>
      </trkpt>
      <trkpt lat="44.32931" lon="6.00904">
        <ele>773.9985352</ele>
        <time>2014-08-19T12:11:04Z</time>
      </trkpt>
      <trkpt lat="44.3298" lon="6.00921">
        <ele>774.479248</ele>
        <time>2014-08-19T12:11:19Z</time>
      </trkpt>
      <trkpt lat="44.32983" lon="6.00923">
        <ele>774.479248</ele>
        <time>2014-08-19T12:11:20Z</time>
      </trkpt>
      <trkpt lat="44.32975" lon="6.00961">
        <ele>774.479248</ele>
        <time>2014-08-19T12:11:29Z</time>
      </trkpt>
      <trkpt lat="44.32953" lon="6.00959">
        <ele>775.4404297</ele>
        <time>2014-08-19T12:11:35Z</time>
      </trkpt>
      <trkpt lat="44.32926" lon="6.00979">
        <ele>777.84375</ele>
        <time>2014-08-19T12:11:45Z</time>
      </trkpt>
      <trkpt lat="44.32922" lon="6.00991">
        <ele>778.3244629</ele>
        <time>2014-08-19T12:11:48Z</time>
      </trkpt>
      <trkpt lat="44.32923" lon="6.01004">
        <ele>777.84375</ele>
        <time>2014-08-19T12:11:52Z</time>
      </trkpt>
      <trkpt lat="44.32927" lon="6.01016">
        <ele>778.8051758</ele>
        <time>2014-08-19T12:11:55Z</time>
      </trkpt>
      <trkpt lat="44.32958" lon="6.01057">
        <ele>780.7280273</ele>
        <time>2014-08-19T12:12:10Z</time>
      </trkpt>
      <trkpt lat="44.33001" lon="6.01114">
        <ele>783.6118164</ele>
        <time>2014-08-19T12:12:31Z</time>
      </trkpt>
      <trkpt lat="44.33008" lon="6.01136">
        <ele>784.0925293</ele>
        <time>2014-08-19T12:12:38Z</time>
      </trkpt>
      <trkpt lat="44.33019" lon="6.01164">
        <ele>786.0151367</ele>
        <time>2014-08-19T12:12:47Z</time>
      </trkpt>
      <trkpt lat="44.33023" lon="6.01177">
        <ele>785.0539551</ele>
        <time>2014-08-19T12:12:59Z</time>
      </trkpt>
      <trkpt lat="44.33029" lon="6.01192">
        <ele>785.5344238</ele>
        <time>2014-08-19T12:13:18Z</time>
      </trkpt>
      <trkpt lat="44.3305" lon="6.01249">
        <ele>787.4570313</ele>
        <time>2014-08-19T12:13:34Z</time>
      </trkpt>
      <trkpt lat="44.33082" lon="6.01296">
        <ele>789.3796387</ele>
        <time>2014-08-19T12:13:52Z</time>
      </trkpt>
      <trkpt lat="44.33114" lon="6.01335">
        <ele>789.8603516</ele>
        <time>2014-08-19T12:14:08Z</time>
      </trkpt>
      <trkpt lat="44.33154" lon="6.01388">
        <ele>791.782959</ele>
        <time>2014-08-19T12:14:29Z</time>
      </trkpt>
      <trkpt lat="44.33186" lon="6.0143">
        <ele>794.1862793</ele>
        <time>2014-08-19T12:14:46Z</time>
      </trkpt>
      <trkpt lat="44.33197" lon="6.01448">
        <ele>795.1474609</ele>
        <time>2014-08-19T12:14:51Z</time>
      </trkpt>
      <trkpt lat="44.33233" lon="6.01496">
        <ele>797.0703125</ele>
        <time>2014-08-19T12:15:08Z</time>
      </trkpt>
      <trkpt lat="44.33262" lon="6.01541">
        <ele>798.9929199</ele>
        <time>2014-08-19T12:15:26Z</time>
      </trkpt>
      <trkpt lat="44.33269" lon="6.01549">
        <ele>800.4350586</ele>
        <time>2014-08-19T12:15:30Z</time>
      </trkpt>
      <trkpt lat="44.33292" lon="6.01591">
        <ele>801.8769531</ele>
        <time>2014-08-19T12:15:47Z</time>
      </trkpt>
      <trkpt lat="44.33294" lon="6.01594">
        <ele>801.8769531</ele>
        <time>2014-08-19T12:15:48Z</time>
      </trkpt>
      <trkpt lat="44.33328" lon="6.01647">
        <ele>800.9155273</ele>
        <time>2014-08-19T12:16:02Z</time>
      </trkpt>
      <trkpt lat="44.33334" lon="6.0172">
        <ele>798.0317383</ele>
        <time>2014-08-19T12:16:12Z</time>
      </trkpt>
      <trkpt lat="44.33335" lon="6.01738">
        <ele>798.0317383</ele>
        <time>2014-08-19T12:16:14Z</time>
      </trkpt>
      <trkpt lat="44.33365" lon="6.01791">
        <ele>794.1862793</ele>
        <time>2014-08-19T12:16:21Z</time>
      </trkpt>
      <trkpt lat="44.3338" lon="6.01799">
        <ele>792.7443848</ele>
        <time>2014-08-19T12:16:23Z</time>
      </trkpt>
      <trkpt lat="44.33388" lon="6.01802">
        <ele>792.2636719</ele>
        <time>2014-08-19T12:16:24Z</time>
      </trkpt>
      <trkpt lat="44.33411" lon="6.01807">
        <ele>790.3410645</ele>
        <time>2014-08-19T12:16:27Z</time>
      </trkpt>
      <trkpt lat="44.33428" lon="6.01803">
        <ele>787.9377441</ele>
        <time>2014-08-19T12:16:30Z</time>
      </trkpt>
      <trkpt lat="44.33432" lon="6.01799">
        <ele>786.9763184</ele>
        <time>2014-08-19T12:16:31Z</time>
      </trkpt>
      <trkpt lat="44.33443" lon="6.01786">
        <ele>786.9763184</ele>
        <time>2014-08-19T12:16:34Z</time>
      </trkpt>
      <trkpt lat="44.33456" lon="6.01764">
        <ele>785.5344238</ele>
        <time>2014-08-19T12:16:37Z</time>
      </trkpt>
      <trkpt lat="44.33479" lon="6.01736">
        <ele>784.0925293</ele>
        <time>2014-08-19T12:16:41Z</time>
      </trkpt>
      <trkpt lat="44.33485" lon="6.01729">
        <ele>782.1699219</ele>
        <time>2014-08-19T12:16:42Z</time>
      </trkpt>
      <trkpt lat="44.33495" lon="6.01723">
        <ele>780.7280273</ele>
        <time>2014-08-19T12:16:44Z</time>
      </trkpt>
      <trkpt lat="44.33504" lon="6.01737">
        <ele>778.3244629</ele>
        <time>2014-08-19T12:16:48Z</time>
      </trkpt>
      <trkpt lat="44.33492" lon="6.01758">
        <ele>775.9211426</ele>
        <time>2014-08-19T12:16:51Z</time>
      </trkpt>
      <trkpt lat="44.33482" lon="6.01774">
        <ele>775.4404297</ele>
        <time>2014-08-19T12:16:53Z</time>
      </trkpt>
      <trkpt lat="44.33482" lon="6.01826">
        <ele>772.0759277</ele>
        <time>2014-08-19T12:16:58Z</time>
      </trkpt>
      <trkpt lat="44.33484" lon="6.01838">
        <ele>771.1147461</ele>
        <time>2014-08-19T12:16:59Z</time>
      </trkpt>
      <trkpt lat="44.33485" lon="6.01879">
        <ele>769.1921387</ele>
        <time>2014-08-19T12:17:02Z</time>
      </trkpt>
      <trkpt lat="44.33485" lon="6.01906">
        <ele>767.75</ele>
        <time>2014-08-19T12:17:04Z</time>
      </trkpt>
      <trkpt lat="44.33487" lon="6.0192">
        <ele>766.3081055</ele>
        <time>2014-08-19T12:17:05Z</time>
      </trkpt>
      <trkpt lat="44.33492" lon="6.01947">
        <ele>763.904541</ele>
        <time>2014-08-19T12:17:07Z</time>
      </trkpt>
      <trkpt lat="44.33498" lon="6.01969">
        <ele>762.4626465</ele>
        <time>2014-08-19T12:17:09Z</time>
      </trkpt>
      <trkpt lat="44.33501" lon="6.01989">
        <ele>760.0593262</ele>
        <time>2014-08-19T12:17:11Z</time>
      </trkpt>
      <trkpt lat="44.33506" lon="6.02">
        <ele>758.1369629</ele>
        <time>2014-08-19T12:17:12Z</time>
      </trkpt>
      <trkpt lat="44.33514" lon="6.02013">
        <ele>756.6948242</ele>
        <time>2014-08-19T12:17:14Z</time>
      </trkpt>
      <trkpt lat="44.33543" lon="6.0204">
        <ele>755.2529297</ele>
        <time>2014-08-19T12:17:18Z</time>
      </trkpt>
      <trkpt lat="44.33559" lon="6.02052">
        <ele>752.8496094</ele>
        <time>2014-08-19T12:17:20Z</time>
      </trkpt>
      <trkpt lat="44.33586" lon="6.02094">
        <ele>750.4465332</ele>
        <time>2014-08-19T12:17:24Z</time>
      </trkpt>
      <trkpt lat="44.33599" lon="6.0213">
        <ele>746.1203613</ele>
        <time>2014-08-19T12:17:27Z</time>
      </trkpt>
      <trkpt lat="44.33601" lon="6.02142">
        <ele>746.1203613</ele>
        <time>2014-08-19T12:17:28Z</time>
      </trkpt>
      <trkpt lat="44.33606" lon="6.02164">
        <ele>744.1977539</ele>
        <time>2014-08-19T12:17:30Z</time>
      </trkpt>
      <trkpt lat="44.33616" lon="6.02183">
        <ele>742.7558594</ele>
        <time>2014-08-19T12:17:32Z</time>
      </trkpt>
      <trkpt lat="44.33627" lon="6.02196">
        <ele>738.9106445</ele>
        <time>2014-08-19T12:17:34Z</time>
      </trkpt>
      <trkpt lat="44.33669" lon="6.02183">
        <ele>737.4685059</ele>
        <time>2014-08-19T12:17:39Z</time>
      </trkpt>
      <trkpt lat="44.33687" lon="6.02179">
        <ele>734.1040039</ele>
        <time>2014-08-19T12:17:41Z</time>
      </trkpt>
      <trkpt lat="44.33695" lon="6.02179">
        <ele>734.1040039</ele>
        <time>2014-08-19T12:17:42Z</time>
      </trkpt>
      <trkpt lat="44.33708" lon="6.02184">
        <ele>732.6621094</ele>
        <time>2014-08-19T12:17:44Z</time>
      </trkpt>
      <trkpt lat="44.33709" lon="6.02206">
        <ele>730.7392578</ele>
        <time>2014-08-19T12:17:47Z</time>
      </trkpt>
      <trkpt lat="44.33727" lon="6.02225">
        <ele>726.894043</ele>
        <time>2014-08-19T12:17:54Z</time>
      </trkpt>
      <trkpt lat="44.33735" lon="6.02213">
        <ele>726.894043</ele>
        <time>2014-08-19T12:17:56Z</time>
      </trkpt>
      <trkpt lat="44.33763" lon="6.02218">
        <ele>724.4907227</ele>
        <time>2014-08-19T12:18:01Z</time>
      </trkpt>
      <trkpt lat="44.33776" lon="6.02242">
        <ele>723.0488281</ele>
        <time>2014-08-19T12:18:04Z</time>
      </trkpt>
      <trkpt lat="44.33788" lon="6.02272">
        <ele>720.6455078</ele>
        <time>2014-08-19T12:18:07Z</time>
      </trkpt>
      <trkpt lat="44.33791" lon="6.02293">
        <ele>718.2421875</ele>
        <time>2014-08-19T12:18:09Z</time>
      </trkpt>
      <trkpt lat="44.33786" lon="6.02308">
        <ele>716.800293</ele>
        <time>2014-08-19T12:18:11Z</time>
      </trkpt>
      <trkpt lat="44.33778" lon="6.02325">
        <ele>716.800293</ele>
        <time>2014-08-19T12:18:13Z</time>
      </trkpt>
      <trkpt lat="44.33769" lon="6.02367">
        <ele>715.8388672</ele>
        <time>2014-08-19T12:18:17Z</time>
      </trkpt>
      <trkpt lat="44.33739" lon="6.02404">
        <ele>712.954834</ele>
        <time>2014-08-19T12:18:22Z</time>
      </trkpt>
      <trkpt lat="44.33724" lon="6.02467">
        <ele>711.5129395</ele>
        <time>2014-08-19T12:18:28Z</time>
      </trkpt>
      <trkpt lat="44.33719" lon="6.025">
        <ele>710.5515137</ele>
        <time>2014-08-19T12:18:31Z</time>
      </trkpt>
      <trkpt lat="44.3374" lon="6.02566">
        <ele>709.590332</ele>
        <time>2014-08-19T12:18:38Z</time>
      </trkpt>
      <trkpt lat="44.33751" lon="6.02578">
        <ele>709.1096191</ele>
        <time>2014-08-19T12:18:40Z</time>
      </trkpt>
      <trkpt lat="44.3378" lon="6.02624">
        <ele>709.1096191</ele>
        <time>2014-08-19T12:18:46Z</time>
      </trkpt>
      <trkpt lat="44.33805" lon="6.02646">
        <ele>707.1870117</ele>
        <time>2014-08-19T12:18:50Z</time>
      </trkpt>
      <trkpt lat="44.33855" lon="6.02659">
        <ele>707.1870117</ele>
        <time>2014-08-19T12:18:57Z</time>
      </trkpt>
      <trkpt lat="44.33886" lon="6.02672">
        <ele>709.1096191</ele>
        <time>2014-08-19T12:19:03Z</time>
      </trkpt>
      <trkpt lat="44.33904" lon="6.02678">
        <ele>709.1096191</ele>
        <time>2014-08-19T12:19:07Z</time>
      </trkpt>
      <trkpt lat="44.33931" lon="6.02676">
        <ele>708.1484375</ele>
        <time>2014-08-19T12:19:13Z</time>
      </trkpt>
      <trkpt lat="44.33947" lon="6.02673">
        <ele>709.590332</ele>
        <time>2014-08-19T12:19:16Z</time>
      </trkpt>
      <trkpt lat="44.33976" lon="6.02665">
        <ele>707.1870117</ele>
        <time>2014-08-19T12:19:21Z</time>
      </trkpt>
      <trkpt lat="44.34017" lon="6.02672">
        <ele>705.2644043</ele>
        <time>2014-08-19T12:19:28Z</time>
      </trkpt>
      <trkpt lat="44.34103" lon="6.02723">
        <ele>703.3417969</ele>
        <time>2014-08-19T12:19:41Z</time>
      </trkpt>
      <trkpt lat="44.34107" lon="6.02726">
        <ele>703.3417969</ele>
        <time>2014-08-19T12:19:42Z</time>
      </trkpt>
      <trkpt lat="44.3414" lon="6.02755">
        <ele>701.4191895</ele>
        <time>2014-08-19T12:19:54Z</time>
      </trkpt>
      <trkpt lat="44.34191" lon="6.02742">
        <ele>703.8225098</ele>
        <time>2014-08-19T12:20:09Z</time>
      </trkpt>
      <trkpt lat="44.34216" lon="6.02739">
        <ele>704.7836914</ele>
        <time>2014-08-19T12:20:16Z</time>
      </trkpt>
      <trkpt lat="44.34234" lon="6.02736">
        <ele>704.7836914</ele>
        <time>2014-08-19T12:20:21Z</time>
      </trkpt>
      <trkpt lat="44.34263" lon="6.02739">
        <ele>704.7836914</ele>
        <time>2014-08-19T12:20:28Z</time>
      </trkpt>
      <trkpt lat="44.34312" lon="6.02789">
        <ele>705.2644043</ele>
        <time>2014-08-19T12:20:42Z</time>
      </trkpt>
      <trkpt lat="44.34338" lon="6.02817">
        <ele>705.2644043</ele>
        <time>2014-08-19T12:20:49Z</time>
      </trkpt>
      <trkpt lat="44.34348" lon="6.02837">
        <ele>705.7451172</ele>
        <time>2014-08-19T12:20:53Z</time>
      </trkpt>
      <trkpt lat="44.34359" lon="6.02858">
        <ele>706.2255859</ele>
        <time>2014-08-19T12:20:58Z</time>
      </trkpt>
      <trkpt lat="44.34364" lon="6.02859">
        <ele>706.7062988</ele>
        <time>2014-08-19T12:21:00Z</time>
      </trkpt>
      <trkpt lat="44.34421" lon="6.02919">
        <ele>709.590332</ele>
        <time>2014-08-19T12:21:19Z</time>
      </trkpt>
      <trkpt lat="44.34457" lon="6.02955">
        <ele>711.0322266</ele>
        <time>2014-08-19T12:21:34Z</time>
      </trkpt>
      <trkpt lat="44.34483" lon="6.02969">
        <ele>712.954834</ele>
        <time>2014-08-19T12:21:48Z</time>
      </trkpt>
      <trkpt lat="44.34504" lon="6.02955">
        <ele>713.9160156</ele>
        <time>2014-08-19T12:21:58Z</time>
      </trkpt>
      <trkpt lat="44.34509" lon="6.02945">
        <ele>714.8774414</ele>
        <time>2014-08-19T12:22:07Z</time>
      </trkpt>
      <trkpt lat="44.34508" lon="6.02938">
        <ele>713.4355469</ele>
        <time>2014-08-19T12:22:58Z</time>
      </trkpt>
    </trkseg>
  </trk>
</gpx>